<?xml version="1.0" encoding="UTF-8" standalone="no" ?>
<gpx xmlns="http://www.topografix.com/GPX/1/1" xmlns:xsi="http://www.w3.org/2001/XMLSchema-instance" xsi:schemaLocation="http://www.topografix.com/GPX/1/1 http://www.topografix.com/GPX/1/1/gpx.xsd" version="1.1" creator="VisuGPX - https://www.visugpx.com">
  <metadata>
    <name>Jour 7 : Menez Hom_Pointe du Van</name>
  </metadata>
  <trk>
    <name><![CDATA[G_GTB 2022-Menez Hom_Pointe du Van]]></name>
    <trkseg>
      <trkpt lat="48.21986" lon="-4.23481">
        <ele>318.460515</ele>
        <time>2021-09-30T09:53:10.036Z</time>
      </trkpt>
      <trkpt lat="48.21998" lon="-4.23422">
        <ele>318.460515</ele>
        <time>2021-09-30T09:53:18.922Z</time>
      </trkpt>
      <trkpt lat="48.22001" lon="-4.23397">
        <ele>318.460515</ele>
        <time>2021-09-30T09:53:22.525Z</time>
      </trkpt>
      <trkpt lat="48.21999" lon="-4.23337">
        <ele>318.088746</ele>
        <time>2021-09-30T09:53:30.954Z</time>
      </trkpt>
      <trkpt lat="48.21996" lon="-4.23323">
        <ele>317.661026</ele>
        <time>2021-09-30T09:53:32.924Z</time>
      </trkpt>
      <trkpt lat="48.2199" lon="-4.23259">
        <ele>315.713333</ele>
        <time>2021-09-30T09:53:41.805Z</time>
      </trkpt>
      <trkpt lat="48.21997" lon="-4.23233">
        <ele>314.871326</ele>
        <time>2021-09-30T09:53:45.618Z</time>
      </trkpt>
      <trkpt lat="48.2202" lon="-4.23149">
        <ele>312.159086</ele>
        <time>2021-09-30T09:53:57.662Z</time>
      </trkpt>
      <trkpt lat="48.22034" lon="-4.23066">
        <ele>308.952245</ele>
        <time>2021-09-30T09:54:08.008Z</time>
      </trkpt>
      <trkpt lat="48.22035" lon="-4.22965">
        <ele>303.355105</ele>
        <time>2021-09-30T09:54:19.990Z</time>
      </trkpt>
      <trkpt lat="48.22037" lon="-4.22934">
        <ele>301.614423</ele>
        <time>2021-09-30T09:54:23.706Z</time>
      </trkpt>
      <trkpt lat="48.22062" lon="-4.22843">
        <ele>296.201753</ele>
        <time>2021-09-30T09:54:35.114Z</time>
      </trkpt>
      <trkpt lat="48.2205" lon="-4.22756">
        <ele>290.130523</ele>
        <time>2021-09-30T09:54:45.451Z</time>
      </trkpt>
      <trkpt lat="48.22057" lon="-4.22747">
        <ele>289.163452</ele>
        <time>2021-09-30T09:54:46.971Z</time>
      </trkpt>
      <trkpt lat="48.22084" lon="-4.2275">
        <ele>286.214286</ele>
        <time>2021-09-30T09:54:51.677Z</time>
      </trkpt>
      <trkpt lat="48.22079" lon="-4.22688">
        <ele>281.813297</ele>
        <time>2021-09-30T09:54:58.677Z</time>
      </trkpt>
      <trkpt lat="48.22082" lon="-4.22644">
        <ele>278.693335</ele>
        <time>2021-09-30T09:55:03.699Z</time>
      </trkpt>
      <trkpt lat="48.22093" lon="-4.22624">
        <ele>276.844359</ele>
        <time>2021-09-30T09:55:06.618Z</time>
      </trkpt>
      <trkpt lat="48.22133" lon="-4.22496">
        <ele>265.607525</ele>
        <time>2021-09-30T09:55:22.518Z</time>
      </trkpt>
      <trkpt lat="48.22087" lon="-4.22479">
        <ele>259.944888</ele>
        <time>2021-09-30T09:55:30.417Z</time>
      </trkpt>
      <trkpt lat="48.22084" lon="-4.22477">
        <ele>259.544828</ele>
        <time>2021-09-30T09:55:30.947Z</time>
      </trkpt>
      <trkpt lat="48.22066" lon="-4.22464">
        <ele>257.176488</ele>
        <time>2021-09-30T09:55:34.239Z</time>
      </trkpt>
      <trkpt lat="48.22054" lon="-4.22441">
        <ele>254.825407</ele>
        <time>2021-09-30T09:55:37.448Z</time>
      </trkpt>
      <trkpt lat="48.2204" lon="-4.22374">
        <ele>249.576777</ele>
        <time>2021-09-30T09:55:45.126Z</time>
      </trkpt>
      <trkpt lat="48.22035" lon="-4.22367">
        <ele>248.770374</ele>
        <time>2021-09-30T09:55:46.317Z</time>
      </trkpt>
      <trkpt lat="48.21952" lon="-4.22414">
        <ele>238.861608</ele>
        <time>2021-09-30T09:56:01.165Z</time>
      </trkpt>
      <trkpt lat="48.21903" lon="-4.2245">
        <ele>233.223311</ele>
        <time>2021-09-30T09:56:10.758Z</time>
      </trkpt>
      <trkpt lat="48.21882" lon="-4.22474">
        <ele>231.125675</ele>
        <time>2021-09-30T09:56:15.325Z</time>
      </trkpt>
      <trkpt lat="48.21855" lon="-4.22489">
        <ele>228.852089</ele>
        <time>2021-09-30T09:56:20.316Z</time>
      </trkpt>
      <trkpt lat="48.21844" lon="-4.22487">
        <ele>227.919234</ele>
        <time>2021-09-30T09:56:22.353Z</time>
      </trkpt>
      <trkpt lat="48.21827" lon="-4.22448">
        <ele>225.432078</ele>
        <time>2021-09-30T09:56:27.889Z</time>
      </trkpt>
      <trkpt lat="48.21789" lon="-4.22409">
        <ele>221.734328</ele>
        <time>2021-09-30T09:56:36.280Z</time>
      </trkpt>
      <trkpt lat="48.21776" lon="-4.2241">
        <ele>220.750096</ele>
        <time>2021-09-30T09:56:38.599Z</time>
      </trkpt>
      <trkpt lat="48.2176" lon="-4.22423">
        <ele>219.438181</ele>
        <time>2021-09-30T09:56:42.084Z</time>
      </trkpt>
      <trkpt lat="48.2169" lon="-4.22414">
        <ele>214.843281</ele>
        <time>2021-09-30T09:56:55.525Z</time>
      </trkpt>
      <trkpt lat="48.21624" lon="-4.22377">
        <ele>210.26299</ele>
        <time>2021-09-30T09:57:08.418Z</time>
      </trkpt>
      <trkpt lat="48.21565" lon="-4.22372">
        <ele>205.798121</ele>
        <time>2021-09-30T09:57:19.031Z</time>
      </trkpt>
      <trkpt lat="48.21552" lon="-4.2239">
        <ele>204.372772</ele>
        <time>2021-09-30T09:57:21.991Z</time>
      </trkpt>
      <trkpt lat="48.21532" lon="-4.22443">
        <ele>200.954726</ele>
        <time>2021-09-30T09:57:29.175Z</time>
      </trkpt>
      <trkpt lat="48.21501" lon="-4.22348">
        <ele>195.119043</ele>
        <time>2021-09-30T09:57:41.508Z</time>
      </trkpt>
      <trkpt lat="48.21493" lon="-4.22311">
        <ele>192.984486</ele>
        <time>2021-09-30T09:57:46.294Z</time>
      </trkpt>
      <trkpt lat="48.21493" lon="-4.2231">
        <ele>192.939448</ele>
        <time>2021-09-30T09:57:46.402Z</time>
      </trkpt>
      <trkpt lat="48.21481" lon="-4.22282">
        <ele>191.413497</ele>
        <time>2021-09-30T09:57:50.241Z</time>
      </trkpt>
      <trkpt lat="48.21466" lon="-4.22267">
        <ele>190.112232</ele>
        <time>2021-09-30T09:57:53.386Z</time>
      </trkpt>
      <trkpt lat="48.21423" lon="-4.22243">
        <ele>186.847163</ele>
        <time>2021-09-30T09:58:01.553Z</time>
      </trkpt>
      <trkpt lat="48.21399" lon="-4.22216">
        <ele>184.698847</ele>
        <time>2021-09-30T09:58:07.020Z</time>
      </trkpt>
      <trkpt lat="48.2137" lon="-4.22181">
        <ele>182.058683</ele>
        <time>2021-09-30T09:58:13.887Z</time>
      </trkpt>
      <trkpt lat="48.21343" lon="-4.22125">
        <ele>179.742514</ele>
        <time>2021-09-30T09:58:22.936Z</time>
      </trkpt>
      <trkpt lat="48.21345" lon="-4.22077">
        <ele>178.663827</ele>
        <time>2021-09-30T09:58:29.387Z</time>
      </trkpt>
      <trkpt lat="48.21398" lon="-4.21969">
        <ele>175.675998</ele>
        <time>2021-09-30T09:58:47.585Z</time>
      </trkpt>
      <trkpt lat="48.21487" lon="-4.21872">
        <ele>173.790514</ele>
        <time>2021-09-30T09:59:12.684Z</time>
      </trkpt>
      <trkpt lat="48.21538" lon="-4.21828">
        <ele>173.206763</ele>
        <time>2021-09-30T09:59:26.946Z</time>
      </trkpt>
      <trkpt lat="48.21581" lon="-4.21803">
        <ele>172.772665</ele>
        <time>2021-09-30T09:59:38.093Z</time>
      </trkpt>
      <trkpt lat="48.21637" lon="-4.21763">
        <ele>172.681142</ele>
        <time>2021-09-30T09:59:53.526Z</time>
      </trkpt>
      <trkpt lat="48.21691" lon="-4.2175">
        <ele>172.599627</ele>
        <time>2021-09-30T10:00:07.521Z</time>
      </trkpt>
      <trkpt lat="48.2174" lon="-4.21729">
        <ele>172.52524</ele>
        <time>2021-09-30T10:00:20.297Z</time>
      </trkpt>
      <trkpt lat="48.2182" lon="-4.21657">
        <ele>171.99429</ele>
        <time>2021-09-30T10:00:43.468Z</time>
      </trkpt>
      <trkpt lat="48.2197" lon="-4.21536">
        <ele>171.11098</ele>
        <time>2021-09-30T10:01:23.451Z</time>
      </trkpt>
      <trkpt lat="48.22057" lon="-4.21473">
        <ele>170.7342</ele>
        <time>2021-09-30T10:01:47.665Z</time>
      </trkpt>
      <trkpt lat="48.22112" lon="-4.21452">
        <ele>170.872187</ele>
        <time>2021-09-30T10:02:02.758Z</time>
      </trkpt>
      <trkpt lat="48.22152" lon="-4.21436">
        <ele>171.028675</ele>
        <time>2021-09-30T10:02:14.355Z</time>
      </trkpt>
      <trkpt lat="48.2219" lon="-4.21409">
        <ele>171.188219</ele>
        <time>2021-09-30T10:02:26.398Z</time>
      </trkpt>
      <trkpt lat="48.22228" lon="-4.21397">
        <ele>171.334135</ele>
        <time>2021-09-30T10:02:37.709Z</time>
      </trkpt>
      <trkpt lat="48.2234" lon="-4.21326">
        <ele>169.461822</ele>
        <time>2021-09-30T10:03:07.275Z</time>
      </trkpt>
      <trkpt lat="48.22365" lon="-4.21331">
        <ele>169.039863</ele>
        <time>2021-09-30T10:03:12.403Z</time>
      </trkpt>
      <trkpt lat="48.2241" lon="-4.21325">
        <ele>168.194527</ele>
        <time>2021-09-30T10:03:21.361Z</time>
      </trkpt>
      <trkpt lat="48.22442" lon="-4.2132">
        <ele>165.900115</ele>
        <time>2021-09-30T10:03:27.810Z</time>
      </trkpt>
      <trkpt lat="48.22465" lon="-4.21298">
        <ele>164.010919</ele>
        <time>2021-09-30T10:03:33.109Z</time>
      </trkpt>
      <trkpt lat="48.22479" lon="-4.21276">
        <ele>162.589483</ele>
        <time>2021-09-30T10:03:36.777Z</time>
      </trkpt>
      <trkpt lat="48.22481" lon="-4.21179">
        <ele>158.03957</ele>
        <time>2021-09-30T10:03:48.334Z</time>
      </trkpt>
      <trkpt lat="48.22501" lon="-4.21164">
        <ele>156.463124</ele>
        <time>2021-09-30T10:03:52.240Z</time>
      </trkpt>
      <trkpt lat="48.22529" lon="-4.21126">
        <ele>152.76596</ele>
        <time>2021-09-30T10:03:58.641Z</time>
      </trkpt>
      <trkpt lat="48.22572" lon="-4.21005">
        <ele>142.601747</ele>
        <time>2021-09-30T10:04:14.337Z</time>
      </trkpt>
      <trkpt lat="48.22543" lon="-4.20946">
        <ele>137.183311</ele>
        <time>2021-09-30T10:04:22.490Z</time>
      </trkpt>
      <trkpt lat="48.22531" lon="-4.20887">
        <ele>131.753879</ele>
        <time>2021-09-30T10:04:29.192Z</time>
      </trkpt>
      <trkpt lat="48.22501" lon="-4.20652">
        <ele>109.117333</ele>
        <time>2021-09-30T10:04:55.096Z</time>
      </trkpt>
      <trkpt lat="48.22465" lon="-4.20514">
        <ele>95.456639</ele>
        <time>2021-09-30T10:05:11.157Z</time>
      </trkpt>
      <trkpt lat="48.22443" lon="-4.20483">
        <ele>91.228788</ele>
        <time>2021-09-30T10:05:16.203Z</time>
      </trkpt>
      <trkpt lat="48.2244" lon="-4.20471">
        <ele>90.071443</ele>
        <time>2021-09-30T10:05:17.558Z</time>
      </trkpt>
      <trkpt lat="48.22459" lon="-4.20284">
        <ele>74.122589</ele>
        <time>2021-09-30T10:05:38.608Z</time>
      </trkpt>
      <trkpt lat="48.22452" lon="-4.20193">
        <ele>66.711899</ele>
        <time>2021-09-30T10:05:48.677Z</time>
      </trkpt>
      <trkpt lat="48.22493" lon="-4.20075">
        <ele>57.537661</ele>
        <time>2021-09-30T10:06:03.555Z</time>
      </trkpt>
      <trkpt lat="48.22511" lon="-4.20034">
        <ele>54.43749</ele>
        <time>2021-09-30T10:06:09.176Z</time>
      </trkpt>
      <trkpt lat="48.22506" lon="-4.20016">
        <ele>53.232435</ele>
        <time>2021-09-30T10:06:11.302Z</time>
      </trkpt>
      <trkpt lat="48.22484" lon="-4.19984">
        <ele>50.313358</ele>
        <time>2021-09-30T10:06:16.908Z</time>
      </trkpt>
      <trkpt lat="48.22468" lon="-4.19942">
        <ele>47.258991</ele>
        <time>2021-09-30T10:06:22.817Z</time>
      </trkpt>
      <trkpt lat="48.22512" lon="-4.19899">
        <ele>44.404473</ele>
        <time>2021-09-30T10:06:32.239Z</time>
      </trkpt>
      <trkpt lat="48.22512" lon="-4.19899">
        <ele>44.404473</ele>
        <time>2021-09-30T10:06:32.307Z</time>
      </trkpt>
      <trkpt lat="48.22511" lon="-4.19814">
        <ele>41.951208</ele>
        <time>2021-09-30T10:06:38.536Z</time>
      </trkpt>
      <trkpt lat="48.22498" lon="-4.19745">
        <ele>39.853723</ele>
        <time>2021-09-30T10:06:44.524Z</time>
      </trkpt>
      <trkpt lat="48.22505" lon="-4.197">
        <ele>38.524297</ele>
        <time>2021-09-30T10:06:48.649Z</time>
      </trkpt>
      <trkpt lat="48.22517" lon="-4.19636">
        <ele>39.065981</ele>
        <time>2021-09-30T10:06:55.187Z</time>
      </trkpt>
      <trkpt lat="48.2257" lon="-4.19621">
        <ele>39.941461</ele>
        <time>2021-09-30T10:07:05.133Z</time>
      </trkpt>
      <trkpt lat="48.22558" lon="-4.19571">
        <ele>40.512788</ele>
        <time>2021-09-30T10:07:13.393Z</time>
      </trkpt>
      <trkpt lat="48.22563" lon="-4.19525">
        <ele>41.020577</ele>
        <time>2021-09-30T10:07:22.439Z</time>
      </trkpt>
      <trkpt lat="48.22637" lon="-4.19319">
        <ele>47.66149</ele>
        <time>2021-09-30T10:08:17.666Z</time>
      </trkpt>
      <trkpt lat="48.22701" lon="-4.19176">
        <ele>53.224262</ele>
        <time>2021-09-30T10:08:54.521Z</time>
      </trkpt>
      <trkpt lat="48.22704" lon="-4.19169">
        <ele>53.497365</ele>
        <time>2021-09-30T10:08:56.386Z</time>
      </trkpt>
      <trkpt lat="48.22712" lon="-4.19121">
        <ele>55.148799</ele>
        <time>2021-09-30T10:09:06.770Z</time>
      </trkpt>
      <trkpt lat="48.22707" lon="-4.19081">
        <ele>56.484439</ele>
        <time>2021-09-30T10:09:15.502Z</time>
      </trkpt>
      <trkpt lat="48.22659" lon="-4.18923">
        <ele>63.840931</ele>
        <time>2021-09-30T10:10:05.404Z</time>
      </trkpt>
      <trkpt lat="48.22628" lon="-4.18773">
        <ele>71.29206</ele>
        <time>2021-09-30T10:10:54.404Z</time>
      </trkpt>
      <trkpt lat="48.22625" lon="-4.18743">
        <ele>72.305244</ele>
        <time>2021-09-30T10:11:04.580Z</time>
      </trkpt>
      <trkpt lat="48.22624" lon="-4.18737">
        <ele>72.514261</ele>
        <time>2021-09-30T10:11:06.178Z</time>
      </trkpt>
      <trkpt lat="48.22664" lon="-4.18455">
        <ele>80.781533</ele>
        <time>2021-09-30T10:12:07.475Z</time>
      </trkpt>
      <trkpt lat="48.22664" lon="-4.18378">
        <ele>81.915676</ele>
        <time>2021-09-30T10:12:18.102Z</time>
      </trkpt>
      <trkpt lat="48.22609" lon="-4.18269">
        <ele>83.908868</ele>
        <time>2021-09-30T10:12:38.654Z</time>
      </trkpt>
      <trkpt lat="48.22513" lon="-4.1812">
        <ele>85.544635</ele>
        <time>2021-09-30T10:13:07.648Z</time>
      </trkpt>
      <trkpt lat="48.22502" lon="-4.18098">
        <ele>85.757106</ele>
        <time>2021-09-30T10:13:10.992Z</time>
      </trkpt>
      <trkpt lat="48.22495" lon="-4.18084">
        <ele>85.888865</ele>
        <time>2021-09-30T10:13:13.106Z</time>
      </trkpt>
      <trkpt lat="48.22462" lon="-4.17979">
        <ele>85.831567</ele>
        <time>2021-09-30T10:13:25.232Z</time>
      </trkpt>
      <trkpt lat="48.2245" lon="-4.17915">
        <ele>85.660372</ele>
        <time>2021-09-30T10:13:31.401Z</time>
      </trkpt>
      <trkpt lat="48.2244" lon="-4.17723">
        <ele>85.818083</ele>
        <time>2021-09-30T10:13:49.032Z</time>
      </trkpt>
      <trkpt lat="48.22436" lon="-4.17638">
        <ele>86.277956</ele>
        <time>2021-09-30T10:13:59.329Z</time>
      </trkpt>
      <trkpt lat="48.22428" lon="-4.17594">
        <ele>86.523273</ele>
        <time>2021-09-30T10:14:05.807Z</time>
      </trkpt>
      <trkpt lat="48.22412" lon="-4.17539">
        <ele>86.892159</ele>
        <time>2021-09-30T10:14:15.131Z</time>
      </trkpt>
      <trkpt lat="48.22323" lon="-4.17313">
        <ele>92.522659</ele>
        <time>2021-09-30T10:15:05.769Z</time>
      </trkpt>
      <trkpt lat="48.22292" lon="-4.17238">
        <ele>94.427606</ele>
        <time>2021-09-30T10:15:23.237Z</time>
      </trkpt>
      <trkpt lat="48.22257" lon="-4.17136">
        <ele>96.875845</ele>
        <time>2021-09-30T10:15:45.194Z</time>
      </trkpt>
      <trkpt lat="48.22225" lon="-4.17073">
        <ele>98.522632</ele>
        <time>2021-09-30T10:15:59.635Z</time>
      </trkpt>
      <trkpt lat="48.222" lon="-4.17033">
        <ele>99.322101</ele>
        <time>2021-09-30T10:16:08.847Z</time>
      </trkpt>
      <trkpt lat="48.22138" lon="-4.16961">
        <ele>101.02574</ele>
        <time>2021-09-30T10:16:27.774Z</time>
      </trkpt>
      <trkpt lat="48.22073" lon="-4.1688">
        <ele>102.521579</ele>
        <time>2021-09-30T10:16:46.774Z</time>
      </trkpt>
      <trkpt lat="48.22063" lon="-4.16859">
        <ele>102.645756</ele>
        <time>2021-09-30T10:16:50.299Z</time>
      </trkpt>
      <trkpt lat="48.22023" lon="-4.1678">
        <ele>103.122723</ele>
        <time>2021-09-30T10:17:02.016Z</time>
      </trkpt>
      <trkpt lat="48.22019" lon="-4.16753">
        <ele>103.256443</ele>
        <time>2021-09-30T10:17:05.151Z</time>
      </trkpt>
      <trkpt lat="48.22022" lon="-4.16678">
        <ele>103.62252</ele>
        <time>2021-09-30T10:17:13.491Z</time>
      </trkpt>
      <trkpt lat="48.22021" lon="-4.16656">
        <ele>103.621489</ele>
        <time>2021-09-30T10:17:15.783Z</time>
      </trkpt>
      <trkpt lat="48.22011" lon="-4.16638">
        <ele>103.589097</ele>
        <time>2021-09-30T10:17:18.249Z</time>
      </trkpt>
      <trkpt lat="48.21985" lon="-4.16612">
        <ele>103.52438</ele>
        <time>2021-09-30T10:17:23.049Z</time>
      </trkpt>
      <trkpt lat="48.21969" lon="-4.16603">
        <ele>103.489666</ele>
        <time>2021-09-30T10:17:25.563Z</time>
      </trkpt>
      <trkpt lat="48.21971" lon="-4.16577">
        <ele>103.453543</ele>
        <time>2021-09-30T10:17:28.252Z</time>
      </trkpt>
      <trkpt lat="48.21978" lon="-4.1652">
        <ele>103.373369</ele>
        <time>2021-09-30T10:17:34.060Z</time>
      </trkpt>
      <trkpt lat="48.21978" lon="-4.165">
        <ele>103.345852</ele>
        <time>2021-09-30T10:17:35.970Z</time>
      </trkpt>
      <trkpt lat="48.21977" lon="-4.16496">
        <ele>103.340535</ele>
        <time>2021-09-30T10:17:36.339Z</time>
      </trkpt>
      <trkpt lat="48.21971" lon="-4.16477">
        <ele>103.312281</ele>
        <time>2021-09-30T10:17:38.459Z</time>
      </trkpt>
      <trkpt lat="48.21953" lon="-4.16415">
        <ele>102.992047</ele>
        <time>2021-09-30T10:17:45.181Z</time>
      </trkpt>
      <trkpt lat="48.21921" lon="-4.16259">
        <ele>101.859697</ele>
        <time>2021-09-30T10:18:00.400Z</time>
      </trkpt>
      <trkpt lat="48.21916" lon="-4.16236">
        <ele>101.69502</ele>
        <time>2021-09-30T10:18:02.582Z</time>
      </trkpt>
      <trkpt lat="48.21899" lon="-4.16158">
        <ele>101.275284</ele>
        <time>2021-09-30T10:18:10.391Z</time>
      </trkpt>
      <trkpt lat="48.21876" lon="-4.16037">
        <ele>100.882012</ele>
        <time>2021-09-30T10:18:22.548Z</time>
      </trkpt>
      <trkpt lat="48.21874" lon="-4.16024">
        <ele>100.839789</ele>
        <time>2021-09-30T10:18:23.880Z</time>
      </trkpt>
      <trkpt lat="48.21859" lon="-4.15952">
        <ele>100.603847</ele>
        <time>2021-09-30T10:18:31.921Z</time>
      </trkpt>
      <trkpt lat="48.21833" lon="-4.15836">
        <ele>101.982202</ele>
        <time>2021-09-30T10:18:48.613Z</time>
      </trkpt>
      <trkpt lat="48.21826" lon="-4.1583">
        <ele>102.138888</ele>
        <time>2021-09-30T10:18:54.119Z</time>
      </trkpt>
      <trkpt lat="48.21811" lon="-4.15788">
        <ele>102.766972</ele>
        <time>2021-09-30T10:19:03.396Z</time>
      </trkpt>
      <trkpt lat="48.21812" lon="-4.15776">
        <ele>102.931867</ele>
        <time>2021-09-30T10:19:05.884Z</time>
      </trkpt>
      <trkpt lat="48.21805" lon="-4.1577">
        <ele>103.099477</ele>
        <time>2021-09-30T10:19:08.397Z</time>
      </trkpt>
      <trkpt lat="48.21771" lon="-4.15695">
        <ele>104.493442</ele>
        <time>2021-09-30T10:19:25.021Z</time>
      </trkpt>
      <trkpt lat="48.2169" lon="-4.15519">
        <ele>110.433437</ele>
        <time>2021-09-30T10:20:11.996Z</time>
      </trkpt>
      <trkpt lat="48.21648" lon="-4.15401">
        <ele>114.535648</ele>
        <time>2021-09-30T10:20:44.127Z</time>
      </trkpt>
      <trkpt lat="48.21614" lon="-4.1526">
        <ele>119.364283</ele>
        <time>2021-09-30T10:21:19.310Z</time>
      </trkpt>
      <trkpt lat="48.21548" lon="-4.14968">
        <ele>129.879345</ele>
        <time>2021-09-30T10:22:33.338Z</time>
      </trkpt>
      <trkpt lat="48.21488" lon="-4.14695">
        <ele>141.574276</ele>
        <time>2021-09-30T10:23:54.359Z</time>
      </trkpt>
      <trkpt lat="48.21459" lon="-4.14567">
        <ele>145.847319</ele>
        <time>2021-09-30T10:24:29.249Z</time>
      </trkpt>
      <trkpt lat="48.21437" lon="-4.14465">
        <ele>149.256148</ele>
        <time>2021-09-30T10:24:51.213Z</time>
      </trkpt>
      <trkpt lat="48.21425" lon="-4.14329">
        <ele>150.706631</ele>
        <time>2021-09-30T10:25:13.014Z</time>
      </trkpt>
      <trkpt lat="48.2143" lon="-4.14187">
        <ele>152.167009</ele>
        <time>2021-09-30T10:25:30.919Z</time>
      </trkpt>
      <trkpt lat="48.21434" lon="-4.14093">
        <ele>153.261873</ele>
        <time>2021-09-30T10:25:43.005Z</time>
      </trkpt>
      <trkpt lat="48.21432" lon="-4.14005">
        <ele>154.281632</ele>
        <time>2021-09-30T10:25:55.867Z</time>
      </trkpt>
      <trkpt lat="48.21421" lon="-4.13925">
        <ele>155.2646</ele>
        <time>2021-09-30T10:26:10.858Z</time>
      </trkpt>
      <trkpt lat="48.21396" lon="-4.13825">
        <ele>158.10319</ele>
        <time>2021-09-30T10:26:33.609Z</time>
      </trkpt>
      <trkpt lat="48.2138" lon="-4.13781">
        <ele>159.45212</ele>
        <time>2021-09-30T10:26:44.935Z</time>
      </trkpt>
      <trkpt lat="48.21325" lon="-4.13683">
        <ele>162.822826</ele>
        <time>2021-09-30T10:27:13.919Z</time>
      </trkpt>
      <trkpt lat="48.21214" lon="-4.13563">
        <ele>167.803285</ele>
        <time>2021-09-30T10:27:57.502Z</time>
      </trkpt>
      <trkpt lat="48.21191" lon="-4.1354">
        <ele>168.80632</ele>
        <time>2021-09-30T10:28:04.824Z</time>
      </trkpt>
      <trkpt lat="48.21104" lon="-4.13453">
        <ele>170.949507</ele>
        <time>2021-09-30T10:28:30.682Z</time>
      </trkpt>
      <trkpt lat="48.21007" lon="-4.13356">
        <ele>173.05115</ele>
        <time>2021-09-30T10:28:56.423Z</time>
      </trkpt>
      <trkpt lat="48.20996" lon="-4.13339">
        <ele>173.283745</ele>
        <time>2021-09-30T10:28:59.839Z</time>
      </trkpt>
      <trkpt lat="48.20903" lon="-4.13193">
        <ele>175.283075</ele>
        <time>2021-09-30T10:29:29.380Z</time>
      </trkpt>
      <trkpt lat="48.20867" lon="-4.13134">
        <ele>176.240337</ele>
        <time>2021-09-30T10:29:41.735Z</time>
      </trkpt>
      <trkpt lat="48.20838" lon="-4.13088">
        <ele>176.988883</ele>
        <time>2021-09-30T10:29:51.668Z</time>
      </trkpt>
      <trkpt lat="48.20831" lon="-4.13076">
        <ele>177.182097</ele>
        <time>2021-09-30T10:29:54.245Z</time>
      </trkpt>
      <trkpt lat="48.20737" lon="-4.12927">
        <ele>179.598727</ele>
        <time>2021-09-30T10:30:26.587Z</time>
      </trkpt>
      <trkpt lat="48.20711" lon="-4.12877">
        <ele>180.343372</ele>
        <time>2021-09-30T10:30:36.492Z</time>
      </trkpt>
      <trkpt lat="48.20681" lon="-4.12809">
        <ele>181.303626</ele>
        <time>2021-09-30T10:30:49.151Z</time>
      </trkpt>
      <trkpt lat="48.20637" lon="-4.12684">
        <ele>182.309587</ele>
        <time>2021-09-30T10:31:09.334Z</time>
      </trkpt>
      <trkpt lat="48.20616" lon="-4.12624">
        <ele>182.74494</ele>
        <time>2021-09-30T10:31:18.532Z</time>
      </trkpt>
      <trkpt lat="48.20596" lon="-4.12565">
        <ele>183.169173</ele>
        <time>2021-09-30T10:31:26.688Z</time>
      </trkpt>
      <trkpt lat="48.20579" lon="-4.12512">
        <ele>182.889126</ele>
        <time>2021-09-30T10:31:33.251Z</time>
      </trkpt>
      <trkpt lat="48.20554" lon="-4.12456">
        <ele>182.335268</ele>
        <time>2021-09-30T10:31:40.254Z</time>
      </trkpt>
      <trkpt lat="48.20416" lon="-4.12176">
        <ele>177.092712</ele>
        <time>2021-09-30T10:32:10.508Z</time>
      </trkpt>
      <trkpt lat="48.20395" lon="-4.12143">
        <ele>176.152544</ele>
        <time>2021-09-30T10:32:14.027Z</time>
      </trkpt>
      <trkpt lat="48.20371" lon="-4.12097">
        <ele>174.434018</ele>
        <time>2021-09-30T10:32:18.449Z</time>
      </trkpt>
      <trkpt lat="48.20256" lon="-4.11908">
        <ele>163.944552</ele>
        <time>2021-09-30T10:32:36.967Z</time>
      </trkpt>
      <trkpt lat="48.20247" lon="-4.11894">
        <ele>163.147473</ele>
        <time>2021-09-30T10:32:38.351Z</time>
      </trkpt>
      <trkpt lat="48.20212" lon="-4.11834">
        <ele>159.822452</ele>
        <time>2021-09-30T10:32:44.235Z</time>
      </trkpt>
      <trkpt lat="48.20177" lon="-4.11763">
        <ele>156.198223</ele>
        <time>2021-09-30T10:32:50.668Z</time>
      </trkpt>
      <trkpt lat="48.20153" lon="-4.11714">
        <ele>153.666231</ele>
        <time>2021-09-30T10:32:55.142Z</time>
      </trkpt>
      <trkpt lat="48.20142" lon="-4.11693">
        <ele>152.468833</ele>
        <time>2021-09-30T10:32:57.108Z</time>
      </trkpt>
      <trkpt lat="48.20132" lon="-4.11673">
        <ele>151.306632</ele>
        <time>2021-09-30T10:32:58.941Z</time>
      </trkpt>
      <trkpt lat="48.20043" lon="-4.11487">
        <ele>140.599031</ele>
        <time>2021-09-30T10:33:15.338Z</time>
      </trkpt>
      <trkpt lat="48.19967" lon="-4.11331">
        <ele>128.160535</ele>
        <time>2021-09-30T10:33:28.528Z</time>
      </trkpt>
      <trkpt lat="48.19945" lon="-4.1125">
        <ele>122.462849</ele>
        <time>2021-09-30T10:33:34.398Z</time>
      </trkpt>
      <trkpt lat="48.19931" lon="-4.11139">
        <ele>114.743307</ele>
        <time>2021-09-30T10:33:41.964Z</time>
      </trkpt>
      <trkpt lat="48.19933" lon="-4.11075">
        <ele>110.374073</ele>
        <time>2021-09-30T10:33:46.257Z</time>
      </trkpt>
      <trkpt lat="48.19938" lon="-4.10907">
        <ele>99.932236</ele>
        <time>2021-09-30T10:33:57.799Z</time>
      </trkpt>
      <trkpt lat="48.19924" lon="-4.109">
        <ele>98.652849</ele>
        <time>2021-09-30T10:33:59.294Z</time>
      </trkpt>
      <trkpt lat="48.19904" lon="-4.10817">
        <ele>93.721575</ele>
        <time>2021-09-30T10:34:05.146Z</time>
      </trkpt>
      <trkpt lat="48.19885" lon="-4.10778">
        <ele>91.029479</ele>
        <time>2021-09-30T10:34:08.410Z</time>
      </trkpt>
      <trkpt lat="48.1977" lon="-4.10648">
        <ele>78.01806</ele>
        <time>2021-09-30T10:34:22.463Z</time>
      </trkpt>
      <trkpt lat="48.19752" lon="-4.10622">
        <ele>75.698714</ele>
        <time>2021-09-30T10:34:24.898Z</time>
      </trkpt>
      <trkpt lat="48.19715" lon="-4.10547">
        <ele>69.26318</ele>
        <time>2021-09-30T10:34:30.749Z</time>
      </trkpt>
      <trkpt lat="48.19703" lon="-4.10532">
        <ele>67.390688</ele>
        <time>2021-09-30T10:34:32.254Z</time>
      </trkpt>
      <trkpt lat="48.19658" lon="-4.10476">
        <ele>60.66391</ele>
        <time>2021-09-30T10:34:37.682Z</time>
      </trkpt>
      <trkpt lat="48.19635" lon="-4.10439">
        <ele>56.842921</ele>
        <time>2021-09-30T10:34:40.778Z</time>
      </trkpt>
      <trkpt lat="48.19599" lon="-4.10348">
        <ele>50.085916</ele>
        <time>2021-09-30T10:34:47.484Z</time>
      </trkpt>
      <trkpt lat="48.19597" lon="-4.10343">
        <ele>49.779721</ele>
        <time>2021-09-30T10:34:47.885Z</time>
      </trkpt>
      <trkpt lat="48.19582" lon="-4.10319">
        <ele>48.203292</ele>
        <time>2021-09-30T10:34:49.979Z</time>
      </trkpt>
      <trkpt lat="48.1956" lon="-4.10308">
        <ele>46.424762</ele>
        <time>2021-09-30T10:34:52.367Z</time>
      </trkpt>
      <trkpt lat="48.19543" lon="-4.10316">
        <ele>45.14633</ele>
        <time>2021-09-30T10:34:54.144Z</time>
      </trkpt>
      <trkpt lat="48.19499" lon="-4.10356">
        <ele>41.356669</ele>
        <time>2021-09-30T10:34:59.440Z</time>
      </trkpt>
      <trkpt lat="48.19475" lon="-4.1034">
        <ele>39.388828</ele>
        <time>2021-09-30T10:35:02.210Z</time>
      </trkpt>
      <trkpt lat="48.19479" lon="-4.10328">
        <ele>38.987561</ele>
        <time>2021-09-30T10:35:03.204Z</time>
      </trkpt>
      <trkpt lat="48.195" lon="-4.1026">
        <ele>37.169287</ele>
        <time>2021-09-30T10:35:08.726Z</time>
      </trkpt>
      <trkpt lat="48.19505" lon="-4.10195">
        <ele>35.560076</ele>
        <time>2021-09-30T10:35:14.010Z</time>
      </trkpt>
      <trkpt lat="48.19506" lon="-4.10144">
        <ele>34.300784</ele>
        <time>2021-09-30T10:35:17.964Z</time>
      </trkpt>
      <trkpt lat="48.19517" lon="-4.10119">
        <ele>33.556114</ele>
        <time>2021-09-30T10:35:20.177Z</time>
      </trkpt>
      <trkpt lat="48.19578" lon="-4.10069">
        <ele>31.384459</ele>
        <time>2021-09-30T10:35:27.905Z</time>
      </trkpt>
      <trkpt lat="48.19625" lon="-4.10013">
        <ele>29.675234</ele>
        <time>2021-09-30T10:35:34.614Z</time>
      </trkpt>
      <trkpt lat="48.19633" lon="-4.10003">
        <ele>29.383723</ele>
        <time>2021-09-30T10:35:35.768Z</time>
      </trkpt>
      <trkpt lat="48.19689" lon="-4.09925">
        <ele>27.365783</ele>
        <time>2021-09-30T10:35:45.874Z</time>
      </trkpt>
      <trkpt lat="48.19739" lon="-4.09841">
        <ele>26.253532</ele>
        <time>2021-09-30T10:35:55.867Z</time>
      </trkpt>
      <trkpt lat="48.19778" lon="-4.09716">
        <ele>24.891305</ele>
        <time>2021-09-30T10:36:07.999Z</time>
      </trkpt>
      <trkpt lat="48.1983" lon="-4.09522">
        <ele>20.214226</ele>
        <time>2021-09-30T10:36:24.135Z</time>
      </trkpt>
      <trkpt lat="48.19839" lon="-4.09441">
        <ele>18.29157</ele>
        <time>2021-09-30T10:36:29.978Z</time>
      </trkpt>
      <trkpt lat="48.19837" lon="-4.09362">
        <ele>16.250378</ele>
        <time>2021-09-30T10:36:35.592Z</time>
      </trkpt>
      <trkpt lat="48.1983" lon="-4.09301">
        <ele>14.624864</ele>
        <time>2021-09-30T10:36:40.176Z</time>
      </trkpt>
      <trkpt lat="48.19825" lon="-4.09278">
        <ele>14.010377</ele>
        <time>2021-09-30T10:36:41.945Z</time>
      </trkpt>
      <trkpt lat="48.19815" lon="-4.09231">
        <ele>12.725872</ele>
        <time>2021-09-30T10:36:45.695Z</time>
      </trkpt>
      <trkpt lat="48.19776" lon="-4.09187">
        <ele>11.487253</ele>
        <time>2021-09-30T10:36:51.422Z</time>
      </trkpt>
      <trkpt lat="48.19766" lon="-4.09192">
        <ele>11.350541</ele>
        <time>2021-09-30T10:36:52.774Z</time>
      </trkpt>
      <trkpt lat="48.19733" lon="-4.09233">
        <ele>10.821072</ele>
        <time>2021-09-30T10:36:58.058Z</time>
      </trkpt>
      <trkpt lat="48.1973" lon="-4.09237">
        <ele>10.772431</ele>
        <time>2021-09-30T10:36:58.564Z</time>
      </trkpt>
      <trkpt lat="48.19704" lon="-4.09285">
        <ele>10.266739</ele>
        <time>2021-09-30T10:37:04.139Z</time>
      </trkpt>
      <trkpt lat="48.19671" lon="-4.09348">
        <ele>9.608584</ele>
        <time>2021-09-30T10:37:12.202Z</time>
      </trkpt>
      <trkpt lat="48.19666" lon="-4.09365">
        <ele>9.672605</ele>
        <time>2021-09-30T10:37:14.423Z</time>
      </trkpt>
      <trkpt lat="48.19635" lon="-4.0943">
        <ele>10.284038</ele>
        <time>2021-09-30T10:37:24.375Z</time>
      </trkpt>
      <trkpt lat="48.19622" lon="-4.09457">
        <ele>10.537333</ele>
        <time>2021-09-30T10:37:29.005Z</time>
      </trkpt>
      <trkpt lat="48.19602" lon="-4.09499">
        <ele>10.933068</ele>
        <time>2021-09-30T10:37:36.502Z</time>
      </trkpt>
      <trkpt lat="48.19564" lon="-4.09585">
        <ele>11.729842</ele>
        <time>2021-09-30T10:37:51.323Z</time>
      </trkpt>
      <trkpt lat="48.19557" lon="-4.09603">
        <ele>11.906081</ele>
        <time>2021-09-30T10:37:53.729Z</time>
      </trkpt>
      <trkpt lat="48.19559" lon="-4.09619">
        <ele>12.046439</ele>
        <time>2021-09-30T10:37:56.581Z</time>
      </trkpt>
      <trkpt lat="48.19539" lon="-4.09718">
        <ele>12.946079</ele>
        <time>2021-09-30T10:38:11.395Z</time>
      </trkpt>
      <trkpt lat="48.1953" lon="-4.09761">
        <ele>13.327145</ele>
        <time>2021-09-30T10:38:17.136Z</time>
      </trkpt>
      <trkpt lat="48.19519" lon="-4.09779">
        <ele>13.545526</ele>
        <time>2021-09-30T10:38:20.890Z</time>
      </trkpt>
      <trkpt lat="48.19491" lon="-4.09798">
        <ele>13.939465</ele>
        <time>2021-09-30T10:38:26.632Z</time>
      </trkpt>
      <trkpt lat="48.19475" lon="-4.09807">
        <ele>14.102285</ele>
        <time>2021-09-30T10:38:29.878Z</time>
      </trkpt>
      <trkpt lat="48.19435" lon="-4.09823">
        <ele>14.489084</ele>
        <time>2021-09-30T10:38:37.492Z</time>
      </trkpt>
      <trkpt lat="48.19369" lon="-4.09816">
        <ele>15.108398</ele>
        <time>2021-09-30T10:38:49.914Z</time>
      </trkpt>
      <trkpt lat="48.1931" lon="-4.09799">
        <ele>15.732379</ele>
        <time>2021-09-30T10:39:02.276Z</time>
      </trkpt>
      <trkpt lat="48.1927" lon="-4.09775">
        <ele>16.707899</ele>
        <time>2021-09-30T10:39:12.090Z</time>
      </trkpt>
      <trkpt lat="48.19146" lon="-4.09667">
        <ele>19.980002</ele>
        <time>2021-09-30T10:39:50.339Z</time>
      </trkpt>
      <trkpt lat="48.19112" lon="-4.09634">
        <ele>20.722284</ele>
        <time>2021-09-30T10:39:59.606Z</time>
      </trkpt>
      <trkpt lat="48.19096" lon="-4.0961">
        <ele>21.136117</ele>
        <time>2021-09-30T10:40:04.335Z</time>
      </trkpt>
      <trkpt lat="48.18993" lon="-4.09443">
        <ele>24.601135</ele>
        <time>2021-09-30T10:40:37.951Z</time>
      </trkpt>
      <trkpt lat="48.18982" lon="-4.09425">
        <ele>25.141867</ele>
        <time>2021-09-30T10:40:40.085Z</time>
      </trkpt>
      <trkpt lat="48.18953" lon="-4.09404">
        <ele>26.204967</ele>
        <time>2021-09-30T10:40:49.907Z</time>
      </trkpt>
      <trkpt lat="48.1891" lon="-4.0939">
        <ele>27.682002</ele>
        <time>2021-09-30T10:41:02.439Z</time>
      </trkpt>
      <trkpt lat="48.18897" lon="-4.09393">
        <ele>28.132987</ele>
        <time>2021-09-30T10:41:09.419Z</time>
      </trkpt>
      <trkpt lat="48.18894" lon="-4.09393">
        <ele>28.234129</ele>
        <time>2021-09-30T10:41:10.395Z</time>
      </trkpt>
      <trkpt lat="48.18882" lon="-4.09398">
        <ele>28.635098</ele>
        <time>2021-09-30T10:41:12.907Z</time>
      </trkpt>
      <trkpt lat="48.18875" lon="-4.09402">
        <ele>28.889605</ele>
        <time>2021-09-30T10:41:14.864Z</time>
      </trkpt>
      <trkpt lat="48.18835" lon="-4.09427">
        <ele>31.701583</ele>
        <time>2021-09-30T10:41:33.027Z</time>
      </trkpt>
      <trkpt lat="48.18749" lon="-4.09444">
        <ele>37.728435</ele>
        <time>2021-09-30T10:42:14.284Z</time>
      </trkpt>
      <trkpt lat="48.18666" lon="-4.09433">
        <ele>43.589087</ele>
        <time>2021-09-30T10:42:50.888Z</time>
      </trkpt>
      <trkpt lat="48.18599" lon="-4.09423">
        <ele>48.332144</ele>
        <time>2021-09-30T10:43:22.135Z</time>
      </trkpt>
      <trkpt lat="48.18514" lon="-4.0941">
        <ele>54.40281</ele>
        <time>2021-09-30T10:44:01.699Z</time>
      </trkpt>
      <trkpt lat="48.1848" lon="-4.09414">
        <ele>55.351655</ele>
        <time>2021-09-30T10:44:15.565Z</time>
      </trkpt>
      <trkpt lat="48.18429" lon="-4.09459">
        <ele>56.994046</ele>
        <time>2021-09-30T10:44:33.031Z</time>
      </trkpt>
      <trkpt lat="48.18404" lon="-4.0949">
        <ele>57.905984</ele>
        <time>2021-09-30T10:44:39.972Z</time>
      </trkpt>
      <trkpt lat="48.18389" lon="-4.09516">
        <ele>58.537731</ele>
        <time>2021-09-30T10:44:44.181Z</time>
      </trkpt>
      <trkpt lat="48.18366" lon="-4.09583">
        <ele>59.387255</ele>
        <time>2021-09-30T10:44:52.188Z</time>
      </trkpt>
      <trkpt lat="48.1835" lon="-4.09638">
        <ele>59.376426</ele>
        <time>2021-09-30T10:44:58.349Z</time>
      </trkpt>
      <trkpt lat="48.1834" lon="-4.09658">
        <ele>59.371931</ele>
        <time>2021-09-30T10:45:00.805Z</time>
      </trkpt>
      <trkpt lat="48.18266" lon="-4.09735">
        <ele>59.347642</ele>
        <time>2021-09-30T10:45:14.388Z</time>
      </trkpt>
      <trkpt lat="48.18224" lon="-4.09756">
        <ele>60.338574</ele>
        <time>2021-09-30T10:45:23.331Z</time>
      </trkpt>
      <trkpt lat="48.18155" lon="-4.09751">
        <ele>62.563816</ele>
        <time>2021-09-30T10:45:42.706Z</time>
      </trkpt>
      <trkpt lat="48.18102" lon="-4.09733">
        <ele>64.308218</ele>
        <time>2021-09-30T10:46:00.598Z</time>
      </trkpt>
      <trkpt lat="48.18057" lon="-4.09721">
        <ele>66.578526</ele>
        <time>2021-09-30T10:46:17.042Z</time>
      </trkpt>
      <trkpt lat="48.17971" lon="-4.09692">
        <ele>72.851635</ele>
        <time>2021-09-30T10:46:54.887Z</time>
      </trkpt>
      <trkpt lat="48.17873" lon="-4.09653">
        <ele>80.536497</ele>
        <time>2021-09-30T10:47:47.197Z</time>
      </trkpt>
      <trkpt lat="48.17808" lon="-4.09722">
        <ele>87.333468</ele>
        <time>2021-09-30T10:48:26.002Z</time>
      </trkpt>
      <trkpt lat="48.17791" lon="-4.09742">
        <ele>89.160344</ele>
        <time>2021-09-30T10:48:34.954Z</time>
      </trkpt>
      <trkpt lat="48.17778" lon="-4.09748">
        <ele>90.371208</ele>
        <time>2021-09-30T10:48:43.260Z</time>
      </trkpt>
      <trkpt lat="48.17767" lon="-4.09741">
        <ele>91.387459</ele>
        <time>2021-09-30T10:48:48.973Z</time>
      </trkpt>
      <trkpt lat="48.17743" lon="-4.09676">
        <ele>95.605317</ele>
        <time>2021-09-30T10:49:15.912Z</time>
      </trkpt>
      <trkpt lat="48.17725" lon="-4.09628">
        <ele>98.815025</ele>
        <time>2021-09-30T10:49:36.268Z</time>
      </trkpt>
      <trkpt lat="48.17712" lon="-4.09607">
        <ele>100.533108</ele>
        <time>2021-09-30T10:49:47.032Z</time>
      </trkpt>
      <trkpt lat="48.17698" lon="-4.09604">
        <ele>101.705674</ele>
        <time>2021-09-30T10:49:53.115Z</time>
      </trkpt>
      <trkpt lat="48.17653" lon="-4.0962">
        <ele>105.816571</ele>
        <time>2021-09-30T10:50:16.329Z</time>
      </trkpt>
      <trkpt lat="48.17579" lon="-4.09646">
        <ele>112.014806</ele>
        <time>2021-09-30T10:50:53.214Z</time>
      </trkpt>
      <trkpt lat="48.17552" lon="-4.09645">
        <ele>114.069385</ele>
        <time>2021-09-30T10:51:06.787Z</time>
      </trkpt>
      <trkpt lat="48.17485" lon="-4.09619">
        <ele>119.307335</ele>
        <time>2021-09-30T10:51:38.982Z</time>
      </trkpt>
      <trkpt lat="48.17412" lon="-4.09573">
        <ele>125.56643</ele>
        <time>2021-09-30T10:52:12.373Z</time>
      </trkpt>
      <trkpt lat="48.17325" lon="-4.09516">
        <ele>133.266545</ele>
        <time>2021-09-30T10:52:58.113Z</time>
      </trkpt>
      <trkpt lat="48.17257" lon="-4.09488">
        <ele>139.45932</ele>
        <time>2021-09-30T10:53:35.494Z</time>
      </trkpt>
      <trkpt lat="48.17169" lon="-4.0946">
        <ele>148.839812</ele>
        <time>2021-09-30T10:54:27.782Z</time>
      </trkpt>
      <trkpt lat="48.1709" lon="-4.09438">
        <ele>157.207573</ele>
        <time>2021-09-30T10:55:16.798Z</time>
      </trkpt>
      <trkpt lat="48.1696" lon="-4.09484">
        <ele>170.980277</ele>
        <time>2021-09-30T10:56:35.014Z</time>
      </trkpt>
      <trkpt lat="48.16926" lon="-4.09495">
        <ele>174.566118</ele>
        <time>2021-09-30T10:56:54.421Z</time>
      </trkpt>
      <trkpt lat="48.16895" lon="-4.09491">
        <ele>177.045542</ele>
        <time>2021-09-30T10:57:11.323Z</time>
      </trkpt>
      <trkpt lat="48.16514" lon="-4.09281">
        <ele>204.724022</ele>
        <time>2021-09-30T11:00:16.052Z</time>
      </trkpt>
      <trkpt lat="48.16192" lon="-4.0911">
        <ele>209.103687</ele>
        <time>2021-09-30T11:01:22.245Z</time>
      </trkpt>
      <trkpt lat="48.16154" lon="-4.0909">
        <ele>208.557863</ele>
        <time>2021-09-30T11:01:28.055Z</time>
      </trkpt>
      <trkpt lat="48.15591" lon="-4.08787">
        <ele>190.924339</ele>
        <time>2021-09-30T11:02:42.089Z</time>
      </trkpt>
      <trkpt lat="48.15415" lon="-4.08692">
        <ele>178.885004</ele>
        <time>2021-09-30T11:03:02.273Z</time>
      </trkpt>
      <trkpt lat="48.15263" lon="-4.08598">
        <ele>166.230083</ele>
        <time>2021-09-30T11:03:19.364Z</time>
      </trkpt>
      <trkpt lat="48.15103" lon="-4.08514">
        <ele>156.749593</ele>
        <time>2021-09-30T11:03:38.023Z</time>
      </trkpt>
      <trkpt lat="48.14946" lon="-4.08427">
        <ele>153.205497</ele>
        <time>2021-09-30T11:04:00.755Z</time>
      </trkpt>
      <trkpt lat="48.14761" lon="-4.08423">
        <ele>151.004407</ele>
        <time>2021-09-30T11:04:32.404Z</time>
      </trkpt>
      <trkpt lat="48.14625" lon="-4.0855">
        <ele>144.688006</ele>
        <time>2021-09-30T11:04:49.876Z</time>
      </trkpt>
      <trkpt lat="48.14571" lon="-4.086">
        <ele>141.408656</ele>
        <time>2021-09-30T11:04:56.355Z</time>
      </trkpt>
      <trkpt lat="48.14551" lon="-4.0864">
        <ele>139.380511</ele>
        <time>2021-09-30T11:04:59.780Z</time>
      </trkpt>
      <trkpt lat="48.14549" lon="-4.08644">
        <ele>139.145456</ele>
        <time>2021-09-30T11:05:00.132Z</time>
      </trkpt>
      <trkpt lat="48.1449" lon="-4.08824">
        <ele>130.720928</ele>
        <time>2021-09-30T11:05:13.868Z</time>
      </trkpt>
      <trkpt lat="48.14453" lon="-4.08973">
        <ele>123.830548</ele>
        <time>2021-09-30T11:05:24.740Z</time>
      </trkpt>
      <trkpt lat="48.14405" lon="-4.09207">
        <ele>113.93857</ele>
        <time>2021-09-30T11:05:41.435Z</time>
      </trkpt>
      <trkpt lat="48.14332" lon="-4.09504">
        <ele>104.859205</ele>
        <time>2021-09-30T11:06:04.140Z</time>
      </trkpt>
      <trkpt lat="48.14321" lon="-4.09567">
        <ele>103.489938</ele>
        <time>2021-09-30T11:06:09.588Z</time>
      </trkpt>
      <trkpt lat="48.1432" lon="-4.09574">
        <ele>103.336392</ele>
        <time>2021-09-30T11:06:10.241Z</time>
      </trkpt>
      <trkpt lat="48.14307" lon="-4.0965">
        <ele>102.894513</ele>
        <time>2021-09-30T11:06:17.667Z</time>
      </trkpt>
      <trkpt lat="48.14281" lon="-4.09829">
        <ele>104.404093</ele>
        <time>2021-09-30T11:06:44.586Z</time>
      </trkpt>
      <trkpt lat="48.14277" lon="-4.09935">
        <ele>105.171391</ele>
        <time>2021-09-30T11:07:02.316Z</time>
      </trkpt>
      <trkpt lat="48.14281" lon="-4.10071">
        <ele>106.058352</ele>
        <time>2021-09-30T11:07:20.974Z</time>
      </trkpt>
      <trkpt lat="48.14285" lon="-4.10119">
        <ele>106.379987</ele>
        <time>2021-09-30T11:07:26.302Z</time>
      </trkpt>
      <trkpt lat="48.14315" lon="-4.10323">
        <ele>104.826529</ele>
        <time>2021-09-30T11:07:44.494Z</time>
      </trkpt>
      <trkpt lat="48.14314" lon="-4.10355">
        <ele>104.528616</ele>
        <time>2021-09-30T11:07:47.109Z</time>
      </trkpt>
      <trkpt lat="48.1428" lon="-4.10556">
        <ele>102.126038</ele>
        <time>2021-09-30T11:08:04.289Z</time>
      </trkpt>
      <trkpt lat="48.14268" lon="-4.10602">
        <ele>101.506088</ele>
        <time>2021-09-30T11:08:08.475Z</time>
      </trkpt>
      <trkpt lat="48.14247" lon="-4.10645">
        <ele>100.847464</ele>
        <time>2021-09-30T11:08:12.936Z</time>
      </trkpt>
      <trkpt lat="48.14199" lon="-4.10694">
        <ele>99.522951</ele>
        <time>2021-09-30T11:08:20.341Z</time>
      </trkpt>
      <trkpt lat="48.14026" lon="-4.10774">
        <ele>94.824883</ele>
        <time>2021-09-30T11:08:41.894Z</time>
      </trkpt>
      <trkpt lat="48.1394" lon="-4.10836">
        <ele>91.636078</ele>
        <time>2021-09-30T11:08:52.689Z</time>
      </trkpt>
      <trkpt lat="48.13926" lon="-4.10846">
        <ele>91.108893</ele>
        <time>2021-09-30T11:08:54.388Z</time>
      </trkpt>
      <trkpt lat="48.13752" lon="-4.10949">
        <ele>84.824215</ele>
        <time>2021-09-30T11:09:15.477Z</time>
      </trkpt>
      <trkpt lat="48.13542" lon="-4.11105">
        <ele>79.626492</ele>
        <time>2021-09-30T11:09:44.547Z</time>
      </trkpt>
      <trkpt lat="48.13416" lon="-4.11225">
        <ele>76.390643</ele>
        <time>2021-09-30T11:10:02.803Z</time>
      </trkpt>
      <trkpt lat="48.13367" lon="-4.11271">
        <ele>74.98261</ele>
        <time>2021-09-30T11:10:09.733Z</time>
      </trkpt>
      <trkpt lat="48.13308" lon="-4.11329">
        <ele>73.261136</ele>
        <time>2021-09-30T11:10:18.169Z</time>
      </trkpt>
      <trkpt lat="48.13073" lon="-4.11506">
        <ele>67.784767</ele>
        <time>2021-09-30T11:10:50.022Z</time>
      </trkpt>
      <trkpt lat="48.12977" lon="-4.11578">
        <ele>66.742649</ele>
        <time>2021-09-30T11:11:04.707Z</time>
      </trkpt>
      <trkpt lat="48.12973" lon="-4.11582">
        <ele>66.697025</ele>
        <time>2021-09-30T11:11:05.422Z</time>
      </trkpt>
      <trkpt lat="48.12874" lon="-4.1167">
        <ele>67.164557</ele>
        <time>2021-09-30T11:11:26.575Z</time>
      </trkpt>
      <trkpt lat="48.1282" lon="-4.1172">
        <ele>67.641891</ele>
        <time>2021-09-30T11:11:39.185Z</time>
      </trkpt>
      <trkpt lat="48.12816" lon="-4.11723">
        <ele>67.675875</ele>
        <time>2021-09-30T11:11:40.052Z</time>
      </trkpt>
      <trkpt lat="48.12769" lon="-4.11761">
        <ele>67.917509</ele>
        <time>2021-09-30T11:11:50.046Z</time>
      </trkpt>
      <trkpt lat="48.12558" lon="-4.11883">
        <ele>68.521441</ele>
        <time>2021-09-30T11:12:25.575Z</time>
      </trkpt>
      <trkpt lat="48.12427" lon="-4.11943">
        <ele>68.936664</ele>
        <time>2021-09-30T11:12:48.404Z</time>
      </trkpt>
      <trkpt lat="48.12401" lon="-4.1195">
        <ele>69.067369</ele>
        <time>2021-09-30T11:12:52.823Z</time>
      </trkpt>
      <trkpt lat="48.12365" lon="-4.11948">
        <ele>69.240681</ele>
        <time>2021-09-30T11:12:58.484Z</time>
      </trkpt>
      <trkpt lat="48.12317" lon="-4.1193">
        <ele>69.480364</ele>
        <time>2021-09-30T11:13:07.151Z</time>
      </trkpt>
      <trkpt lat="48.1226" lon="-4.11896">
        <ele>70.36937</ele>
        <time>2021-09-30T11:13:18.634Z</time>
      </trkpt>
      <trkpt lat="48.12229" lon="-4.11885">
        <ele>71.132109</ele>
        <time>2021-09-30T11:13:25.063Z</time>
      </trkpt>
      <trkpt lat="48.12185" lon="-4.11868">
        <ele>72.225759</ele>
        <time>2021-09-30T11:13:35.819Z</time>
      </trkpt>
      <trkpt lat="48.12066" lon="-4.11865">
        <ele>75.999239</ele>
        <time>2021-09-30T11:14:12.194Z</time>
      </trkpt>
      <trkpt lat="48.12022" lon="-4.11868">
        <ele>77.910908</ele>
        <time>2021-09-30T11:14:27.856Z</time>
      </trkpt>
      <trkpt lat="48.11899" lon="-4.11897">
        <ele>82.818042</ele>
        <time>2021-09-30T11:15:09.420Z</time>
      </trkpt>
      <trkpt lat="48.11816" lon="-4.11913">
        <ele>85.242806</ele>
        <time>2021-09-30T11:15:32.067Z</time>
      </trkpt>
      <trkpt lat="48.11717" lon="-4.11923">
        <ele>87.8025</ele>
        <time>2021-09-30T11:15:54.722Z</time>
      </trkpt>
      <trkpt lat="48.11674" lon="-4.11928">
        <ele>88.67157</ele>
        <time>2021-09-30T11:16:03.474Z</time>
      </trkpt>
      <trkpt lat="48.11644" lon="-4.11938">
        <ele>89.296089</ele>
        <time>2021-09-30T11:16:10.222Z</time>
      </trkpt>
      <trkpt lat="48.11584" lon="-4.11981">
        <ele>90.620828</ele>
        <time>2021-09-30T11:16:26.333Z</time>
      </trkpt>
      <trkpt lat="48.11565" lon="-4.11988">
        <ele>91.533881</ele>
        <time>2021-09-30T11:16:31.782Z</time>
      </trkpt>
      <trkpt lat="48.1153" lon="-4.11989">
        <ele>93.123353</ele>
        <time>2021-09-30T11:16:42.222Z</time>
      </trkpt>
      <trkpt lat="48.11517" lon="-4.11999">
        <ele>93.827763</ele>
        <time>2021-09-30T11:16:47.408Z</time>
      </trkpt>
      <trkpt lat="48.11502" lon="-4.12021">
        <ele>94.790047</ele>
        <time>2021-09-30T11:16:54.635Z</time>
      </trkpt>
      <trkpt lat="48.11489" lon="-4.12038">
        <ele>95.58842</ele>
        <time>2021-09-30T11:17:00.989Z</time>
      </trkpt>
      <trkpt lat="48.11481" lon="-4.12049">
        <ele>96.117203</ele>
        <time>2021-09-30T11:17:05.007Z</time>
      </trkpt>
      <trkpt lat="48.11474" lon="-4.12055">
        <ele>96.497525</ele>
        <time>2021-09-30T11:17:08.119Z</time>
      </trkpt>
      <trkpt lat="48.11467" lon="-4.12058">
        <ele>96.80287</ele>
        <time>2021-09-30T11:17:10.809Z</time>
      </trkpt>
      <trkpt lat="48.11467" lon="-4.12064">
        <ele>96.981215</ele>
        <time>2021-09-30T11:17:12.242Z</time>
      </trkpt>
      <trkpt lat="48.11466" lon="-4.12067">
        <ele>97.10604</ele>
        <time>2021-09-30T11:17:13.242Z</time>
      </trkpt>
      <trkpt lat="48.11458" lon="-4.12078">
        <ele>97.581812</ele>
        <time>2021-09-30T11:17:16.935Z</time>
      </trkpt>
      <trkpt lat="48.11389" lon="-4.1214">
        <ele>101.330856</ele>
        <time>2021-09-30T11:17:48.253Z</time>
      </trkpt>
      <trkpt lat="48.11379" lon="-4.12147">
        <ele>101.838155</ele>
        <time>2021-09-30T11:17:52.634Z</time>
      </trkpt>
      <trkpt lat="48.1135" lon="-4.12152">
        <ele>103.193694</ele>
        <time>2021-09-30T11:18:02.969Z</time>
      </trkpt>
      <trkpt lat="48.11333" lon="-4.12181">
        <ele>104.390625</ele>
        <time>2021-09-30T11:18:11.649Z</time>
      </trkpt>
      <trkpt lat="48.11318" lon="-4.1225">
        <ele>106.622263</ele>
        <time>2021-09-30T11:18:27.277Z</time>
      </trkpt>
      <trkpt lat="48.11323" lon="-4.1232">
        <ele>107.868043</ele>
        <time>2021-09-30T11:18:39.501Z</time>
      </trkpt>
      <trkpt lat="48.11327" lon="-4.12358">
        <ele>108.310559</ele>
        <time>2021-09-30T11:18:45.036Z</time>
      </trkpt>
      <trkpt lat="48.11331" lon="-4.12415">
        <ele>108.980372</ele>
        <time>2021-09-30T11:18:53.155Z</time>
      </trkpt>
      <trkpt lat="48.1133" lon="-4.12556">
        <ele>110.517342</ele>
        <time>2021-09-30T11:19:11.749Z</time>
      </trkpt>
      <trkpt lat="48.11332" lon="-4.12671">
        <ele>111.163528</ele>
        <time>2021-09-30T11:19:26.554Z</time>
      </trkpt>
      <trkpt lat="48.11322" lon="-4.12829">
        <ele>112.054867</ele>
        <time>2021-09-30T11:19:45.874Z</time>
      </trkpt>
      <trkpt lat="48.11299" lon="-4.12946">
        <ele>112.764469</ele>
        <time>2021-09-30T11:19:59.614Z</time>
      </trkpt>
      <trkpt lat="48.11276" lon="-4.13033">
        <ele>113.31703</ele>
        <time>2021-09-30T11:20:10.787Z</time>
      </trkpt>
      <trkpt lat="48.10971" lon="-4.13018">
        <ele>120.483427</ele>
        <time>2021-09-30T11:21:25.242Z</time>
      </trkpt>
      <trkpt lat="48.10897" lon="-4.13014">
        <ele>122.719563</ele>
        <time>2021-09-30T11:21:48.025Z</time>
      </trkpt>
      <trkpt lat="48.10837" lon="-4.13018">
        <ele>125.297042</ele>
        <time>2021-09-30T11:22:07.537Z</time>
      </trkpt>
      <trkpt lat="48.10791" lon="-4.13036">
        <ele>127.393424</ele>
        <time>2021-09-30T11:22:24.022Z</time>
      </trkpt>
      <trkpt lat="48.10757" lon="-4.13056">
        <ele>129.010092</ele>
        <time>2021-09-30T11:22:36.213Z</time>
      </trkpt>
      <trkpt lat="48.10712" lon="-4.13093">
        <ele>131.279488</ele>
        <time>2021-09-30T11:22:52.508Z</time>
      </trkpt>
      <trkpt lat="48.10496" lon="-4.13304">
        <ele>142.031803</ele>
        <time>2021-09-30T11:24:18.622Z</time>
      </trkpt>
      <trkpt lat="48.10438" lon="-4.13336">
        <ele>144.283404</ele>
        <time>2021-09-30T11:24:35.926Z</time>
      </trkpt>
      <trkpt lat="48.10401" lon="-4.13342">
        <ele>145.474273</ele>
        <time>2021-09-30T11:24:45.660Z</time>
      </trkpt>
      <trkpt lat="48.1025" lon="-4.13337">
        <ele>148.298747</ele>
        <time>2021-09-30T11:25:19.171Z</time>
      </trkpt>
      <trkpt lat="48.10125" lon="-4.13352">
        <ele>150.909059</ele>
        <time>2021-09-30T11:25:46.766Z</time>
      </trkpt>
      <trkpt lat="48.09862" lon="-4.13474">
        <ele>158.2385</ele>
        <time>2021-09-30T11:26:59.101Z</time>
      </trkpt>
      <trkpt lat="48.09826" lon="-4.13496">
        <ele>159.538099</ele>
        <time>2021-09-30T11:27:11.332Z</time>
      </trkpt>
      <trkpt lat="48.09806" lon="-4.13546">
        <ele>160.835366</ele>
        <time>2021-09-30T11:27:23.565Z</time>
      </trkpt>
      <trkpt lat="48.09796" lon="-4.13652">
        <ele>163.258864</ele>
        <time>2021-09-30T11:27:44.583Z</time>
      </trkpt>
      <trkpt lat="48.09793" lon="-4.13702">
        <ele>163.806178</ele>
        <time>2021-09-30T11:27:53.400Z</time>
      </trkpt>
      <trkpt lat="48.09786" lon="-4.13727">
        <ele>164.003018</ele>
        <time>2021-09-30T11:27:57.989Z</time>
      </trkpt>
      <trkpt lat="48.09786" lon="-4.13727">
        <ele>164.003018</ele>
        <time>2021-09-30T11:27:58.069Z</time>
      </trkpt>
      <trkpt lat="48.09926" lon="-4.13954">
        <ele>165.495193</ele>
        <time>2021-09-30T11:28:33.977Z</time>
      </trkpt>
      <trkpt lat="48.09954" lon="-4.14017">
        <ele>165.524187</ele>
        <time>2021-09-30T11:28:41.784Z</time>
      </trkpt>
      <trkpt lat="48.09977" lon="-4.14107">
        <ele>165.578939</ele>
        <time>2021-09-30T11:28:52.005Z</time>
      </trkpt>
      <trkpt lat="48.10046" lon="-4.14439">
        <ele>166.804062</ele>
        <time>2021-09-30T11:29:34.665Z</time>
      </trkpt>
      <trkpt lat="48.10059" lon="-4.14496">
        <ele>167.095829</ele>
        <time>2021-09-30T11:29:42.523Z</time>
      </trkpt>
      <trkpt lat="48.1007" lon="-4.14641">
        <ele>167.761248</ele>
        <time>2021-09-30T11:30:01.905Z</time>
      </trkpt>
      <trkpt lat="48.10058" lon="-4.14839">
        <ele>168.299608</ele>
        <time>2021-09-30T11:30:26.090Z</time>
      </trkpt>
      <trkpt lat="48.10042" lon="-4.14907">
        <ele>168.330711</ele>
        <time>2021-09-30T11:30:33.618Z</time>
      </trkpt>
      <trkpt lat="48.10018" lon="-4.14977">
        <ele>167.992946</ele>
        <time>2021-09-30T11:30:41.625Z</time>
      </trkpt>
      <trkpt lat="48.09969" lon="-4.15066">
        <ele>167.505158</ele>
        <time>2021-09-30T11:30:52.597Z</time>
      </trkpt>
      <trkpt lat="48.09883" lon="-4.15207">
        <ele>166.874698</ele>
        <time>2021-09-30T11:31:11.538Z</time>
      </trkpt>
      <trkpt lat="48.09838" lon="-4.15253">
        <ele>166.634743</ele>
        <time>2021-09-30T11:31:20.846Z</time>
      </trkpt>
      <trkpt lat="48.09785" lon="-4.15293">
        <ele>166.209683</ele>
        <time>2021-09-30T11:31:29.614Z</time>
      </trkpt>
      <trkpt lat="48.09711" lon="-4.15339">
        <ele>165.360821</ele>
        <time>2021-09-30T11:31:41.796Z</time>
      </trkpt>
      <trkpt lat="48.09711" lon="-4.15339">
        <ele>165.360821</ele>
        <time>2021-09-30T11:31:41.836Z</time>
      </trkpt>
      <trkpt lat="48.09711" lon="-4.15339">
        <ele>165.360821</ele>
        <time>2021-09-30T11:31:41.841Z</time>
      </trkpt>
      <trkpt lat="48.09687" lon="-4.15359">
        <ele>165.081085</ele>
        <time>2021-09-30T11:31:45.455Z</time>
      </trkpt>
      <trkpt lat="48.09662" lon="-4.15398">
        <ele>164.700974</ele>
        <time>2021-09-30T11:31:50.289Z</time>
      </trkpt>
      <trkpt lat="48.09653" lon="-4.15445">
        <ele>164.320064</ele>
        <time>2021-09-30T11:31:54.593Z</time>
      </trkpt>
      <trkpt lat="48.09645" lon="-4.15537">
        <ele>163.562774</ele>
        <time>2021-09-30T11:32:02.759Z</time>
      </trkpt>
      <trkpt lat="48.09635" lon="-4.15567">
        <ele>163.292001</ele>
        <time>2021-09-30T11:32:05.702Z</time>
      </trkpt>
      <trkpt lat="48.09616" lon="-4.15598">
        <ele>162.951709</ele>
        <time>2021-09-30T11:32:09.686Z</time>
      </trkpt>
      <trkpt lat="48.09584" lon="-4.15615">
        <ele>162.537793</ele>
        <time>2021-09-30T11:32:14.735Z</time>
      </trkpt>
      <trkpt lat="48.09448" lon="-4.15626">
        <ele>164.036191</ele>
        <time>2021-09-30T11:32:43.519Z</time>
      </trkpt>
      <trkpt lat="48.09432" lon="-4.15638">
        <ele>164.265386</ele>
        <time>2021-09-30T11:32:48.232Z</time>
      </trkpt>
      <trkpt lat="48.09418" lon="-4.15657">
        <ele>164.513446</ele>
        <time>2021-09-30T11:32:53.084Z</time>
      </trkpt>
      <trkpt lat="48.09395" lon="-4.15722">
        <ele>165.142274</ele>
        <time>2021-09-30T11:33:04.763Z</time>
      </trkpt>
      <trkpt lat="48.0939" lon="-4.15785">
        <ele>165.678092</ele>
        <time>2021-09-30T11:33:13.808Z</time>
      </trkpt>
      <trkpt lat="48.09395" lon="-4.16005">
        <ele>167.564317</ele>
        <time>2021-09-30T11:33:43.328Z</time>
      </trkpt>
      <trkpt lat="48.09406" lon="-4.16412">
        <ele>171.189889</ele>
        <time>2021-09-30T11:34:42.513Z</time>
      </trkpt>
      <trkpt lat="48.09409" lon="-4.16585">
        <ele>172.354365</ele>
        <time>2021-09-30T11:35:07.588Z</time>
      </trkpt>
      <trkpt lat="48.09413" lon="-4.16812">
        <ele>173.143038</ele>
        <time>2021-09-30T11:35:34.718Z</time>
      </trkpt>
      <trkpt lat="48.09413" lon="-4.16841">
        <ele>173.117284</ele>
        <time>2021-09-30T11:35:37.704Z</time>
      </trkpt>
      <trkpt lat="48.09377" lon="-4.17054">
        <ele>172.926924</ele>
        <time>2021-09-30T11:36:00.133Z</time>
      </trkpt>
      <trkpt lat="48.09366" lon="-4.17115">
        <ele>172.879492</ele>
        <time>2021-09-30T11:36:06.885Z</time>
      </trkpt>
      <trkpt lat="48.0934" lon="-4.17221">
        <ele>172.79492</ele>
        <time>2021-09-30T11:36:19.166Z</time>
      </trkpt>
      <trkpt lat="48.09309" lon="-4.17294">
        <ele>172.52569</ele>
        <time>2021-09-30T11:36:28.677Z</time>
      </trkpt>
      <trkpt lat="48.09259" lon="-4.17394">
        <ele>171.71061</ele>
        <time>2021-09-30T11:36:41.523Z</time>
      </trkpt>
      <trkpt lat="48.09227" lon="-4.17448">
        <ele>171.239184</ele>
        <time>2021-09-30T11:36:48.155Z</time>
      </trkpt>
      <trkpt lat="48.09045" lon="-4.17632">
        <ele>166.11285</ele>
        <time>2021-09-30T11:37:15.827Z</time>
      </trkpt>
      <trkpt lat="48.08921" lon="-4.17754">
        <ele>162.965321</ele>
        <time>2021-09-30T11:37:34.826Z</time>
      </trkpt>
      <trkpt lat="48.08875" lon="-4.17789">
        <ele>163.145354</ele>
        <time>2021-09-30T11:37:42.329Z</time>
      </trkpt>
      <trkpt lat="48.08911" lon="-4.1785">
        <ele>163.971512</ele>
        <time>2021-09-30T11:37:51.683Z</time>
      </trkpt>
      <trkpt lat="48.08962" lon="-4.17921">
        <ele>165.015939</ele>
        <time>2021-09-30T11:38:09.039Z</time>
      </trkpt>
      <trkpt lat="48.08981" lon="-4.17937">
        <ele>165.42946</ele>
        <time>2021-09-30T11:38:16.268Z</time>
      </trkpt>
      <trkpt lat="48.09102" lon="-4.17993">
        <ele>173.247672</ele>
        <time>2021-09-30T11:39:04.522Z</time>
      </trkpt>
      <trkpt lat="48.09132" lon="-4.17997">
        <ele>175.150958</ele>
        <time>2021-09-30T11:39:19.596Z</time>
      </trkpt>
      <trkpt lat="48.0916" lon="-4.17986">
        <ele>177.09933</ele>
        <time>2021-09-30T11:39:31.942Z</time>
      </trkpt>
      <trkpt lat="48.09161" lon="-4.17995">
        <ele>177.649016</ele>
        <time>2021-09-30T11:39:35.970Z</time>
      </trkpt>
      <trkpt lat="48.09145" lon="-4.18062">
        <ele>181.87593</ele>
        <time>2021-09-30T11:39:58.634Z</time>
      </trkpt>
      <trkpt lat="48.09184" lon="-4.18462">
        <ele>205.777491</ele>
        <time>2021-09-30T11:42:22.256Z</time>
      </trkpt>
      <trkpt lat="48.09189" lon="-4.18484">
        <ele>207.104776</ele>
        <time>2021-09-30T11:42:29.377Z</time>
      </trkpt>
      <trkpt lat="48.09212" lon="-4.18593">
        <ele>211.238521</ele>
        <time>2021-09-30T11:42:59.618Z</time>
      </trkpt>
      <trkpt lat="48.09227" lon="-4.18637">
        <ele>212.751514</ele>
        <time>2021-09-30T11:43:10.700Z</time>
      </trkpt>
      <trkpt lat="48.0928" lon="-4.18714">
        <ele>216.129079</ele>
        <time>2021-09-30T11:43:31.116Z</time>
      </trkpt>
      <trkpt lat="48.09345" lon="-4.18837">
        <ele>219.467688</ele>
        <time>2021-09-30T11:43:58.708Z</time>
      </trkpt>
      <trkpt lat="48.09363" lon="-4.18882">
        <ele>220.515355</ele>
        <time>2021-09-30T11:44:08.063Z</time>
      </trkpt>
      <trkpt lat="48.09481" lon="-4.19137">
        <ele>227.58139</ele>
        <time>2021-09-30T11:45:07.804Z</time>
      </trkpt>
      <trkpt lat="48.09538" lon="-4.19207">
        <ele>230.755342</ele>
        <time>2021-09-30T11:45:31.555Z</time>
      </trkpt>
      <trkpt lat="48.0955" lon="-4.19136">
        <ele>233.067628</ele>
        <time>2021-09-30T11:45:48.374Z</time>
      </trkpt>
      <trkpt lat="48.09576" lon="-4.19046">
        <ele>236.153205</ele>
        <time>2021-09-30T11:46:11.857Z</time>
      </trkpt>
      <trkpt lat="48.09609" lon="-4.18932">
        <ele>239.313278</ele>
        <time>2021-09-30T11:46:44.564Z</time>
      </trkpt>
      <trkpt lat="48.09643" lon="-4.18849">
        <ele>241.630293</ele>
        <time>2021-09-30T11:47:05.020Z</time>
      </trkpt>
      <trkpt lat="48.09696" lon="-4.18753">
        <ele>242.435151</ele>
        <time>2021-09-30T11:47:22.066Z</time>
      </trkpt>
      <trkpt lat="48.0971" lon="-4.18752">
        <ele>242.055911</ele>
        <time>2021-09-30T11:47:24.219Z</time>
      </trkpt>
      <trkpt lat="48.09716" lon="-4.1885">
        <ele>240.315325</ele>
        <time>2021-09-30T11:47:33.002Z</time>
      </trkpt>
      <trkpt lat="48.09709" lon="-4.19168">
        <ele>228.471354</ele>
        <time>2021-09-30T11:47:56.160Z</time>
      </trkpt>
      <trkpt lat="48.09707" lon="-4.19286">
        <ele>222.00268</ele>
        <time>2021-09-30T11:48:04.352Z</time>
      </trkpt>
      <trkpt lat="48.09708" lon="-4.19454">
        <ele>211.72123</ele>
        <time>2021-09-30T11:48:15.867Z</time>
      </trkpt>
      <trkpt lat="48.09697" lon="-4.19632">
        <ele>199.91254</ele>
        <time>2021-09-30T11:48:28.132Z</time>
      </trkpt>
      <trkpt lat="48.09686" lon="-4.19717">
        <ele>194.141051</ele>
        <time>2021-09-30T11:48:33.958Z</time>
      </trkpt>
      <trkpt lat="48.09679" lon="-4.19752">
        <ele>191.720794</ele>
        <time>2021-09-30T11:48:36.397Z</time>
      </trkpt>
      <trkpt lat="48.09673" lon="-4.19804">
        <ele>188.446854</ele>
        <time>2021-09-30T11:48:39.952Z</time>
      </trkpt>
      <trkpt lat="48.09672" lon="-4.19858">
        <ele>185.139103</ele>
        <time>2021-09-30T11:48:43.569Z</time>
      </trkpt>
      <trkpt lat="48.09692" lon="-4.19928">
        <ele>180.471229</ele>
        <time>2021-09-30T11:48:48.763Z</time>
      </trkpt>
      <trkpt lat="48.09712" lon="-4.19971">
        <ele>177.28589</ele>
        <time>2021-09-30T11:48:52.403Z</time>
      </trkpt>
      <trkpt lat="48.09727" lon="-4.19987">
        <ele>175.524194</ele>
        <time>2021-09-30T11:48:54.422Z</time>
      </trkpt>
      <trkpt lat="48.0974" lon="-4.20037">
        <ele>173.960821</ele>
        <time>2021-09-30T11:48:58.037Z</time>
      </trkpt>
      <trkpt lat="48.09745" lon="-4.20058">
        <ele>173.377938</ele>
        <time>2021-09-30T11:48:59.629Z</time>
      </trkpt>
      <trkpt lat="48.09823" lon="-4.20244">
        <ele>167.962114</ele>
        <time>2021-09-30T11:49:16.849Z</time>
      </trkpt>
      <trkpt lat="48.0986" lon="-4.20355">
        <ele>166.515711</ele>
        <time>2021-09-30T11:49:27.449Z</time>
      </trkpt>
      <trkpt lat="48.09888" lon="-4.20447">
        <ele>165.338387</ele>
        <time>2021-09-30T11:49:36.218Z</time>
      </trkpt>
      <trkpt lat="48.09886" lon="-4.20504">
        <ele>164.634321</ele>
        <time>2021-09-30T11:49:41.125Z</time>
      </trkpt>
      <trkpt lat="48.09868" lon="-4.20643">
        <ele>162.853829</ele>
        <time>2021-09-30T11:49:53.549Z</time>
      </trkpt>
      <trkpt lat="48.09868" lon="-4.20647">
        <ele>162.799886</ele>
        <time>2021-09-30T11:49:53.930Z</time>
      </trkpt>
      <trkpt lat="48.09862" lon="-4.20676">
        <ele>162.420536</ele>
        <time>2021-09-30T11:49:56.564Z</time>
      </trkpt>
      <trkpt lat="48.09851" lon="-4.20731">
        <ele>161.692742</ele>
        <time>2021-09-30T11:50:01.754Z</time>
      </trkpt>
      <trkpt lat="48.09848" lon="-4.20764">
        <ele>161.279153</ele>
        <time>2021-09-30T11:50:04.738Z</time>
      </trkpt>
      <trkpt lat="48.09845" lon="-4.20778">
        <ele>161.104265</ele>
        <time>2021-09-30T11:50:05.946Z</time>
      </trkpt>
      <trkpt lat="48.0984" lon="-4.20812">
        <ele>160.675324</ele>
        <time>2021-09-30T11:50:09.020Z</time>
      </trkpt>
      <trkpt lat="48.09837" lon="-4.20831">
        <ele>160.447747</ele>
        <time>2021-09-30T11:50:10.558Z</time>
      </trkpt>
      <trkpt lat="48.09831" lon="-4.20833">
        <ele>160.332469</ele>
        <time>2021-09-30T11:50:11.641Z</time>
      </trkpt>
      <trkpt lat="48.09825" lon="-4.20839">
        <ele>160.200019</ele>
        <time>2021-09-30T11:50:12.578Z</time>
      </trkpt>
      <trkpt lat="48.09821" lon="-4.2085">
        <ele>160.042677</ele>
        <time>2021-09-30T11:50:13.663Z</time>
      </trkpt>
      <trkpt lat="48.09813" lon="-4.20909">
        <ele>159.313145</ele>
        <time>2021-09-30T11:50:18.750Z</time>
      </trkpt>
      <trkpt lat="48.09804" lon="-4.20969">
        <ele>158.557321</ele>
        <time>2021-09-30T11:50:24.284Z</time>
      </trkpt>
      <trkpt lat="48.09798" lon="-4.21025">
        <ele>158.686489</ele>
        <time>2021-09-30T11:50:30.078Z</time>
      </trkpt>
      <trkpt lat="48.09794" lon="-4.21058">
        <ele>158.938921</ele>
        <time>2021-09-30T11:50:34.595Z</time>
      </trkpt>
      <trkpt lat="48.09791" lon="-4.21083">
        <ele>159.130938</ele>
        <time>2021-09-30T11:50:37.965Z</time>
      </trkpt>
      <trkpt lat="48.09779" lon="-4.21141">
        <ele>159.586159</ele>
        <time>2021-09-30T11:50:46.934Z</time>
      </trkpt>
      <trkpt lat="48.09773" lon="-4.21176">
        <ele>159.863673</ele>
        <time>2021-09-30T11:50:53.333Z</time>
      </trkpt>
      <trkpt lat="48.09767" lon="-4.21205">
        <ele>160.098137</ele>
        <time>2021-09-30T11:50:57.962Z</time>
      </trkpt>
      <trkpt lat="48.09746" lon="-4.21205">
        <ele>160.33927</ele>
        <time>2021-09-30T11:51:02.908Z</time>
      </trkpt>
      <trkpt lat="48.09735" lon="-4.21207">
        <ele>160.438891</ele>
        <time>2021-09-30T11:51:05.409Z</time>
      </trkpt>
      <trkpt lat="48.09719" lon="-4.21212">
        <ele>160.531757</ele>
        <time>2021-09-30T11:51:08.782Z</time>
      </trkpt>
      <trkpt lat="48.09645" lon="-4.2123">
        <ele>160.961362</ele>
        <time>2021-09-30T11:51:25.393Z</time>
      </trkpt>
      <trkpt lat="48.09634" lon="-4.21234">
        <ele>161.028292</ele>
        <time>2021-09-30T11:51:28.127Z</time>
      </trkpt>
      <trkpt lat="48.09635" lon="-4.21251">
        <ele>161.092552</ele>
        <time>2021-09-30T11:51:29.738Z</time>
      </trkpt>
      <trkpt lat="48.09634" lon="-4.21252">
        <ele>161.096168</ele>
        <time>2021-09-30T11:51:29.794Z</time>
      </trkpt>
      <trkpt lat="48.09605" lon="-4.21377">
        <ele>160.985465</ele>
        <time>2021-09-30T11:51:42.038Z</time>
      </trkpt>
      <trkpt lat="48.09597" lon="-4.21414">
        <ele>160.545576</ele>
        <time>2021-09-30T11:51:45.138Z</time>
      </trkpt>
      <trkpt lat="48.09585" lon="-4.21479">
        <ele>159.805008</ele>
        <time>2021-09-30T11:51:50.410Z</time>
      </trkpt>
      <trkpt lat="48.09574" lon="-4.21585">
        <ele>158.625978</ele>
        <time>2021-09-30T11:51:59.678Z</time>
      </trkpt>
      <trkpt lat="48.09556" lon="-4.21652">
        <ele>158.349339</ele>
        <time>2021-09-30T11:52:06.358Z</time>
      </trkpt>
      <trkpt lat="48.09514" lon="-4.21741">
        <ele>158.126882</ele>
        <time>2021-09-30T11:52:17.037Z</time>
      </trkpt>
      <trkpt lat="48.09482" lon="-4.21799">
        <ele>157.97377</ele>
        <time>2021-09-30T11:52:25.320Z</time>
      </trkpt>
      <trkpt lat="48.09427" lon="-4.21855">
        <ele>157.552424</ele>
        <time>2021-09-30T11:52:36.188Z</time>
      </trkpt>
      <trkpt lat="48.09352" lon="-4.21964">
        <ele>156.765386</ele>
        <time>2021-09-30T11:52:50.459Z</time>
      </trkpt>
      <trkpt lat="48.09244" lon="-4.22152">
        <ele>154.007466</ele>
        <time>2021-09-30T11:53:11.143Z</time>
      </trkpt>
      <trkpt lat="48.09129" lon="-4.22314">
        <ele>151.098165</ele>
        <time>2021-09-30T11:53:30.982Z</time>
      </trkpt>
      <trkpt lat="48.09058" lon="-4.22396">
        <ele>149.076562</ele>
        <time>2021-09-30T11:53:42.295Z</time>
      </trkpt>
      <trkpt lat="48.09055" lon="-4.22399">
        <ele>148.960611</ele>
        <time>2021-09-30T11:53:42.744Z</time>
      </trkpt>
      <trkpt lat="48.09034" lon="-4.22436">
        <ele>147.912316</ele>
        <time>2021-09-30T11:53:46.602Z</time>
      </trkpt>
      <trkpt lat="48.09013" lon="-4.22485">
        <ele>146.653435</ele>
        <time>2021-09-30T11:53:51.095Z</time>
      </trkpt>
      <trkpt lat="48.09001" lon="-4.22514">
        <ele>145.913468</ele>
        <time>2021-09-30T11:53:53.677Z</time>
      </trkpt>
      <trkpt lat="48.08984" lon="-4.22571">
        <ele>144.579371</ele>
        <time>2021-09-30T11:53:58.189Z</time>
      </trkpt>
      <trkpt lat="48.08977" lon="-4.22585">
        <ele>144.207525</ele>
        <time>2021-09-30T11:53:59.438Z</time>
      </trkpt>
      <trkpt lat="48.08912" lon="-4.22762">
        <ele>138.753069</ele>
        <time>2021-09-30T11:54:14.140Z</time>
      </trkpt>
      <trkpt lat="48.08886" lon="-4.22825">
        <ele>136.807338</ele>
        <time>2021-09-30T11:54:19.754Z</time>
      </trkpt>
      <trkpt lat="48.08849" lon="-4.22903">
        <ele>135.591657</ele>
        <time>2021-09-30T11:54:33.363Z</time>
      </trkpt>
      <trkpt lat="48.08841" lon="-4.22921">
        <ele>135.31882</ele>
        <time>2021-09-30T11:54:36.591Z</time>
      </trkpt>
      <trkpt lat="48.08782" lon="-4.23054">
        <ele>133.310116</ele>
        <time>2021-09-30T11:55:01.163Z</time>
      </trkpt>
      <trkpt lat="48.08695" lon="-4.23261">
        <ele>130.901487</ele>
        <time>2021-09-30T11:55:37.914Z</time>
      </trkpt>
      <trkpt lat="48.08683" lon="-4.23284">
        <ele>130.665954</ele>
        <time>2021-09-30T11:55:42.344Z</time>
      </trkpt>
      <trkpt lat="48.08616" lon="-4.23416">
        <ele>129.628904</ele>
        <time>2021-09-30T11:56:08.266Z</time>
      </trkpt>
      <trkpt lat="48.08517" lon="-4.23634">
        <ele>127.820844</ele>
        <time>2021-09-30T11:56:50.907Z</time>
      </trkpt>
      <trkpt lat="48.08504" lon="-4.23668">
        <ele>127.539197</ele>
        <time>2021-09-30T11:56:57.029Z</time>
      </trkpt>
      <trkpt lat="48.08393" lon="-4.23917">
        <ele>122.630325</ele>
        <time>2021-09-30T11:57:39.831Z</time>
      </trkpt>
      <trkpt lat="48.08347" lon="-4.24021">
        <ele>119.175752</ele>
        <time>2021-09-30T11:57:56.159Z</time>
      </trkpt>
      <trkpt lat="48.0828" lon="-4.24166">
        <ele>113.982057</ele>
        <time>2021-09-30T11:58:18.813Z</time>
      </trkpt>
      <trkpt lat="48.08178" lon="-4.24389">
        <ele>107.704886</ele>
        <time>2021-09-30T11:58:55.114Z</time>
      </trkpt>
      <trkpt lat="48.08138" lon="-4.24478">
        <ele>108.418621</ele>
        <time>2021-09-30T11:59:12.790Z</time>
      </trkpt>
      <trkpt lat="48.08311" lon="-4.24632">
        <ele>111.604379</ele>
        <time>2021-09-30T12:00:27.390Z</time>
      </trkpt>
      <trkpt lat="48.08281" lon="-4.2471">
        <ele>112.909185</ele>
        <time>2021-09-30T12:00:47.880Z</time>
      </trkpt>
      <trkpt lat="48.08252" lon="-4.2476">
        <ele>112.919654</ele>
        <time>2021-09-30T12:01:00.420Z</time>
      </trkpt>
      <trkpt lat="48.08251" lon="-4.24769">
        <ele>112.800676</ele>
        <time>2021-09-30T12:01:02.208Z</time>
      </trkpt>
      <trkpt lat="48.0819" lon="-4.24888">
        <ele>110.976083</ele>
        <time>2021-09-30T12:01:24.948Z</time>
      </trkpt>
      <trkpt lat="48.0817" lon="-4.25019">
        <ele>107.570455</ele>
        <time>2021-09-30T12:01:42.612Z</time>
      </trkpt>
      <trkpt lat="48.08137" lon="-4.25104">
        <ele>103.46363</ele>
        <time>2021-09-30T12:01:54.835Z</time>
      </trkpt>
      <trkpt lat="48.08123" lon="-4.25139">
        <ele>101.805844</ele>
        <time>2021-09-30T12:01:59.672Z</time>
      </trkpt>
      <trkpt lat="48.08116" lon="-4.25136">
        <ele>101.364561</ele>
        <time>2021-09-30T12:02:00.453Z</time>
      </trkpt>
      <trkpt lat="48.08048" lon="-4.25147">
        <ele>96.910171</ele>
        <time>2021-09-30T12:02:12.846Z</time>
      </trkpt>
      <trkpt lat="48.07923" lon="-4.25125">
        <ele>88.464807</ele>
        <time>2021-09-30T12:02:35.823Z</time>
      </trkpt>
      <trkpt lat="48.0786" lon="-4.25161">
        <ele>83.896882</ele>
        <time>2021-09-30T12:02:48.555Z</time>
      </trkpt>
      <trkpt lat="48.07815" lon="-4.25167">
        <ele>80.866187</ele>
        <time>2021-09-30T12:02:56.870Z</time>
      </trkpt>
      <trkpt lat="48.07809" lon="-4.25212">
        <ele>78.811112</ele>
        <time>2021-09-30T12:03:02.572Z</time>
      </trkpt>
      <trkpt lat="48.07795" lon="-4.25238">
        <ele>77.355662</ele>
        <time>2021-09-30T12:03:06.610Z</time>
      </trkpt>
      <trkpt lat="48.07767" lon="-4.25276">
        <ele>74.817683</ele>
        <time>2021-09-30T12:03:10.595Z</time>
      </trkpt>
      <trkpt lat="48.07723" lon="-4.25308">
        <ele>70.368397</ele>
        <time>2021-09-30T12:03:15.783Z</time>
      </trkpt>
      <trkpt lat="48.07713" lon="-4.25305">
        <ele>69.4234</ele>
        <time>2021-09-30T12:03:16.779Z</time>
      </trkpt>
      <trkpt lat="48.07709" lon="-4.25296">
        <ele>68.757593</ele>
        <time>2021-09-30T12:03:17.565Z</time>
      </trkpt>
      <trkpt lat="48.07697" lon="-4.25241">
        <ele>65.212064</ele>
        <time>2021-09-30T12:03:21.485Z</time>
      </trkpt>
      <trkpt lat="48.07689" lon="-4.25221">
        <ele>63.764457</ele>
        <time>2021-09-30T12:03:23.106Z</time>
      </trkpt>
      <trkpt lat="48.07682" lon="-4.25216">
        <ele>63.007929</ele>
        <time>2021-09-30T12:03:23.895Z</time>
      </trkpt>
      <trkpt lat="48.07629" lon="-4.25221">
        <ele>58.196516</ele>
        <time>2021-09-30T12:03:29.315Z</time>
      </trkpt>
      <trkpt lat="48.07592" lon="-4.25196">
        <ele>54.578484</ele>
        <time>2021-09-30T12:03:33.582Z</time>
      </trkpt>
      <trkpt lat="48.07554" lon="-4.2509">
        <ele>47.630622</ele>
        <time>2021-09-30T12:03:41.330Z</time>
      </trkpt>
      <trkpt lat="48.07549" lon="-4.25075">
        <ele>46.643791</ele>
        <time>2021-09-30T12:03:42.420Z</time>
      </trkpt>
      <trkpt lat="48.0751" lon="-4.25106">
        <ele>42.780069</ele>
        <time>2021-09-30T12:03:46.814Z</time>
      </trkpt>
      <trkpt lat="48.07417" lon="-4.25228">
        <ele>34.46759</ele>
        <time>2021-09-30T12:03:59.316Z</time>
      </trkpt>
      <trkpt lat="48.07376" lon="-4.25267">
        <ele>31.211966</ele>
        <time>2021-09-30T12:04:04.349Z</time>
      </trkpt>
      <trkpt lat="48.07325" lon="-4.25288">
        <ele>28.408704</ele>
        <time>2021-09-30T12:04:09.854Z</time>
      </trkpt>
      <trkpt lat="48.07219" lon="-4.25284">
        <ele>23.195246</ele>
        <time>2021-09-30T12:04:21.160Z</time>
      </trkpt>
      <trkpt lat="48.072" lon="-4.25465">
        <ele>19.711177</ele>
        <time>2021-09-30T12:04:35.195Z</time>
      </trkpt>
      <trkpt lat="48.07202" lon="-4.25502">
        <ele>19.197652</ele>
        <time>2021-09-30T12:04:38.402Z</time>
      </trkpt>
      <trkpt lat="48.07212" lon="-4.2554">
        <ele>18.605966</ele>
        <time>2021-09-30T12:04:42.269Z</time>
      </trkpt>
      <trkpt lat="48.07171" lon="-4.25608">
        <ele>17.810347</ele>
        <time>2021-09-30T12:04:50.788Z</time>
      </trkpt>
      <trkpt lat="48.07158" lon="-4.25622">
        <ele>17.805663</ele>
        <time>2021-09-30T12:04:53.257Z</time>
      </trkpt>
      <trkpt lat="48.07131" lon="-4.25627">
        <ele>17.798112</ele>
        <time>2021-09-30T12:04:57.297Z</time>
      </trkpt>
      <trkpt lat="48.07095" lon="-4.25616">
        <ele>17.787988</ele>
        <time>2021-09-30T12:05:02.809Z</time>
      </trkpt>
      <trkpt lat="48.07048" lon="-4.25605">
        <ele>17.774563</ele>
        <time>2021-09-30T12:05:10.839Z</time>
      </trkpt>
      <trkpt lat="48.06995" lon="-4.25606">
        <ele>17.905356</ele>
        <time>2021-09-30T12:05:20.016Z</time>
      </trkpt>
      <trkpt lat="48.06928" lon="-4.25589">
        <ele>18.292827</ele>
        <time>2021-09-30T12:05:31.322Z</time>
      </trkpt>
      <trkpt lat="48.06892" lon="-4.256">
        <ele>18.503417</ele>
        <time>2021-09-30T12:05:38.011Z</time>
      </trkpt>
      <trkpt lat="48.06943" lon="-4.25797">
        <ele>19.519555</ele>
        <time>2021-09-30T12:06:06.863Z</time>
      </trkpt>
      <trkpt lat="48.0709" lon="-4.26357">
        <ele>23.190568</ele>
        <time>2021-09-30T12:07:28.751Z</time>
      </trkpt>
      <trkpt lat="48.07132" lon="-4.26497">
        <ele>24.584272</ele>
        <time>2021-09-30T12:07:53.748Z</time>
      </trkpt>
      <trkpt lat="48.07187" lon="-4.26624">
        <ele>26.170861</ele>
        <time>2021-09-30T12:08:18.087Z</time>
      </trkpt>
      <trkpt lat="48.07229" lon="-4.26682">
        <ele>26.969576</ele>
        <time>2021-09-30T12:08:29.779Z</time>
      </trkpt>
      <trkpt lat="48.07346" lon="-4.26822">
        <ele>28.997515</ele>
        <time>2021-09-30T12:09:01.950Z</time>
      </trkpt>
      <trkpt lat="48.07477" lon="-4.26983">
        <ele>33.65917</ele>
        <time>2021-09-30T12:09:49.368Z</time>
      </trkpt>
      <trkpt lat="48.07528" lon="-4.27086">
        <ele>36.469622</ele>
        <time>2021-09-30T12:10:19.898Z</time>
      </trkpt>
      <trkpt lat="48.07537" lon="-4.27115">
        <ele>37.171526</ele>
        <time>2021-09-30T12:10:26.576Z</time>
      </trkpt>
      <trkpt lat="48.07544" lon="-4.27176">
        <ele>38.535266</ele>
        <time>2021-09-30T12:10:39.297Z</time>
      </trkpt>
      <trkpt lat="48.07546" lon="-4.27184">
        <ele>38.723467</ele>
        <time>2021-09-30T12:10:41.303Z</time>
      </trkpt>
      <trkpt lat="48.07553" lon="-4.27299">
        <ele>39.847399</ele>
        <time>2021-09-30T12:11:00.002Z</time>
      </trkpt>
      <trkpt lat="48.07554" lon="-4.27404">
        <ele>39.969243</ele>
        <time>2021-09-30T12:11:12.826Z</time>
      </trkpt>
      <trkpt lat="48.07561" lon="-4.27481">
        <ele>40.059276</ele>
        <time>2021-09-30T12:11:20.225Z</time>
      </trkpt>
      <trkpt lat="48.07571" lon="-4.27546">
        <ele>40.077835</ele>
        <time>2021-09-30T12:11:26.811Z</time>
      </trkpt>
      <trkpt lat="48.07615" lon="-4.27723">
        <ele>40.06761</ele>
        <time>2021-09-30T12:11:48.170Z</time>
      </trkpt>
      <trkpt lat="48.07618" lon="-4.27734">
        <ele>40.066963</ele>
        <time>2021-09-30T12:11:49.884Z</time>
      </trkpt>
      <trkpt lat="48.0768" lon="-4.27994">
        <ele>43.162129</ele>
        <time>2021-09-30T12:12:36.290Z</time>
      </trkpt>
      <trkpt lat="48.077" lon="-4.28107">
        <ele>44.622732</ele>
        <time>2021-09-30T12:12:55.162Z</time>
      </trkpt>
      <trkpt lat="48.07712" lon="-4.28233">
        <ele>46.210926</ele>
        <time>2021-09-30T12:13:15.994Z</time>
      </trkpt>
      <trkpt lat="48.07725" lon="-4.28506">
        <ele>49.110182</ele>
        <time>2021-09-30T12:14:01.569Z</time>
      </trkpt>
      <trkpt lat="48.07736" lon="-4.28742">
        <ele>49.052949</ele>
        <time>2021-09-30T12:14:28.515Z</time>
      </trkpt>
      <trkpt lat="48.07742" lon="-4.28904">
        <ele>48.133841</ele>
        <time>2021-09-30T12:14:44.273Z</time>
      </trkpt>
      <trkpt lat="48.07778" lon="-4.29735">
        <ele>41.780506</ele>
        <time>2021-09-30T12:16:07.568Z</time>
      </trkpt>
      <trkpt lat="48.07779" lon="-4.29744">
        <ele>41.732878</ele>
        <time>2021-09-30T12:16:09.158Z</time>
      </trkpt>
      <trkpt lat="48.07779" lon="-4.29755">
        <ele>41.680938</ele>
        <time>2021-09-30T12:16:10.877Z</time>
      </trkpt>
      <trkpt lat="48.078" lon="-4.30194">
        <ele>40.223555</ele>
        <time>2021-09-30T12:17:23.696Z</time>
      </trkpt>
      <trkpt lat="48.07889" lon="-4.31349">
        <ele>32.508019</ele>
        <time>2021-09-30T12:20:25.255Z</time>
      </trkpt>
      <trkpt lat="48.0789" lon="-4.31358">
        <ele>32.435913</ele>
        <time>2021-09-30T12:20:26.866Z</time>
      </trkpt>
      <trkpt lat="48.07902" lon="-4.31522">
        <ele>30.928721</ele>
        <time>2021-09-30T12:20:52.421Z</time>
      </trkpt>
      <trkpt lat="48.07914" lon="-4.31904">
        <ele>24.693404</ele>
        <time>2021-09-30T12:21:46.612Z</time>
      </trkpt>
      <trkpt lat="48.07935" lon="-4.32008">
        <ele>22.792741</ele>
        <time>2021-09-30T12:22:01.725Z</time>
      </trkpt>
      <trkpt lat="48.0797" lon="-4.32107">
        <ele>21.171276</ele>
        <time>2021-09-30T12:22:18.132Z</time>
      </trkpt>
      <trkpt lat="48.08071" lon="-4.32288">
        <ele>17.763042</ele>
        <time>2021-09-30T12:22:52.831Z</time>
      </trkpt>
      <trkpt lat="48.08102" lon="-4.32365">
        <ele>16.339057</ele>
        <time>2021-09-30T12:23:05.673Z</time>
      </trkpt>
      <trkpt lat="48.0812" lon="-4.32443">
        <ele>15.016738</ele>
        <time>2021-09-30T12:23:17.381Z</time>
      </trkpt>
      <trkpt lat="48.08128" lon="-4.32532">
        <ele>13.560097</ele>
        <time>2021-09-30T12:23:30.025Z</time>
      </trkpt>
      <trkpt lat="48.08123" lon="-4.32773">
        <ele>10.052707</ele>
        <time>2021-09-30T12:24:04.556Z</time>
      </trkpt>
      <trkpt lat="48.0813" lon="-4.32863">
        <ele>9.92996</ele>
        <time>2021-09-30T12:24:17.961Z</time>
      </trkpt>
      <trkpt lat="48.08149" lon="-4.32971">
        <ele>9.776002</ele>
        <time>2021-09-30T12:24:38.799Z</time>
      </trkpt>
      <trkpt lat="48.08154" lon="-4.32995">
        <ele>9.741494</ele>
        <time>2021-09-30T12:24:42.897Z</time>
      </trkpt>
      <trkpt lat="48.08171" lon="-4.33054">
        <ele>11.038261</ele>
        <time>2021-09-30T12:24:53.964Z</time>
      </trkpt>
      <trkpt lat="48.08204" lon="-4.33136">
        <ele>13.428069</ele>
        <time>2021-09-30T12:25:13.791Z</time>
      </trkpt>
      <trkpt lat="48.08261" lon="-4.33235">
        <ele>16.608523</ele>
        <time>2021-09-30T12:25:47.236Z</time>
      </trkpt>
      <trkpt lat="48.08321" lon="-4.33308">
        <ele>18.657377</ele>
        <time>2021-09-30T12:26:13.363Z</time>
      </trkpt>
      <trkpt lat="48.08382" lon="-4.33358">
        <ele>20.4788</ele>
        <time>2021-09-30T12:26:29.313Z</time>
      </trkpt>
      <trkpt lat="48.08393" lon="-4.33367">
        <ele>20.823828</ele>
        <time>2021-09-30T12:26:31.811Z</time>
      </trkpt>
      <trkpt lat="48.08446" lon="-4.33394">
        <ele>21.268946</ele>
        <time>2021-09-30T12:26:42.149Z</time>
      </trkpt>
      <trkpt lat="48.08516" lon="-4.33418">
        <ele>21.403046</ele>
        <time>2021-09-30T12:26:53.877Z</time>
      </trkpt>
      <trkpt lat="48.08525" lon="-4.33421">
        <ele>21.419307</ele>
        <time>2021-09-30T12:26:55.668Z</time>
      </trkpt>
      <trkpt lat="48.08658" lon="-4.33451">
        <ele>21.74389</ele>
        <time>2021-09-30T12:27:19.998Z</time>
      </trkpt>
      <trkpt lat="48.0866" lon="-4.33462">
        <ele>21.764561</ele>
        <time>2021-09-30T12:27:21.515Z</time>
      </trkpt>
      <trkpt lat="48.08662" lon="-4.33479">
        <ele>21.797694</ele>
        <time>2021-09-30T12:27:23.949Z</time>
      </trkpt>
      <trkpt lat="48.08675" lon="-4.33485">
        <ele>21.833765</ele>
        <time>2021-09-30T12:27:26.379Z</time>
      </trkpt>
      <trkpt lat="48.08678" lon="-4.33491">
        <ele>21.848578</ele>
        <time>2021-09-30T12:27:27.425Z</time>
      </trkpt>
      <trkpt lat="48.08684" lon="-4.33502">
        <ele>21.874325</ele>
        <time>2021-09-30T12:27:29.676Z</time>
      </trkpt>
      <trkpt lat="48.08705" lon="-4.33484">
        <ele>21.942288</ele>
        <time>2021-09-30T12:27:34.589Z</time>
      </trkpt>
      <trkpt lat="48.08714" lon="-4.33483">
        <ele>21.966658</ele>
        <time>2021-09-30T12:27:36.850Z</time>
      </trkpt>
      <trkpt lat="48.08748" lon="-4.33488">
        <ele>22.096328</ele>
        <time>2021-09-30T12:27:44.248Z</time>
      </trkpt>
      <trkpt lat="48.08816" lon="-4.33513">
        <ele>22.502379</ele>
        <time>2021-09-30T12:28:00.510Z</time>
      </trkpt>
      <trkpt lat="48.08856" lon="-4.33536">
        <ele>22.750113</ele>
        <time>2021-09-30T12:28:07.808Z</time>
      </trkpt>
      <trkpt lat="48.089" lon="-4.33562">
        <ele>23.0215</ele>
        <time>2021-09-30T12:28:20.414Z</time>
      </trkpt>
      <trkpt lat="48.08909" lon="-4.33577">
        <ele>23.126591</ele>
        <time>2021-09-30T12:28:23.992Z</time>
      </trkpt>
      <trkpt lat="48.08926" lon="-4.33617">
        <ele>23.48905</ele>
        <time>2021-09-30T12:28:31.559Z</time>
      </trkpt>
      <trkpt lat="48.08929" lon="-4.33626">
        <ele>23.564095</ele>
        <time>2021-09-30T12:28:33.262Z</time>
      </trkpt>
      <trkpt lat="48.08922" lon="-4.33628">
        <ele>23.648292</ele>
        <time>2021-09-30T12:28:34.827Z</time>
      </trkpt>
      <trkpt lat="48.08901" lon="-4.3366">
        <ele>23.983708</ele>
        <time>2021-09-30T12:28:41.565Z</time>
      </trkpt>
      <trkpt lat="48.08888" lon="-4.3368">
        <ele>24.197863</ele>
        <time>2021-09-30T12:28:45.488Z</time>
      </trkpt>
      <trkpt lat="48.08864" lon="-4.33803">
        <ele>25.190709</ele>
        <time>2021-09-30T12:29:02.647Z</time>
      </trkpt>
      <trkpt lat="48.08861" lon="-4.33846">
        <ele>25.638699</ele>
        <time>2021-09-30T12:29:07.912Z</time>
      </trkpt>
      <trkpt lat="48.08865" lon="-4.34024">
        <ele>27.500601</ele>
        <time>2021-09-30T12:29:32.793Z</time>
      </trkpt>
      <trkpt lat="48.08865" lon="-4.34039">
        <ele>27.656249</ele>
        <time>2021-09-30T12:29:35.240Z</time>
      </trkpt>
      <trkpt lat="48.08872" lon="-4.34216">
        <ele>30.929317</ele>
        <time>2021-09-30T12:30:07.287Z</time>
      </trkpt>
      <trkpt lat="48.08877" lon="-4.34281">
        <ele>32.218311</ele>
        <time>2021-09-30T12:30:20.063Z</time>
      </trkpt>
      <trkpt lat="48.08886" lon="-4.34324">
        <ele>33.10888</ele>
        <time>2021-09-30T12:30:29.297Z</time>
      </trkpt>
      <trkpt lat="48.0893" lon="-4.34457">
        <ele>36.172543</ele>
        <time>2021-09-30T12:31:00.065Z</time>
      </trkpt>
      <trkpt lat="48.08942" lon="-4.34495">
        <ele>37.03346</ele>
        <time>2021-09-30T12:31:07.910Z</time>
      </trkpt>
      <trkpt lat="48.0896" lon="-4.34574">
        <ele>38.762226</ele>
        <time>2021-09-30T12:31:21.238Z</time>
      </trkpt>
      <trkpt lat="48.08961" lon="-4.34601">
        <ele>39.176749</ele>
        <time>2021-09-30T12:31:25.528Z</time>
      </trkpt>
      <trkpt lat="48.08953" lon="-4.34604">
        <ele>39.373178</ele>
        <time>2021-09-30T12:31:28.352Z</time>
      </trkpt>
      <trkpt lat="48.08961" lon="-4.34645">
        <ele>40.013937</ele>
        <time>2021-09-30T12:31:36.765Z</time>
      </trkpt>
      <trkpt lat="48.08947" lon="-4.34658">
        <ele>40.387067</ele>
        <time>2021-09-30T12:31:41.649Z</time>
      </trkpt>
      <trkpt lat="48.08957" lon="-4.34683">
        <ele>40.811894</ele>
        <time>2021-09-30T12:31:46.534Z</time>
      </trkpt>
      <trkpt lat="48.08974" lon="-4.34674">
        <ele>41.235922</ele>
        <time>2021-09-30T12:31:51.038Z</time>
      </trkpt>
      <trkpt lat="48.08986" lon="-4.34689">
        <ele>41.587019</ele>
        <time>2021-09-30T12:31:54.849Z</time>
      </trkpt>
      <trkpt lat="48.08986" lon="-4.34689">
        <ele>41.587019</ele>
        <time>2021-09-30T12:31:54.853Z</time>
      </trkpt>
      <trkpt lat="48.08988" lon="-4.34707">
        <ele>41.862958</ele>
        <time>2021-09-30T12:31:57.674Z</time>
      </trkpt>
      <trkpt lat="48.08982" lon="-4.34721">
        <ele>42.117631</ele>
        <time>2021-09-30T12:32:00.600Z</time>
      </trkpt>
      <trkpt lat="48.08971" lon="-4.34727">
        <ele>42.376581</ele>
        <time>2021-09-30T12:32:03.432Z</time>
      </trkpt>
      <trkpt lat="48.0896" lon="-4.34723">
        <ele>42.631373</ele>
        <time>2021-09-30T12:32:06.108Z</time>
      </trkpt>
      <trkpt lat="48.08958" lon="-4.34733">
        <ele>42.785127</ele>
        <time>2021-09-30T12:32:07.808Z</time>
      </trkpt>
      <trkpt lat="48.08952" lon="-4.34744">
        <ele>43.045027</ele>
        <time>2021-09-30T12:32:10.306Z</time>
      </trkpt>
      <trkpt lat="48.08934" lon="-4.3476">
        <ele>43.63199</ele>
        <time>2021-09-30T12:32:15.062Z</time>
      </trkpt>
      <trkpt lat="48.08878" lon="-4.34843">
        <ele>45.817348</ele>
        <time>2021-09-30T12:32:35.023Z</time>
      </trkpt>
      <trkpt lat="48.0887" lon="-4.34848">
        <ele>46.058332</ele>
        <time>2021-09-30T12:32:37.629Z</time>
      </trkpt>
      <trkpt lat="48.0884" lon="-4.34883">
        <ele>47.128251</ele>
        <time>2021-09-30T12:32:49.469Z</time>
      </trkpt>
      <trkpt lat="48.08819" lon="-4.34924">
        <ele>48.086753</ele>
        <time>2021-09-30T12:32:59.858Z</time>
      </trkpt>
      <trkpt lat="48.088" lon="-4.34995">
        <ele>49.58505</ele>
        <time>2021-09-30T12:33:15.262Z</time>
      </trkpt>
      <trkpt lat="48.08793" lon="-4.35046">
        <ele>50.58562</ele>
        <time>2021-09-30T12:33:25.336Z</time>
      </trkpt>
      <trkpt lat="48.0881" lon="-4.35174">
        <ele>53.114983</ele>
        <time>2021-09-30T12:33:49.005Z</time>
      </trkpt>
      <trkpt lat="48.08812" lon="-4.35225">
        <ele>54.20281</ele>
        <time>2021-09-30T12:33:58.776Z</time>
      </trkpt>
      <trkpt lat="48.08784" lon="-4.35324">
        <ele>56.471818</ele>
        <time>2021-09-30T12:34:20.226Z</time>
      </trkpt>
      <trkpt lat="48.08745" lon="-4.35374">
        <ele>58.084906</ele>
        <time>2021-09-30T12:34:35.930Z</time>
      </trkpt>
      <trkpt lat="48.08705" lon="-4.35399">
        <ele>59.272546</ele>
        <time>2021-09-30T12:34:52.993Z</time>
      </trkpt>
      <trkpt lat="48.08678" lon="-4.35417">
        <ele>59.962263</ele>
        <time>2021-09-30T12:35:04.692Z</time>
      </trkpt>
      <trkpt lat="48.08632" lon="-4.35467">
        <ele>61.294063</ele>
        <time>2021-09-30T12:35:25.955Z</time>
      </trkpt>
      <trkpt lat="48.08605" lon="-4.35518">
        <ele>62.302333</ele>
        <time>2021-09-30T12:35:40.071Z</time>
      </trkpt>
      <trkpt lat="48.08588" lon="-4.35578">
        <ele>62.91484</ele>
        <time>2021-09-30T12:35:52.324Z</time>
      </trkpt>
      <trkpt lat="48.08582" lon="-4.35625">
        <ele>62.842229</ele>
        <time>2021-09-30T12:36:00.550Z</time>
      </trkpt>
      <trkpt lat="48.08583" lon="-4.35659">
        <ele>62.78923</ele>
        <time>2021-09-30T12:36:05.843Z</time>
      </trkpt>
      <trkpt lat="48.08595" lon="-4.35732">
        <ele>62.674223</ele>
        <time>2021-09-30T12:36:18.219Z</time>
      </trkpt>
      <trkpt lat="48.08638" lon="-4.35879">
        <ele>63.181383</ele>
        <time>2021-09-30T12:36:43.687Z</time>
      </trkpt>
      <trkpt lat="48.08645" lon="-4.35934">
        <ele>63.686965</ele>
        <time>2021-09-30T12:36:54.782Z</time>
      </trkpt>
      <trkpt lat="48.08655" lon="-4.3611">
        <ele>65.593082</ele>
        <time>2021-09-30T12:37:36.579Z</time>
      </trkpt>
      <trkpt lat="48.0865" lon="-4.36211">
        <ele>67.439027</ele>
        <time>2021-09-30T12:38:03.262Z</time>
      </trkpt>
      <trkpt lat="48.08641" lon="-4.36275">
        <ele>68.618594</ele>
        <time>2021-09-30T12:38:19.774Z</time>
      </trkpt>
      <trkpt lat="48.08641" lon="-4.36293">
        <ele>68.947696</ele>
        <time>2021-09-30T12:38:24.798Z</time>
      </trkpt>
      <trkpt lat="48.08634" lon="-4.36534">
        <ele>70.903787</ele>
        <time>2021-09-30T12:39:13.035Z</time>
      </trkpt>
      <trkpt lat="48.08627" lon="-4.36743">
        <ele>72.035419</ele>
        <time>2021-09-30T12:39:47.881Z</time>
      </trkpt>
      <trkpt lat="48.08624" lon="-4.36833">
        <ele>72.515591</ele>
        <time>2021-09-30T12:40:05.421Z</time>
      </trkpt>
      <trkpt lat="48.08619" lon="-4.36933">
        <ele>73.730673</ele>
        <time>2021-09-30T12:40:29.464Z</time>
      </trkpt>
      <trkpt lat="48.08593" lon="-4.37156">
        <ele>77.782802</ele>
        <time>2021-09-30T12:41:26.888Z</time>
      </trkpt>
      <trkpt lat="48.08594" lon="-4.37248">
        <ele>78.295449</ele>
        <time>2021-09-30T12:41:46.715Z</time>
      </trkpt>
      <trkpt lat="48.08604" lon="-4.37365">
        <ele>78.953276</ele>
        <time>2021-09-30T12:42:08.152Z</time>
      </trkpt>
      <trkpt lat="48.08611" lon="-4.37442">
        <ele>79.191029</ele>
        <time>2021-09-30T12:42:20.465Z</time>
      </trkpt>
      <trkpt lat="48.08621" lon="-4.37511">
        <ele>79.080267</ele>
        <time>2021-09-30T12:42:31.697Z</time>
      </trkpt>
      <trkpt lat="48.08641" lon="-4.37606">
        <ele>78.925141</ele>
        <time>2021-09-30T12:42:47.740Z</time>
      </trkpt>
      <trkpt lat="48.08667" lon="-4.37764">
        <ele>80.036857</ele>
        <time>2021-09-30T12:43:18.385Z</time>
      </trkpt>
      <trkpt lat="48.08727" lon="-4.38035">
        <ele>84.035156</ele>
        <time>2021-09-30T12:44:28.050Z</time>
      </trkpt>
      <trkpt lat="48.08736" lon="-4.38108">
        <ele>85.155704</ele>
        <time>2021-09-30T12:44:46.151Z</time>
      </trkpt>
      <trkpt lat="48.08815" lon="-4.38158">
        <ele>86.467106</ele>
        <time>2021-09-30T12:45:05.020Z</time>
      </trkpt>
      <trkpt lat="48.08878" lon="-4.38207">
        <ele>86.426968</ele>
        <time>2021-09-30T12:45:16.769Z</time>
      </trkpt>
      <trkpt lat="48.08934" lon="-4.3815">
        <ele>86.388607</ele>
        <time>2021-09-30T12:45:26.326Z</time>
      </trkpt>
      <trkpt lat="48.08969" lon="-4.38138">
        <ele>86.050043</ele>
        <time>2021-09-30T12:45:31.084Z</time>
      </trkpt>
      <trkpt lat="48.09111" lon="-4.38184">
        <ele>83.839521</ele>
        <time>2021-09-30T12:45:49.488Z</time>
      </trkpt>
      <trkpt lat="48.09109" lon="-4.38246">
        <ele>83.388555</ele>
        <time>2021-09-30T12:45:54.628Z</time>
      </trkpt>
      <trkpt lat="48.09077" lon="-4.38397">
        <ele>82.432768</ele>
        <time>2021-09-30T12:46:08.766Z</time>
      </trkpt>
      <trkpt lat="48.09069" lon="-4.38434">
        <ele>82.192976</ele>
        <time>2021-09-30T12:46:12.497Z</time>
      </trkpt>
      <trkpt lat="48.09052" lon="-4.38524">
        <ele>82.430592</ele>
        <time>2021-09-30T12:46:22.826Z</time>
      </trkpt>
      <trkpt lat="48.08972" lon="-4.38825">
        <ele>84.211366</ele>
        <time>2021-09-30T12:47:07.176Z</time>
      </trkpt>
      <trkpt lat="48.08936" lon="-4.39007">
        <ele>84.760207</ele>
        <time>2021-09-30T12:47:27.118Z</time>
      </trkpt>
      <trkpt lat="48.08863" lon="-4.39223">
        <ele>84.47616</ele>
        <time>2021-09-30T12:47:50.517Z</time>
      </trkpt>
      <trkpt lat="48.08838" lon="-4.39319">
        <ele>85.150634</ele>
        <time>2021-09-30T12:48:02.181Z</time>
      </trkpt>
      <trkpt lat="48.08791" lon="-4.39487">
        <ele>86.373971</ele>
        <time>2021-09-30T12:48:28.415Z</time>
      </trkpt>
      <trkpt lat="48.08746" lon="-4.39591">
        <ele>87.401199</ele>
        <time>2021-09-30T12:48:47.146Z</time>
      </trkpt>
      <trkpt lat="48.08733" lon="-4.39616">
        <ele>87.672846</ele>
        <time>2021-09-30T12:48:51.831Z</time>
      </trkpt>
      <trkpt lat="48.0873" lon="-4.39686">
        <ele>88.257176</ele>
        <time>2021-09-30T12:49:01.786Z</time>
      </trkpt>
      <trkpt lat="48.08663" lon="-4.40755">
        <ele>83.260446</ele>
        <time>2021-09-30T12:50:41.204Z</time>
      </trkpt>
      <trkpt lat="48.0865" lon="-4.40883">
        <ele>82.211468</ele>
        <time>2021-09-30T12:50:52.658Z</time>
      </trkpt>
      <trkpt lat="48.08615" lon="-4.41062">
        <ele>80.586666</ele>
        <time>2021-09-30T12:51:08.961Z</time>
      </trkpt>
      <trkpt lat="48.08612" lon="-4.41079">
        <ele>80.416729</ele>
        <time>2021-09-30T12:51:10.347Z</time>
      </trkpt>
      <trkpt lat="48.08575" lon="-4.41209">
        <ele>79.005478</ele>
        <time>2021-09-30T12:51:22.610Z</time>
      </trkpt>
      <trkpt lat="48.08548" lon="-4.41282">
        <ele>78.182732</ele>
        <time>2021-09-30T12:51:29.668Z</time>
      </trkpt>
      <trkpt lat="48.08531" lon="-4.41335">
        <ele>77.745813</ele>
        <time>2021-09-30T12:51:34.883Z</time>
      </trkpt>
      <trkpt lat="48.08459" lon="-4.41473">
        <ele>76.449008</ele>
        <time>2021-09-30T12:51:50.296Z</time>
      </trkpt>
      <trkpt lat="48.08409" lon="-4.41569">
        <ele>76.347267</ele>
        <time>2021-09-30T12:52:01.922Z</time>
      </trkpt>
      <trkpt lat="48.08383" lon="-4.4165">
        <ele>76.495489</ele>
        <time>2021-09-30T12:52:11.808Z</time>
      </trkpt>
      <trkpt lat="48.08366" lon="-4.41649">
        <ele>76.538976</ele>
        <time>2021-09-30T12:52:14.767Z</time>
      </trkpt>
      <trkpt lat="48.08363" lon="-4.41668">
        <ele>76.571105</ele>
        <time>2021-09-30T12:52:17.424Z</time>
      </trkpt>
      <trkpt lat="48.08368" lon="-4.417">
        <ele>76.625422</ele>
        <time>2021-09-30T12:52:21.747Z</time>
      </trkpt>
      <trkpt lat="48.08383" lon="-4.41733">
        <ele>76.868582</ele>
        <time>2021-09-30T12:52:27.627Z</time>
      </trkpt>
      <trkpt lat="48.08399" lon="-4.41755">
        <ele>77.133427</ele>
        <time>2021-09-30T12:52:32.363Z</time>
      </trkpt>
      <trkpt lat="48.08531" lon="-4.41888">
        <ele>78.959839</ele>
        <time>2021-09-30T12:53:06.945Z</time>
      </trkpt>
      <trkpt lat="48.0856" lon="-4.4191">
        <ele>79.091156</ele>
        <time>2021-09-30T12:53:12.857Z</time>
      </trkpt>
      <trkpt lat="48.08686" lon="-4.42003">
        <ele>79.652866</ele>
        <time>2021-09-30T12:53:36.424Z</time>
      </trkpt>
      <trkpt lat="48.08643" lon="-4.42251">
        <ele>80.119465</ele>
        <time>2021-09-30T12:54:06.373Z</time>
      </trkpt>
      <trkpt lat="48.08637" lon="-4.42321">
        <ele>79.840648</ele>
        <time>2021-09-30T12:54:14.329Z</time>
      </trkpt>
      <trkpt lat="48.08633" lon="-4.42371">
        <ele>79.646277</ele>
        <time>2021-09-30T12:54:19.438Z</time>
      </trkpt>
      <trkpt lat="48.08624" lon="-4.42417">
        <ele>79.456439</ele>
        <time>2021-09-30T12:54:24.293Z</time>
      </trkpt>
      <trkpt lat="48.08627" lon="-4.42464">
        <ele>79.273085</ele>
        <time>2021-09-30T12:54:28.825Z</time>
      </trkpt>
      <trkpt lat="48.08647" lon="-4.42564">
        <ele>78.01442</ele>
        <time>2021-09-30T12:54:44.584Z</time>
      </trkpt>
      <trkpt lat="48.08639" lon="-4.42634">
        <ele>76.666146</ele>
        <time>2021-09-30T12:54:54.885Z</time>
      </trkpt>
      <trkpt lat="48.08755" lon="-4.42732">
        <ele>72.194935</ele>
        <time>2021-09-30T12:55:21.611Z</time>
      </trkpt>
      <trkpt lat="48.08773" lon="-4.42758">
        <ele>71.038613</ele>
        <time>2021-09-30T12:55:26.646Z</time>
      </trkpt>
      <trkpt lat="48.08778" lon="-4.42775">
        <ele>70.439195</ele>
        <time>2021-09-30T12:55:29.117Z</time>
      </trkpt>
      <trkpt lat="48.08759" lon="-4.42817">
        <ele>68.900943</ele>
        <time>2021-09-30T12:55:35.716Z</time>
      </trkpt>
      <trkpt lat="48.08751" lon="-4.42882">
        <ele>66.828193</ele>
        <time>2021-09-30T12:55:44.334Z</time>
      </trkpt>
      <trkpt lat="48.08751" lon="-4.42939">
        <ele>65.017103</ele>
        <time>2021-09-30T12:55:51.336Z</time>
      </trkpt>
      <trkpt lat="48.08738" lon="-4.43003">
        <ele>62.646776</ele>
        <time>2021-09-30T12:55:59.725Z</time>
      </trkpt>
      <trkpt lat="48.08737" lon="-4.43029">
        <ele>61.75352</ele>
        <time>2021-09-30T12:56:02.892Z</time>
      </trkpt>
      <trkpt lat="48.08748" lon="-4.43049">
        <ele>60.82139</ele>
        <time>2021-09-30T12:56:06.313Z</time>
      </trkpt>
      <trkpt lat="48.08787" lon="-4.43079">
        <ele>58.521335</ele>
        <time>2021-09-30T12:56:14.737Z</time>
      </trkpt>
      <trkpt lat="48.08808" lon="-4.43099">
        <ele>57.20984</ele>
        <time>2021-09-30T12:56:19.700Z</time>
      </trkpt>
      <trkpt lat="48.0883" lon="-4.43137">
        <ele>55.864576</ele>
        <time>2021-09-30T12:56:26.244Z</time>
      </trkpt>
      <trkpt lat="48.08844" lon="-4.43157">
        <ele>55.410539</ele>
        <time>2021-09-30T12:56:30.035Z</time>
      </trkpt>
      <trkpt lat="48.08904" lon="-4.43211">
        <ele>53.757469</ele>
        <time>2021-09-30T12:56:44.359Z</time>
      </trkpt>
      <trkpt lat="48.08931" lon="-4.43275">
        <ele>52.567534</ele>
        <time>2021-09-30T12:56:56.192Z</time>
      </trkpt>
      <trkpt lat="48.08952" lon="-4.43286">
        <ele>52.023058</ele>
        <time>2021-09-30T12:57:01.847Z</time>
      </trkpt>
      <trkpt lat="48.08951" lon="-4.43311">
        <ele>52.008149</ele>
        <time>2021-09-30T12:57:04.766Z</time>
      </trkpt>
      <trkpt lat="48.08943" lon="-4.43433">
        <ele>52.410587</ele>
        <time>2021-09-30T12:57:19.451Z</time>
      </trkpt>
      <trkpt lat="48.08925" lon="-4.43631">
        <ele>53.499061</ele>
        <time>2021-09-30T12:57:45.452Z</time>
      </trkpt>
      <trkpt lat="48.08887" lon="-4.43804">
        <ele>55.191432</ele>
        <time>2021-09-30T12:58:12.031Z</time>
      </trkpt>
      <trkpt lat="48.08858" lon="-4.44217">
        <ele>61.676164</ele>
        <time>2021-09-30T12:59:24.005Z</time>
      </trkpt>
      <trkpt lat="48.08843" lon="-4.44376">
        <ele>64.068172</ele>
        <time>2021-09-30T12:59:52.455Z</time>
      </trkpt>
      <trkpt lat="48.0884" lon="-4.44413">
        <ele>64.326052</ele>
        <time>2021-09-30T12:59:58.562Z</time>
      </trkpt>
      <trkpt lat="48.08806" lon="-4.44807">
        <ele>65.78549</ele>
        <time>2021-09-30T13:00:47.534Z</time>
      </trkpt>
      <trkpt lat="48.0879" lon="-4.45004">
        <ele>64.740382</ele>
        <time>2021-09-30T13:01:06.201Z</time>
      </trkpt>
      <trkpt lat="48.08796" lon="-4.45188">
        <ele>63.166374</ele>
        <time>2021-09-30T13:01:22.981Z</time>
      </trkpt>
      <trkpt lat="48.08803" lon="-4.45314">
        <ele>62.266414</ele>
        <time>2021-09-30T13:01:34.969Z</time>
      </trkpt>
      <trkpt lat="48.08806" lon="-4.45386">
        <ele>61.751202</ele>
        <time>2021-09-30T13:01:41.953Z</time>
      </trkpt>
      <trkpt lat="48.0881" lon="-4.45497">
        <ele>60.940822</ele>
        <time>2021-09-30T13:01:52.731Z</time>
      </trkpt>
      <trkpt lat="48.08769" lon="-4.45718">
        <ele>59.10928</ele>
        <time>2021-09-30T13:02:14.502Z</time>
      </trkpt>
      <trkpt lat="48.08747" lon="-4.4583">
        <ele>57.813254</ele>
        <time>2021-09-30T13:02:24.891Z</time>
      </trkpt>
      <trkpt lat="48.08717" lon="-4.45973">
        <ele>56.437794</ele>
        <time>2021-09-30T13:02:38.053Z</time>
      </trkpt>
      <trkpt lat="48.08707" lon="-4.46021">
        <ele>56.349548</ele>
        <time>2021-09-30T13:02:42.812Z</time>
      </trkpt>
      <trkpt lat="48.08705" lon="-4.46033">
        <ele>56.32872</ele>
        <time>2021-09-30T13:02:43.957Z</time>
      </trkpt>
      <trkpt lat="48.08694" lon="-4.46088">
        <ele>56.229973</ele>
        <time>2021-09-30T13:02:49.533Z</time>
      </trkpt>
      <trkpt lat="48.08649" lon="-4.46287">
        <ele>57.034787</ele>
        <time>2021-09-30T13:03:17.957Z</time>
      </trkpt>
      <trkpt lat="48.08616" lon="-4.46383">
        <ele>58.230944</ele>
        <time>2021-09-30T13:03:36.056Z</time>
      </trkpt>
      <trkpt lat="48.08456" lon="-4.46732">
        <ele>62.953877</ele>
        <time>2021-09-30T13:04:42.026Z</time>
      </trkpt>
      <trkpt lat="48.08442" lon="-4.46774">
        <ele>63.367288</ele>
        <time>2021-09-30T13:04:48.757Z</time>
      </trkpt>
      <trkpt lat="48.08348" lon="-4.4716">
        <ele>66.014468</ele>
        <time>2021-09-30T13:05:44.031Z</time>
      </trkpt>
      <trkpt lat="48.0832" lon="-4.47328">
        <ele>64.878717</ele>
        <time>2021-09-30T13:06:01.265Z</time>
      </trkpt>
      <trkpt lat="48.08307" lon="-4.4748">
        <ele>63.043692</ele>
        <time>2021-09-30T13:06:14.626Z</time>
      </trkpt>
      <trkpt lat="48.08298" lon="-4.47603">
        <ele>60.551796</ele>
        <time>2021-09-30T13:06:24.786Z</time>
      </trkpt>
      <trkpt lat="48.08291" lon="-4.47701">
        <ele>58.478676</ele>
        <time>2021-09-30T13:06:32.710Z</time>
      </trkpt>
      <trkpt lat="48.08329" lon="-4.4773">
        <ele>56.733794</ele>
        <time>2021-09-30T13:06:37.805Z</time>
      </trkpt>
      <trkpt lat="48.0836" lon="-4.47767">
        <ele>55.140663</ele>
        <time>2021-09-30T13:06:42.430Z</time>
      </trkpt>
      <trkpt lat="48.08372" lon="-4.47857">
        <ele>52.66893</ele>
        <time>2021-09-30T13:06:49.558Z</time>
      </trkpt>
      <trkpt lat="48.08374" lon="-4.47928">
        <ele>50.627605</ele>
        <time>2021-09-30T13:06:55.152Z</time>
      </trkpt>
      <trkpt lat="48.08393" lon="-4.47998">
        <ele>48.322652</ele>
        <time>2021-09-30T13:07:01.066Z</time>
      </trkpt>
      <trkpt lat="48.08434" lon="-4.48109">
        <ele>44.462943</ele>
        <time>2021-09-30T13:07:10.729Z</time>
      </trkpt>
      <trkpt lat="48.08437" lon="-4.48141">
        <ele>43.49291</ele>
        <time>2021-09-30T13:07:13.182Z</time>
      </trkpt>
      <trkpt lat="48.08434" lon="-4.48204">
        <ele>41.571891</ele>
        <time>2021-09-30T13:07:18.018Z</time>
      </trkpt>
      <trkpt lat="48.08448" lon="-4.48286">
        <ele>38.964601</ele>
        <time>2021-09-30T13:07:24.694Z</time>
      </trkpt>
      <trkpt lat="48.08467" lon="-4.48401">
        <ele>35.369607</ele>
        <time>2021-09-30T13:07:33.848Z</time>
      </trkpt>
      <trkpt lat="48.08477" lon="-4.48429">
        <ele>34.48455</ele>
        <time>2021-09-30T13:07:36.291Z</time>
      </trkpt>
      <trkpt lat="48.08518" lon="-4.485">
        <ele>31.998588</ele>
        <time>2021-09-30T13:07:43.158Z</time>
      </trkpt>
      <trkpt lat="48.08558" lon="-4.48553">
        <ele>29.841666</ele>
        <time>2021-09-30T13:07:49.731Z</time>
      </trkpt>
      <trkpt lat="48.08583" lon="-4.4857">
        <ele>28.765561</ele>
        <time>2021-09-30T13:07:53.219Z</time>
      </trkpt>
      <trkpt lat="48.0863" lon="-4.48601">
        <ele>27.873527</ele>
        <time>2021-09-30T13:07:59.633Z</time>
      </trkpt>
      <trkpt lat="48.08636" lon="-4.48605">
        <ele>27.855003</ele>
        <time>2021-09-30T13:08:00.376Z</time>
      </trkpt>
      <trkpt lat="48.0863" lon="-4.48601">
        <ele>27.836479</ele>
        <time>2021-09-30T13:08:01.229Z</time>
      </trkpt>
      <trkpt lat="48.08583" lon="-4.4857">
        <ele>27.680084</ele>
        <time>2021-09-30T13:08:08.250Z</time>
      </trkpt>
      <trkpt lat="48.08576" lon="-4.48613">
        <ele>27.590635</ele>
        <time>2021-09-30T13:08:13.048Z</time>
      </trkpt>
      <trkpt lat="48.0859" lon="-4.48635">
        <ele>27.529854</ele>
        <time>2021-09-30T13:08:16.468Z</time>
      </trkpt>
      <trkpt lat="48.0862" lon="-4.48686">
        <ele>27.801916</ele>
        <time>2021-09-30T13:08:34.152Z</time>
      </trkpt>
      <trkpt lat="48.08645" lon="-4.48788">
        <ele>30.266026</ele>
        <time>2021-09-30T13:09:04.214Z</time>
      </trkpt>
      <trkpt lat="48.08642" lon="-4.48797">
        <ele>30.490839</ele>
        <time>2021-09-30T13:09:08.212Z</time>
      </trkpt>
      <trkpt lat="48.0861" lon="-4.48822">
        <ele>31.706535</ele>
        <time>2021-09-30T13:09:20.978Z</time>
      </trkpt>
      <trkpt lat="48.08587" lon="-4.48866">
        <ele>32.957701</ele>
        <time>2021-09-30T13:09:35.120Z</time>
      </trkpt>
      <trkpt lat="48.08575" lon="-4.48899">
        <ele>33.793097</ele>
        <time>2021-09-30T13:09:43.512Z</time>
      </trkpt>
      <trkpt lat="48.08568" lon="-4.48915">
        <ele>34.230793</ele>
        <time>2021-09-30T13:09:49.766Z</time>
      </trkpt>
      <trkpt lat="48.08527" lon="-4.49004">
        <ele>36.617125</ele>
        <time>2021-09-30T13:10:09.885Z</time>
      </trkpt>
      <trkpt lat="48.08518" lon="-4.49015">
        <ele>37.021932</ele>
        <time>2021-09-30T13:10:13.339Z</time>
      </trkpt>
      <trkpt lat="48.08514" lon="-4.4902">
        <ele>37.184412</ele>
        <time>2021-09-30T13:10:14.597Z</time>
      </trkpt>
      <trkpt lat="48.0843" lon="-4.48979">
        <ele>40.319337</ele>
        <time>2021-09-30T13:10:39.543Z</time>
      </trkpt>
      <trkpt lat="48.08415" lon="-4.48977">
        <ele>40.975765</ele>
        <time>2021-09-30T13:10:44.747Z</time>
      </trkpt>
      <trkpt lat="48.08267" lon="-4.48853">
        <ele>48.029052</ele>
        <time>2021-09-30T13:11:43.160Z</time>
      </trkpt>
      <trkpt lat="48.08231" lon="-4.48804">
        <ele>49.338201</ele>
        <time>2021-09-30T13:11:57.442Z</time>
      </trkpt>
      <trkpt lat="48.0818" lon="-4.48673">
        <ele>52.063427</ele>
        <time>2021-09-30T13:12:20.714Z</time>
      </trkpt>
      <trkpt lat="48.08177" lon="-4.48664">
        <ele>52.226905</ele>
        <time>2021-09-30T13:12:21.964Z</time>
      </trkpt>
      <trkpt lat="48.08142" lon="-4.48548">
        <ele>53.414074</ele>
        <time>2021-09-30T13:12:38.637Z</time>
      </trkpt>
      <trkpt lat="48.08129" lon="-4.48531">
        <ele>53.657305</ele>
        <time>2021-09-30T13:12:42.402Z</time>
      </trkpt>
      <trkpt lat="48.08103" lon="-4.48513">
        <ele>54.059017</ele>
        <time>2021-09-30T13:12:48.442Z</time>
      </trkpt>
      <trkpt lat="48.08032" lon="-4.48483">
        <ele>55.250586</ele>
        <time>2021-09-30T13:13:04.327Z</time>
      </trkpt>
      <trkpt lat="48.08032" lon="-4.4848">
        <ele>55.292105</ele>
        <time>2021-09-30T13:13:04.769Z</time>
      </trkpt>
      <trkpt lat="48.07984" lon="-4.48472">
        <ele>56.252302</ele>
        <time>2021-09-30T13:13:20.856Z</time>
      </trkpt>
      <trkpt lat="48.07975" lon="-4.48534">
        <ele>57.111518</ele>
        <time>2021-09-30T13:13:35.809Z</time>
      </trkpt>
      <trkpt lat="48.07969" lon="-4.48546">
        <ele>57.308572</ele>
        <time>2021-09-30T13:13:39.255Z</time>
      </trkpt>
      <trkpt lat="48.07898" lon="-4.48524">
        <ele>58.634347</ele>
        <time>2021-09-30T13:14:04.192Z</time>
      </trkpt>
      <trkpt lat="48.07844" lon="-4.48525">
        <ele>59.389697</ele>
        <time>2021-09-30T13:14:20.650Z</time>
      </trkpt>
      <trkpt lat="48.07835" lon="-4.4852">
        <ele>59.519283</ele>
        <time>2021-09-30T13:14:23.613Z</time>
      </trkpt>
      <trkpt lat="48.07825" lon="-4.48507">
        <ele>59.705056</ele>
        <time>2021-09-30T13:14:27.482Z</time>
      </trkpt>
      <trkpt lat="48.07763" lon="-4.48485">
        <ele>60.605766</ele>
        <time>2021-09-30T13:14:46.127Z</time>
      </trkpt>
      <trkpt lat="48.07697" lon="-4.48708">
        <ele>63.018614</ele>
        <time>2021-09-30T13:15:35.924Z</time>
      </trkpt>
      <trkpt lat="48.07616" lon="-4.48896">
        <ele>66.487951</ele>
        <time>2021-09-30T13:16:28.130Z</time>
      </trkpt>
      <trkpt lat="48.07587" lon="-4.4908">
        <ele>69.707722</ele>
        <time>2021-09-30T13:17:15.305Z</time>
      </trkpt>
      <trkpt lat="48.07523" lon="-4.49064">
        <ele>71.359894</ele>
        <time>2021-09-30T13:17:32.030Z</time>
      </trkpt>
      <trkpt lat="48.07474" lon="-4.49063">
        <ele>72.600181</ele>
        <time>2021-09-30T13:17:44.338Z</time>
      </trkpt>
      <trkpt lat="48.07445" lon="-4.49075">
        <ele>73.304807</ele>
        <time>2021-09-30T13:17:52.132Z</time>
      </trkpt>
      <trkpt lat="48.07409" lon="-4.49106">
        <ele>74.216245</ele>
        <time>2021-09-30T13:18:02.458Z</time>
      </trkpt>
      <trkpt lat="48.07365" lon="-4.49144">
        <ele>75.358607</ele>
        <time>2021-09-30T13:18:14.877Z</time>
      </trkpt>
      <trkpt lat="48.07369" lon="-4.49172">
        <ele>75.785185</ele>
        <time>2021-09-30T13:18:19.605Z</time>
      </trkpt>
      <trkpt lat="48.07425" lon="-4.49299">
        <ele>78.272393</ele>
        <time>2021-09-30T13:18:45.593Z</time>
      </trkpt>
      <trkpt lat="48.07472" lon="-4.49448">
        <ele>81.152993</ele>
        <time>2021-09-30T13:19:15.315Z</time>
      </trkpt>
      <trkpt lat="48.07523" lon="-4.49554">
        <ele>83.258648</ele>
        <time>2021-09-30T13:19:39.649Z</time>
      </trkpt>
      <trkpt lat="48.07501" lon="-4.49632">
        <ele>84.607467</ele>
        <time>2021-09-30T13:19:54.542Z</time>
      </trkpt>
      <trkpt lat="48.07492" lon="-4.49701">
        <ele>85.72631</ele>
        <time>2021-09-30T13:20:05.766Z</time>
      </trkpt>
      <trkpt lat="48.07494" lon="-4.49763">
        <ele>85.768824</ele>
        <time>2021-09-30T13:20:14.696Z</time>
      </trkpt>
      <trkpt lat="48.075" lon="-4.499">
        <ele>85.799237</ele>
        <time>2021-09-30T13:20:30.034Z</time>
      </trkpt>
      <trkpt lat="48.07506" lon="-4.50049">
        <ele>84.721231</ele>
        <time>2021-09-30T13:20:43.695Z</time>
      </trkpt>
      <trkpt lat="48.07512" lon="-4.50174">
        <ele>82.971037</ele>
        <time>2021-09-30T13:20:54.385Z</time>
      </trkpt>
      <trkpt lat="48.07514" lon="-4.50271">
        <ele>81.74028</ele>
        <time>2021-09-30T13:21:02.680Z</time>
      </trkpt>
      <trkpt lat="48.07491" lon="-4.50398">
        <ele>80.440182</ele>
        <time>2021-09-30T13:21:14.073Z</time>
      </trkpt>
      <trkpt lat="48.07487" lon="-4.50437">
        <ele>80.04231</ele>
        <time>2021-09-30T13:21:17.720Z</time>
      </trkpt>
      <trkpt lat="48.07494" lon="-4.50581">
        <ele>80.021931</ele>
        <time>2021-09-30T13:21:33.542Z</time>
      </trkpt>
      <trkpt lat="48.07489" lon="-4.50602">
        <ele>80.212134</ele>
        <time>2021-09-30T13:21:36.748Z</time>
      </trkpt>
      <trkpt lat="48.07494" lon="-4.50617">
        <ele>80.352752</ele>
        <time>2021-09-30T13:21:39.013Z</time>
      </trkpt>
      <trkpt lat="48.07497" lon="-4.50629">
        <ele>80.456317</ele>
        <time>2021-09-30T13:21:40.678Z</time>
      </trkpt>
      <trkpt lat="48.07506" lon="-4.50689">
        <ele>80.967727</ele>
        <time>2021-09-30T13:21:49.745Z</time>
      </trkpt>
      <trkpt lat="48.07552" lon="-4.50873">
        <ele>83.237913</ele>
        <time>2021-09-30T13:22:22.062Z</time>
      </trkpt>
      <trkpt lat="48.07557" lon="-4.50896">
        <ele>83.561734</ele>
        <time>2021-09-30T13:22:26.183Z</time>
      </trkpt>
      <trkpt lat="48.07558" lon="-4.50916">
        <ele>83.844094</ele>
        <time>2021-09-30T13:22:29.831Z</time>
      </trkpt>
      <trkpt lat="48.07558" lon="-4.50943">
        <ele>84.211178</ele>
        <time>2021-09-30T13:22:34.512Z</time>
      </trkpt>
      <trkpt lat="48.07557" lon="-4.50971">
        <ele>84.594686</ele>
        <time>2021-09-30T13:22:39.441Z</time>
      </trkpt>
      <trkpt lat="48.07556" lon="-4.51053">
        <ele>85.144029</ele>
        <time>2021-09-30T13:22:50.614Z</time>
      </trkpt>
      <trkpt lat="48.07555" lon="-4.5115">
        <ele>84.642621</ele>
        <time>2021-09-30T13:23:00.107Z</time>
      </trkpt>
      <trkpt lat="48.07556" lon="-4.51181">
        <ele>84.477047</ele>
        <time>2021-09-30T13:23:03.167Z</time>
      </trkpt>
      <trkpt lat="48.07518" lon="-4.51183">
        <ele>84.183925</ele>
        <time>2021-09-30T13:23:08.003Z</time>
      </trkpt>
      <trkpt lat="48.07511" lon="-4.5119">
        <ele>84.118408</ele>
        <time>2021-09-30T13:23:08.966Z</time>
      </trkpt>
      <trkpt lat="48.07472" lon="-4.51297">
        <ele>82.199507</ele>
        <time>2021-09-30T13:23:18.581Z</time>
      </trkpt>
      <trkpt lat="48.07444" lon="-4.51357">
        <ele>80.647809</ele>
        <time>2021-09-30T13:23:23.968Z</time>
      </trkpt>
      <trkpt lat="48.07383" lon="-4.51483">
        <ele>77.831831</ele>
        <time>2021-09-30T13:23:35.835Z</time>
      </trkpt>
      <trkpt lat="48.07339" lon="-4.51555">
        <ele>76.968021</ele>
        <time>2021-09-30T13:23:44.084Z</time>
      </trkpt>
      <trkpt lat="48.07233" lon="-4.51685">
        <ele>76.183486</ele>
        <time>2021-09-30T13:24:04.133Z</time>
      </trkpt>
      <trkpt lat="48.07175" lon="-4.51776">
        <ele>76.843027</ele>
        <time>2021-09-30T13:24:20.718Z</time>
      </trkpt>
      <trkpt lat="48.07084" lon="-4.51968">
        <ele>78.323322</ele>
        <time>2021-09-30T13:24:54.155Z</time>
      </trkpt>
      <trkpt lat="48.07067" lon="-4.51987">
        <ele>78.544876</ele>
        <time>2021-09-30T13:24:58.733Z</time>
      </trkpt>
      <trkpt lat="48.06901" lon="-4.52322">
        <ele>78.86701</ele>
        <time>2021-09-30T13:25:41.455Z</time>
      </trkpt>
      <trkpt lat="48.06897" lon="-4.52329">
        <ele>78.839663</ele>
        <time>2021-09-30T13:25:42.357Z</time>
      </trkpt>
      <trkpt lat="48.06843" lon="-4.52446">
        <ele>78.428211</ele>
        <time>2021-09-30T13:25:56.083Z</time>
      </trkpt>
      <trkpt lat="48.06777" lon="-4.52648">
        <ele>76.539831</ele>
        <time>2021-09-30T13:26:16.071Z</time>
      </trkpt>
      <trkpt lat="48.06735" lon="-4.52788">
        <ele>75.144</ele>
        <time>2021-09-30T13:26:28.613Z</time>
      </trkpt>
      <trkpt lat="48.06721" lon="-4.52847">
        <ele>74.621613</ele>
        <time>2021-09-30T13:26:33.935Z</time>
      </trkpt>
      <trkpt lat="48.0672" lon="-4.52921">
        <ele>74.002152</ele>
        <time>2021-09-30T13:26:40.404Z</time>
      </trkpt>
      <trkpt lat="48.06741" lon="-4.52926">
        <ele>73.740082</ele>
        <time>2021-09-30T13:26:43.473Z</time>
      </trkpt>
      <trkpt lat="48.06817" lon="-4.52948">
        <ele>74.066012</ele>
        <time>2021-09-30T13:26:55.351Z</time>
      </trkpt>
      <trkpt lat="48.06873" lon="-4.52952">
        <ele>74.68784</ele>
        <time>2021-09-30T13:27:07.119Z</time>
      </trkpt>
      <trkpt lat="48.06911" lon="-4.52943">
        <ele>75.126266</ele>
        <time>2021-09-30T13:27:16.421Z</time>
      </trkpt>
      <trkpt lat="48.06951" lon="-4.52934">
        <ele>75.607758</ele>
        <time>2021-09-30T13:27:25.688Z</time>
      </trkpt>
      <trkpt lat="48.07029" lon="-4.52912">
        <ele>76.717565</ele>
        <time>2021-09-30T13:27:43.092Z</time>
      </trkpt>
      <trkpt lat="48.0707" lon="-4.5304">
        <ele>78.001669</ele>
        <time>2021-09-30T13:28:02.773Z</time>
      </trkpt>
      <trkpt lat="48.07083" lon="-4.53105">
        <ele>78.000818</ele>
        <time>2021-09-30T13:28:11.416Z</time>
      </trkpt>
      <trkpt lat="48.07094" lon="-4.53203">
        <ele>77.999577</ele>
        <time>2021-09-30T13:28:22.122Z</time>
      </trkpt>
      <trkpt lat="48.07084" lon="-4.53227">
        <ele>77.999219</ele>
        <time>2021-09-30T13:28:25.055Z</time>
      </trkpt>
      <trkpt lat="48.07021" lon="-4.5326">
        <ele>77.778937</ele>
        <time>2021-09-30T13:28:35.009Z</time>
      </trkpt>
      <trkpt lat="48.0709" lon="-4.53448">
        <ele>76.302488</ele>
        <time>2021-09-30T13:29:08.415Z</time>
      </trkpt>
      <trkpt lat="48.07083" lon="-4.53563">
        <ele>75.794861</ele>
        <time>2021-09-30T13:29:25.941Z</time>
      </trkpt>
      <trkpt lat="48.07075" lon="-4.5357">
        <ele>75.738196</ele>
        <time>2021-09-30T13:29:28.322Z</time>
      </trkpt>
      <trkpt lat="48.07054" lon="-4.53568">
        <ele>75.619515</ele>
        <time>2021-09-30T13:29:33.280Z</time>
      </trkpt>
      <trkpt lat="48.06976" lon="-4.5354">
        <ele>75.164355</ele>
        <time>2021-09-30T13:29:52.998Z</time>
      </trkpt>
      <trkpt lat="48.06963" lon="-4.53555">
        <ele>75.213383</ele>
        <time>2021-09-30T13:29:58.006Z</time>
      </trkpt>
      <trkpt lat="48.06929" lon="-4.53685">
        <ele>76.067542</ele>
        <time>2021-09-30T13:30:24.658Z</time>
      </trkpt>
      <trkpt lat="48.06902" lon="-4.53759">
        <ele>76.582279</ele>
        <time>2021-09-30T13:30:42.255Z</time>
      </trkpt>
      <trkpt lat="48.06947" lon="-4.53816">
        <ele>77.048735</ele>
        <time>2021-09-30T13:30:54.376Z</time>
      </trkpt>
      <trkpt lat="48.0711" lon="-4.5393">
        <ele>78.264429</ele>
        <time>2021-09-30T13:31:27.785Z</time>
      </trkpt>
      <trkpt lat="48.07055" lon="-4.54076">
        <ele>78.763988</ele>
        <time>2021-09-30T13:31:47.578Z</time>
      </trkpt>
      <trkpt lat="48.06975" lon="-4.54356">
        <ele>78.160235</ele>
        <time>2021-09-30T13:32:18.289Z</time>
      </trkpt>
      <trkpt lat="48.07" lon="-4.54382">
        <ele>77.475367</ele>
        <time>2021-09-30T13:32:22.010Z</time>
      </trkpt>
      <trkpt lat="48.07096" lon="-4.54455">
        <ele>74.508944</ele>
        <time>2021-09-30T13:32:34.544Z</time>
      </trkpt>
      <trkpt lat="48.07191" lon="-4.54461">
        <ele>71.946749</ele>
        <time>2021-09-30T13:32:45.297Z</time>
      </trkpt>
      <trkpt lat="48.07218" lon="-4.54471">
        <ele>71.206465</ele>
        <time>2021-09-30T13:32:48.538Z</time>
      </trkpt>
      <trkpt lat="48.07296" lon="-4.5464">
        <ele>67.594711</ele>
        <time>2021-09-30T13:33:05.175Z</time>
      </trkpt>
      <trkpt lat="48.07338" lon="-4.54664">
        <ele>66.447319</ele>
        <time>2021-09-30T13:33:10.887Z</time>
      </trkpt>
      <trkpt lat="48.07399" lon="-4.54732">
        <ele>64.540824</ele>
        <time>2021-09-30T13:33:19.870Z</time>
      </trkpt>
      <trkpt lat="48.07402" lon="-4.54736">
        <ele>64.444441</ele>
        <time>2021-09-30T13:33:20.315Z</time>
      </trkpt>
      <trkpt lat="48.07404" lon="-4.54765">
        <ele>63.952224</ele>
        <time>2021-09-30T13:33:22.709Z</time>
      </trkpt>
      <trkpt lat="48.07403" lon="-4.54766">
        <ele>63.925749</ele>
        <time>2021-09-30T13:33:22.839Z</time>
      </trkpt>
      <trkpt lat="48.07386" lon="-4.54806">
        <ele>62.643386</ele>
        <time>2021-09-30T13:33:26.516Z</time>
      </trkpt>
      <trkpt lat="48.07385" lon="-4.5481">
        <ele>62.531905</ele>
        <time>2021-09-30T13:33:26.788Z</time>
      </trkpt>
      <trkpt lat="48.07384" lon="-4.54872">
        <ele>60.806489</ele>
        <time>2021-09-30T13:33:31.503Z</time>
      </trkpt>
      <trkpt lat="48.07384" lon="-4.54872">
        <ele>60.806489</ele>
        <time>2021-09-30T13:33:31.611Z</time>
      </trkpt>
      <trkpt lat="48.07384" lon="-4.54872">
        <ele>60.806489</ele>
        <time>2021-09-30T13:33:31.611Z</time>
      </trkpt>
      <trkpt lat="48.0737" lon="-4.54886">
        <ele>60.100589</ele>
        <time>2021-09-30T13:33:38.862Z</time>
      </trkpt>
      <trkpt lat="48.07355" lon="-4.54928">
        <ele>58.770747</ele>
        <time>2021-09-30T13:33:44.954Z</time>
      </trkpt>
      <trkpt lat="48.07354" lon="-4.54938">
        <ele>58.496665</ele>
        <time>2021-09-30T13:33:46.409Z</time>
      </trkpt>
      <trkpt lat="48.07354" lon="-4.54942">
        <ele>58.398388</ele>
        <time>2021-09-30T13:33:46.901Z</time>
      </trkpt>
      <trkpt lat="48.07366" lon="-4.54976">
        <ele>57.333812</ele>
        <time>2021-09-30T13:33:51.670Z</time>
      </trkpt>
      <trkpt lat="48.07365" lon="-4.54978">
        <ele>57.276724</ele>
        <time>2021-09-30T13:33:51.957Z</time>
      </trkpt>
      <trkpt lat="48.07363" lon="-4.54989">
        <ele>56.937676</ele>
        <time>2021-09-30T13:33:53.721Z</time>
      </trkpt>
      <trkpt lat="48.07353" lon="-4.55025">
        <ele>55.884123</ele>
        <time>2021-09-30T13:33:58.529Z</time>
      </trkpt>
      <trkpt lat="48.07329" lon="-4.55104">
        <ele>53.54478</ele>
        <time>2021-09-30T13:34:10.005Z</time>
      </trkpt>
      <trkpt lat="48.07318" lon="-4.55116">
        <ele>53.004269</ele>
        <time>2021-09-30T13:34:12.440Z</time>
      </trkpt>
      <trkpt lat="48.07299" lon="-4.55117">
        <ele>52.265033</ele>
        <time>2021-09-30T13:34:16.235Z</time>
      </trkpt>
      <trkpt lat="48.07299" lon="-4.55124">
        <ele>52.072234</ele>
        <time>2021-09-30T13:34:17.269Z</time>
      </trkpt>
      <trkpt lat="48.07301" lon="-4.55135">
        <ele>51.771039</ele>
        <time>2021-09-30T13:34:18.667Z</time>
      </trkpt>
      <trkpt lat="48.07323" lon="-4.55151">
        <ele>50.804924</ele>
        <time>2021-09-30T13:34:23.637Z</time>
      </trkpt>
      <trkpt lat="48.07327" lon="-4.5516">
        <ele>50.516087</ele>
        <time>2021-09-30T13:34:25.153Z</time>
      </trkpt>
      <trkpt lat="48.07328" lon="-4.55164">
        <ele>50.39168</ele>
        <time>2021-09-30T13:34:25.728Z</time>
      </trkpt>
      <trkpt lat="48.07332" lon="-4.55183">
        <ele>49.864665</ele>
        <time>2021-09-30T13:34:28.485Z</time>
      </trkpt>
      <trkpt lat="48.07335" lon="-4.55201">
        <ele>49.379429</ele>
        <time>2021-09-30T13:34:31.105Z</time>
      </trkpt>
      <trkpt lat="48.07335" lon="-4.55205">
        <ele>49.275049</ele>
        <time>2021-09-30T13:34:31.826Z</time>
      </trkpt>
      <trkpt lat="48.07337" lon="-4.55243">
        <ele>49.367886</ele>
        <time>2021-09-30T13:34:37.490Z</time>
      </trkpt>
      <trkpt lat="48.07337" lon="-4.55244">
        <ele>49.374311</ele>
        <time>2021-09-30T13:34:37.631Z</time>
      </trkpt>
      <trkpt lat="48.07347" lon="-4.5526">
        <ele>49.475324</ele>
        <time>2021-09-30T13:34:41.534Z</time>
      </trkpt>
      <trkpt lat="48.07354" lon="-4.55273">
        <ele>49.557179</ele>
        <time>2021-09-30T13:34:43.866Z</time>
      </trkpt>
      <trkpt lat="48.07354" lon="-4.55273">
        <ele>49.561582</ele>
        <time>2021-09-30T13:34:44.253Z</time>
      </trkpt>
      <trkpt lat="48.07347" lon="-4.55289">
        <ele>49.652206</ele>
        <time>2021-09-30T13:34:46.036Z</time>
      </trkpt>
      <trkpt lat="48.07343" lon="-4.55298">
        <ele>49.701493</ele>
        <time>2021-09-30T13:34:47.807Z</time>
      </trkpt>
      <trkpt lat="48.07343" lon="-4.55312">
        <ele>49.770421</ele>
        <time>2021-09-30T13:34:49.379Z</time>
      </trkpt>
      <trkpt lat="48.07399" lon="-4.55638">
        <ele>53.450624</ele>
        <time>2021-09-30T13:35:46.229Z</time>
      </trkpt>
      <trkpt lat="48.07427" lon="-4.55552">
        <ele>54.976211</ele>
        <time>2021-09-30T13:36:01.865Z</time>
      </trkpt>
      <trkpt lat="48.07433" lon="-4.55551">
        <ele>55.123277</ele>
        <time>2021-09-30T13:36:04.193Z</time>
      </trkpt>
      <trkpt lat="48.07535" lon="-4.55636">
        <ele>57.911258</ele>
        <time>2021-09-30T13:36:31.495Z</time>
      </trkpt>
      <trkpt lat="48.07543" lon="-4.55725">
        <ele>59.495857</ele>
        <time>2021-09-30T13:36:49.307Z</time>
      </trkpt>
      <trkpt lat="48.07552" lon="-4.5577">
        <ele>60.569002</ele>
        <time>2021-09-30T13:36:58.335Z</time>
      </trkpt>
      <trkpt lat="48.07576" lon="-4.55847">
        <ele>62.553906</ele>
        <time>2021-09-30T13:37:15.613Z</time>
      </trkpt>
      <trkpt lat="48.07585" lon="-4.55886">
        <ele>63.508676</ele>
        <time>2021-09-30T13:37:24.645Z</time>
      </trkpt>
      <trkpt lat="48.07577" lon="-4.56053">
        <ele>66.825323</ele>
        <time>2021-09-30T13:37:58.321Z</time>
      </trkpt>
      <trkpt lat="48.07564" lon="-4.56087">
        <ele>67.48563</ele>
        <time>2021-09-30T13:38:05.791Z</time>
      </trkpt>
      <trkpt lat="48.07563" lon="-4.56102">
        <ele>67.734233</ele>
        <time>2021-09-30T13:38:08.270Z</time>
      </trkpt>
      <trkpt lat="48.07573" lon="-4.56189">
        <ele>69.210754</ele>
        <time>2021-09-30T13:38:21.895Z</time>
      </trkpt>
      <trkpt lat="48.07594" lon="-4.56233">
        <ele>70.015449</ele>
        <time>2021-09-30T13:38:30.010Z</time>
      </trkpt>
      <trkpt lat="48.07591" lon="-4.56252">
        <ele>70.221773</ele>
        <time>2021-09-30T13:38:32.742Z</time>
      </trkpt>
      <trkpt lat="48.07575" lon="-4.56296">
        <ele>70.763466</ele>
        <time>2021-09-30T13:38:40.030Z</time>
      </trkpt>
      <trkpt lat="48.07553" lon="-4.56396">
        <ele>71.890047</ele>
        <time>2021-09-30T13:38:55.088Z</time>
      </trkpt>
      <trkpt lat="48.07555" lon="-4.56453">
        <ele>72.508831</ele>
        <time>2021-09-30T13:39:04.211Z</time>
      </trkpt>
      <trkpt lat="48.07537" lon="-4.56534">
        <ele>73.743564</ele>
        <time>2021-09-30T13:39:18.426Z</time>
      </trkpt>
      <trkpt lat="48.0752" lon="-4.5665">
        <ele>75.600636</ele>
        <time>2021-09-30T13:39:39.625Z</time>
      </trkpt>
      <trkpt lat="48.07507" lon="-4.56753">
        <ele>77.04302</ele>
        <time>2021-09-30T13:39:57.640Z</time>
      </trkpt>
      <trkpt lat="48.07495" lon="-4.56769">
        <ele>77.179962</ele>
        <time>2021-09-30T13:40:01.567Z</time>
      </trkpt>
      <trkpt lat="48.07468" lon="-4.56774">
        <ele>77.416719</ele>
        <time>2021-09-30T13:40:07.783Z</time>
      </trkpt>
      <trkpt lat="48.07453" lon="-4.56785">
        <ele>77.564179</ele>
        <time>2021-09-30T13:40:11.896Z</time>
      </trkpt>
      <trkpt lat="48.07499" lon="-4.56828">
        <ele>78.037197</ele>
        <time>2021-09-30T13:40:21.987Z</time>
      </trkpt>
      <trkpt lat="48.0751" lon="-4.56853">
        <ele>78.211291</ele>
        <time>2021-09-30T13:40:25.786Z</time>
      </trkpt>
      <trkpt lat="48.07523" lon="-4.57119">
        <ele>77.251415</ele>
        <time>2021-09-30T13:40:51.485Z</time>
      </trkpt>
      <trkpt lat="48.07526" lon="-4.57182">
        <ele>76.936928</ele>
        <time>2021-09-30T13:40:57.521Z</time>
      </trkpt>
      <trkpt lat="48.07535" lon="-4.5725">
        <ele>76.758014</ele>
        <time>2021-09-30T13:41:04.361Z</time>
      </trkpt>
      <trkpt lat="48.07544" lon="-4.5728">
        <ele>76.674635</ele>
        <time>2021-09-30T13:41:07.515Z</time>
      </trkpt>
      <trkpt lat="48.07507" lon="-4.57288">
        <ele>76.530361</ele>
        <time>2021-09-30T13:41:13.194Z</time>
      </trkpt>
      <trkpt lat="48.07465" lon="-4.57278">
        <ele>76.366565</ele>
        <time>2021-09-30T13:41:19.940Z</time>
      </trkpt>
      <trkpt lat="48.07384" lon="-4.57334">
        <ele>77.058452</ele>
        <time>2021-09-30T13:41:35.918Z</time>
      </trkpt>
      <trkpt lat="48.0733" lon="-4.57391">
        <ele>77.830069</ele>
        <time>2021-09-30T13:41:49.790Z</time>
      </trkpt>
      <trkpt lat="48.07284" lon="-4.57379">
        <ele>78.383989</ele>
        <time>2021-09-30T13:42:01.446Z</time>
      </trkpt>
      <trkpt lat="48.0727" lon="-4.57381">
        <ele>78.701394</ele>
        <time>2021-09-30T13:42:04.981Z</time>
      </trkpt>
      <trkpt lat="48.07234" lon="-4.57418">
        <ele>79.733411</ele>
        <time>2021-09-30T13:42:16.213Z</time>
      </trkpt>
      <trkpt lat="48.07203" lon="-4.5733">
        <ele>81.294067</ele>
        <time>2021-09-30T13:42:33.672Z</time>
      </trkpt>
      <trkpt lat="48.07163" lon="-4.57264">
        <ele>82.66152</ele>
        <time>2021-09-30T13:42:49.466Z</time>
      </trkpt>
      <trkpt lat="48.06959" lon="-4.57022">
        <ele>87.300481</ele>
        <time>2021-09-30T13:43:51.747Z</time>
      </trkpt>
      <trkpt lat="48.06941" lon="-4.57044">
        <ele>87.59185</ele>
        <time>2021-09-30T13:43:56.633Z</time>
      </trkpt>
      <trkpt lat="48.06889" lon="-4.57145">
        <ele>88.461987</ele>
        <time>2021-09-30T13:44:12.594Z</time>
      </trkpt>
      <trkpt lat="48.06822" lon="-4.57234">
        <ele>88.241573</ele>
        <time>2021-09-30T13:44:35.398Z</time>
      </trkpt>
      <trkpt lat="48.06805" lon="-4.57258">
        <ele>88.184527</ele>
        <time>2021-09-30T13:44:41.045Z</time>
      </trkpt>
      <trkpt lat="48.06834" lon="-4.57358">
        <ele>87.877218</ele>
        <time>2021-09-30T13:44:58.150Z</time>
      </trkpt>
      <trkpt lat="48.06874" lon="-4.57593">
        <ele>86.314468</ele>
        <time>2021-09-30T13:45:36.116Z</time>
      </trkpt>
      <trkpt lat="48.06907" lon="-4.57712">
        <ele>85.625064</ele>
        <time>2021-09-30T13:45:56.492Z</time>
      </trkpt>
      <trkpt lat="48.06965" lon="-4.57921">
        <ele>84.456767</ele>
        <time>2021-09-30T13:46:32.609Z</time>
      </trkpt>
      <trkpt lat="48.06948" lon="-4.58053">
        <ele>83.795019</ele>
        <time>2021-09-30T13:46:54.191Z</time>
      </trkpt>
      <trkpt lat="48.06983" lon="-4.58039">
        <ele>83.483297</ele>
        <time>2021-09-30T13:46:59.256Z</time>
      </trkpt>
      <trkpt lat="48.06999" lon="-4.58047">
        <ele>83.199504</ele>
        <time>2021-09-30T13:47:01.522Z</time>
      </trkpt>
      <trkpt lat="48.07042" lon="-4.58051">
        <ele>82.468377</ele>
        <time>2021-09-30T13:47:11.300Z</time>
      </trkpt>
      <trkpt lat="48.07047" lon="-4.58057">
        <ele>82.358807</ele>
        <time>2021-09-30T13:47:12.753Z</time>
      </trkpt>
      <trkpt lat="48.07051" lon="-4.58066">
        <ele>82.234096</ele>
        <time>2021-09-30T13:47:14.408Z</time>
      </trkpt>
      <trkpt lat="48.07046" lon="-4.58142">
        <ele>81.361878</ele>
        <time>2021-09-30T13:47:25.754Z</time>
      </trkpt>
      <trkpt lat="48.07054" lon="-4.58178">
        <ele>80.930803</ele>
        <time>2021-09-30T13:47:31.239Z</time>
      </trkpt>
      <trkpt lat="48.07124" lon="-4.5831">
        <ele>78.101953</ele>
        <time>2021-09-30T13:47:55.024Z</time>
      </trkpt>
      <trkpt lat="48.07301" lon="-4.58278">
        <ele>73.333989</ele>
        <time>2021-09-30T13:48:32.401Z</time>
      </trkpt>
      <trkpt lat="48.07359" lon="-4.58288">
        <ele>71.813848</ele>
        <time>2021-09-30T13:48:44.912Z</time>
      </trkpt>
      <trkpt lat="48.07372" lon="-4.58309">
        <ele>71.318933</ele>
        <time>2021-09-30T13:48:48.976Z</time>
      </trkpt>
      <trkpt lat="48.07388" lon="-4.58369">
        <ele>70.48562</ele>
        <time>2021-09-30T13:48:58.417Z</time>
      </trkpt>
      <trkpt lat="48.07383" lon="-4.58429">
        <ele>69.874689</ele>
        <time>2021-09-30T13:49:07.460Z</time>
      </trkpt>
      <trkpt lat="48.07371" lon="-4.58447">
        <ele>69.620416</ele>
        <time>2021-09-30T13:49:11.127Z</time>
      </trkpt>
      <trkpt lat="48.07383" lon="-4.58449">
        <ele>69.437052</ele>
        <time>2021-09-30T13:49:12.749Z</time>
      </trkpt>
      <trkpt lat="48.07401" lon="-4.5844">
        <ele>69.156374</ele>
        <time>2021-09-30T13:49:15.138Z</time>
      </trkpt>
      <trkpt lat="48.07416" lon="-4.58437">
        <ele>68.923687</ele>
        <time>2021-09-30T13:49:17.120Z</time>
      </trkpt>
      <trkpt lat="48.07446" lon="-4.58449">
        <ele>68.458091</ele>
        <time>2021-09-30T13:49:21.143Z</time>
      </trkpt>
      <trkpt lat="48.07516" lon="-4.58499">
        <ele>67.968264</ele>
        <time>2021-09-30T13:49:31.821Z</time>
      </trkpt>
      <trkpt lat="48.07597" lon="-4.58638">
        <ele>67.582787</ele>
        <time>2021-09-30T13:49:50.560Z</time>
      </trkpt>
      <trkpt lat="48.07638" lon="-4.58709">
        <ele>67.578881</ele>
        <time>2021-09-30T13:50:00.830Z</time>
      </trkpt>
      <trkpt lat="48.07577" lon="-4.58822">
        <ele>67.572899</ele>
        <time>2021-09-30T13:50:16.769Z</time>
      </trkpt>
      <trkpt lat="48.07516" lon="-4.589">
        <ele>67.373631</ele>
        <time>2021-09-30T13:50:29.116Z</time>
      </trkpt>
      <trkpt lat="48.07484" lon="-4.58912">
        <ele>67.266942</ele>
        <time>2021-09-30T13:50:34.003Z</time>
      </trkpt>
      <trkpt lat="48.07326" lon="-4.58945">
        <ele>67.601106</ele>
        <time>2021-09-30T13:50:58.939Z</time>
      </trkpt>
      <trkpt lat="48.07303" lon="-4.58946">
        <ele>67.784405</ele>
        <time>2021-09-30T13:51:03.060Z</time>
      </trkpt>
      <trkpt lat="48.07258" lon="-4.58934">
        <ele>68.160471</ele>
        <time>2021-09-30T13:51:12.181Z</time>
      </trkpt>
      <trkpt lat="48.0725" lon="-4.5893">
        <ele>68.235727</ele>
        <time>2021-09-30T13:51:14.652Z</time>
      </trkpt>
      <trkpt lat="48.0722" lon="-4.58917">
        <ele>68.538071</ele>
        <time>2021-09-30T13:51:22.040Z</time>
      </trkpt>
      <trkpt lat="48.07142" lon="-4.58854">
        <ele>70.950982</ele>
        <time>2021-09-30T13:51:47.346Z</time>
      </trkpt>
      <trkpt lat="48.07116" lon="-4.58851">
        <ele>71.67299</ele>
        <time>2021-09-30T13:51:55.323Z</time>
      </trkpt>
      <trkpt lat="48.07058" lon="-4.58865">
        <ele>73.264918</ele>
        <time>2021-09-30T13:52:11.232Z</time>
      </trkpt>
      <trkpt lat="48.06758" lon="-4.59035">
        <ele>79.226495</ele>
        <time>2021-09-30T13:53:26.971Z</time>
      </trkpt>
      <trkpt lat="48.06727" lon="-4.59034">
        <ele>79.748077</ele>
        <time>2021-09-30T13:53:33.644Z</time>
      </trkpt>
      <trkpt lat="48.06617" lon="-4.5903">
        <ele>80.93412</ele>
        <time>2021-09-30T13:53:56.716Z</time>
      </trkpt>
      <trkpt lat="48.06492" lon="-4.59005">
        <ele>81.840633</ele>
        <time>2021-09-30T13:54:20.800Z</time>
      </trkpt>
      <trkpt lat="48.0647" lon="-4.59134">
        <ele>82.014685</ele>
        <time>2021-09-30T13:54:35.237Z</time>
      </trkpt>
      <trkpt lat="48.06458" lon="-4.5924">
        <ele>81.875511</ele>
        <time>2021-09-30T13:54:45.976Z</time>
      </trkpt>
      <trkpt lat="48.06427" lon="-4.59616">
        <ele>79.069275</ele>
        <time>2021-09-30T13:55:19.859Z</time>
      </trkpt>
      <trkpt lat="48.06425" lon="-4.59712">
        <ele>78.146481</ele>
        <time>2021-09-30T13:55:27.885Z</time>
      </trkpt>
      <trkpt lat="48.06422" lon="-4.59777">
        <ele>77.431883</ele>
        <time>2021-09-30T13:55:33.305Z</time>
      </trkpt>
      <trkpt lat="48.06388" lon="-4.60253">
        <ele>71.988313</ele>
        <time>2021-09-30T13:56:13.754Z</time>
      </trkpt>
      <trkpt lat="48.06383" lon="-4.60362">
        <ele>71.302486</ele>
        <time>2021-09-30T13:56:23.502Z</time>
      </trkpt>
      <trkpt lat="48.0638" lon="-4.606">
        <ele>70.320895</ele>
        <time>2021-09-30T13:56:46.089Z</time>
      </trkpt>
      <trkpt lat="48.06379" lon="-4.60624">
        <ele>70.311096</ele>
        <time>2021-09-30T13:56:48.407Z</time>
      </trkpt>
      <trkpt lat="48.06364" lon="-4.60939">
        <ele>70.16106</ele>
        <time>2021-09-30T13:57:22.116Z</time>
      </trkpt>
      <trkpt lat="48.06362" lon="-4.61023">
        <ele>70.112093</ele>
        <time>2021-09-30T13:57:30.840Z</time>
      </trkpt>
      <trkpt lat="48.06358" lon="-4.61316">
        <ele>68.68769</ele>
        <time>2021-09-30T13:57:58.172Z</time>
      </trkpt>
      <trkpt lat="48.06349" lon="-4.61576">
        <ele>66.026915</ele>
        <time>2021-09-30T13:58:20.143Z</time>
      </trkpt>
      <trkpt lat="48.06348" lon="-4.61596">
        <ele>65.806581</ele>
        <time>2021-09-30T13:58:21.776Z</time>
      </trkpt>
      <trkpt lat="48.06338" lon="-4.61894">
        <ele>63.5214</ele>
        <time>2021-09-30T13:58:47.663Z</time>
      </trkpt>
      <trkpt lat="48.06328" lon="-4.62005">
        <ele>64.562078</ele>
        <time>2021-09-30T13:59:01.960Z</time>
      </trkpt>
      <trkpt lat="48.06313" lon="-4.62142">
        <ele>65.838579</ele>
        <time>2021-09-30T13:59:24.903Z</time>
      </trkpt>
      <trkpt lat="48.06307" lon="-4.62196">
        <ele>66.494736</ele>
        <time>2021-09-30T13:59:34.273Z</time>
      </trkpt>
      <trkpt lat="48.06364" lon="-4.62224">
        <ele>67.599664</ele>
        <time>2021-09-30T13:59:54.116Z</time>
      </trkpt>
      <trkpt lat="48.06381" lon="-4.6227">
        <ele>68.262174</ele>
        <time>2021-09-30T14:00:05.258Z</time>
      </trkpt>
      <trkpt lat="48.06455" lon="-4.62316">
        <ele>69.739387</ele>
        <time>2021-09-30T14:00:30.762Z</time>
      </trkpt>
      <trkpt lat="48.0646" lon="-4.62327">
        <ele>69.89698</ele>
        <time>2021-09-30T14:00:33.566Z</time>
      </trkpt>
      <trkpt lat="48.06515" lon="-4.62366">
        <ele>70.996174</ele>
        <time>2021-09-30T14:00:53.210Z</time>
      </trkpt>
      <trkpt lat="48.06499" lon="-4.62438">
        <ele>71.909199</ele>
        <time>2021-09-30T14:01:05.792Z</time>
      </trkpt>
      <trkpt lat="48.06475" lon="-4.62692">
        <ele>73.967703</ele>
        <time>2021-09-30T14:02:00.697Z</time>
      </trkpt>
      <trkpt lat="48.0648" lon="-4.62696">
        <ele>74.031908</ele>
        <time>2021-09-30T14:02:01.969Z</time>
      </trkpt>
      <trkpt lat="48.06517" lon="-4.62689">
        <ele>74.394836</ele>
        <time>2021-09-30T14:02:11.273Z</time>
      </trkpt>
      <trkpt lat="48.06584" lon="-4.62663">
        <ele>73.288812</ele>
        <time>2021-09-30T14:02:27.448Z</time>
      </trkpt>
      <trkpt lat="48.06626" lon="-4.62665">
        <ele>72.624936</ele>
        <time>2021-09-30T14:02:36.496Z</time>
      </trkpt>
      <trkpt lat="48.06735" lon="-4.62622">
        <ele>70.583116</ele>
        <time>2021-09-30T14:03:00.891Z</time>
      </trkpt>
      <trkpt lat="48.0682" lon="-4.62619">
        <ele>68.731524</ele>
        <time>2021-09-30T14:03:19.348Z</time>
      </trkpt>
      <trkpt lat="48.0683" lon="-4.62623">
        <ele>68.509533</ele>
        <time>2021-09-30T14:03:21.553Z</time>
      </trkpt>
      <trkpt lat="48.0684" lon="-4.62674">
        <ele>67.748134</ele>
        <time>2021-09-30T14:03:29.348Z</time>
      </trkpt>
      <trkpt lat="48.0684" lon="-4.62677">
        <ele>67.697636</ele>
        <time>2021-09-30T14:03:29.792Z</time>
      </trkpt>
      <trkpt lat="48.06841" lon="-4.6275">
        <ele>67.549492</ele>
        <time>2021-09-30T14:03:40.628Z</time>
      </trkpt>
      <trkpt lat="48.0683" lon="-4.62764">
        <ele>67.511226</ele>
        <time>2021-09-30T14:03:44.093Z</time>
      </trkpt>
      <trkpt lat="48.06792" lon="-4.6276">
        <ele>67.413598</ele>
        <time>2021-09-30T14:03:53.411Z</time>
      </trkpt>
      <trkpt lat="48.06725" lon="-4.62845">
        <ele>67.275741</ele>
        <time>2021-09-30T14:04:18.384Z</time>
      </trkpt>
      <trkpt lat="48.06715" lon="-4.6285">
        <ele>67.363341</ele>
        <time>2021-09-30T14:04:21.467Z</time>
      </trkpt>
      <trkpt lat="48.06698" lon="-4.62846">
        <ele>67.508945</ele>
        <time>2021-09-30T14:04:27.137Z</time>
      </trkpt>
      <trkpt lat="48.06657" lon="-4.62837">
        <ele>67.856782</ele>
        <time>2021-09-30T14:04:41.142Z</time>
      </trkpt>
      <trkpt lat="48.06591" lon="-4.62841">
        <ele>68.409463</ele>
        <time>2021-09-30T14:04:58.603Z</time>
      </trkpt>
      <trkpt lat="48.06562" lon="-4.62894">
        <ele>68.711073</ele>
        <time>2021-09-30T14:05:11.846Z</time>
      </trkpt>
      <trkpt lat="48.06561" lon="-4.62917">
        <ele>68.690542</ele>
        <time>2021-09-30T14:05:16.256Z</time>
      </trkpt>
      <trkpt lat="48.06567" lon="-4.62966">
        <ele>68.646027</ele>
        <time>2021-09-30T14:05:24.622Z</time>
      </trkpt>
      <trkpt lat="48.06577" lon="-4.62972">
        <ele>68.63159</ele>
        <time>2021-09-30T14:05:26.720Z</time>
      </trkpt>
      <trkpt lat="48.06593" lon="-4.63014">
        <ele>68.589101</ele>
        <time>2021-09-30T14:05:34.482Z</time>
      </trkpt>
      <trkpt lat="48.06589" lon="-4.63023">
        <ele>68.578781</ele>
        <time>2021-09-30T14:05:36.258Z</time>
      </trkpt>
      <trkpt lat="48.06596" lon="-4.63026">
        <ele>68.568102</ele>
        <time>2021-09-30T14:05:39.044Z</time>
      </trkpt>
      <trkpt lat="48.06591" lon="-4.63047">
        <ele>68.548396</ele>
        <time>2021-09-30T14:05:43.481Z</time>
      </trkpt>
      <trkpt lat="48.06599" lon="-4.63065">
        <ele>68.528872</ele>
        <time>2021-09-30T14:05:46.738Z</time>
      </trkpt>
      <trkpt lat="48.06594" lon="-4.63076">
        <ele>68.518041</ele>
        <time>2021-09-30T14:05:50.223Z</time>
      </trkpt>
      <trkpt lat="48.06608" lon="-4.63078">
        <ele>68.499883</ele>
        <time>2021-09-30T14:05:53.644Z</time>
      </trkpt>
      <trkpt lat="48.06636" lon="-4.63192">
        <ele>69.453299</ele>
        <time>2021-09-30T14:06:13.981Z</time>
      </trkpt>
      <trkpt lat="48.06637" lon="-4.63224">
        <ele>69.748203</ele>
        <time>2021-09-30T14:06:21.875Z</time>
      </trkpt>
      <trkpt lat="48.06627" lon="-4.63247">
        <ele>70.003377</ele>
        <time>2021-09-30T14:06:27.040Z</time>
      </trkpt>
      <trkpt lat="48.0663" lon="-4.63262">
        <ele>70.147538</ele>
        <time>2021-09-30T14:06:31.514Z</time>
      </trkpt>
      <trkpt lat="48.06649" lon="-4.63303">
        <ele>70.617575</ele>
        <time>2021-09-30T14:06:42.910Z</time>
      </trkpt>
      <trkpt lat="48.06652" lon="-4.63344">
        <ele>70.998269</ele>
        <time>2021-09-30T14:06:51.736Z</time>
      </trkpt>
      <trkpt lat="48.06653" lon="-4.63386">
        <ele>71.60362</ele>
        <time>2021-09-30T14:07:02.145Z</time>
      </trkpt>
      <trkpt lat="48.06682" lon="-4.63436">
        <ele>72.55114</ele>
        <time>2021-09-30T14:07:17.493Z</time>
      </trkpt>
      <trkpt lat="48.06689" lon="-4.63614">
        <ele>75.051466</ele>
        <time>2021-09-30T14:07:58.127Z</time>
      </trkpt>
      <trkpt lat="48.06621" lon="-4.63761">
        <ele>76.893371</ele>
        <time>2021-09-30T14:08:35.744Z</time>
      </trkpt>
      <trkpt lat="48.0661" lon="-4.63772">
        <ele>77.097049</ele>
        <time>2021-09-30T14:08:40.227Z</time>
      </trkpt>
      <trkpt lat="48.06581" lon="-4.63926">
        <ele>78.080334</ele>
        <time>2021-09-30T14:09:11.453Z</time>
      </trkpt>
      <trkpt lat="48.06553" lon="-4.64125">
        <ele>78.918386</ele>
        <time>2021-09-30T14:09:47.671Z</time>
      </trkpt>
      <trkpt lat="48.06551" lon="-4.64133">
        <ele>78.955265</ele>
        <time>2021-09-30T14:09:49.293Z</time>
      </trkpt>
      <trkpt lat="48.06517" lon="-4.64261">
        <ele>79.558276</ele>
        <time>2021-09-30T14:10:14.513Z</time>
      </trkpt>
      <trkpt lat="48.06487" lon="-4.64337">
        <ele>79.979415</ele>
        <time>2021-09-30T14:10:32.035Z</time>
      </trkpt>
      <trkpt lat="48.06506" lon="-4.64408">
        <ele>80.632831</ele>
        <time>2021-09-30T14:10:47.531Z</time>
      </trkpt>
      <trkpt lat="48.06504" lon="-4.64443">
        <ele>80.934251</ele>
        <time>2021-09-30T14:10:54.971Z</time>
      </trkpt>
      <trkpt lat="48.06464" lon="-4.64657">
        <ele>82.35083</ele>
        <time>2021-09-30T14:11:40.799Z</time>
      </trkpt>
      <trkpt lat="48.06465" lon="-4.6472">
        <ele>82.46404</ele>
        <time>2021-09-30T14:11:52.510Z</time>
      </trkpt>
      <trkpt lat="48.06459" lon="-4.64787">
        <ele>82.586189</ele>
        <time>2021-09-30T14:12:04.088Z</time>
      </trkpt>
      <trkpt lat="48.06493" lon="-4.64785">
        <ele>82.67724</ele>
        <time>2021-09-30T14:12:12.114Z</time>
      </trkpt>
      <trkpt lat="48.06573" lon="-4.64822">
        <ele>82.022096</ele>
        <time>2021-09-30T14:12:31.656Z</time>
      </trkpt>
      <trkpt lat="48.06637" lon="-4.64835">
        <ele>81.430892</ele>
        <time>2021-09-30T14:12:46.391Z</time>
      </trkpt>
      <trkpt lat="48.06634" lon="-4.6498">
        <ele>80.916907</ele>
        <time>2021-09-30T14:13:09.953Z</time>
      </trkpt>
      <trkpt lat="48.06626" lon="-4.65101">
        <ele>80.728439</ele>
        <time>2021-09-30T14:13:30.356Z</time>
      </trkpt>
      <trkpt lat="48.06618" lon="-4.65161">
        <ele>80.633462</ele>
        <time>2021-09-30T14:13:40.835Z</time>
      </trkpt>
      <trkpt lat="48.06607" lon="-4.65233">
        <ele>80.62415</ele>
        <time>2021-09-30T14:13:53.509Z</time>
      </trkpt>
      <trkpt lat="48.066" lon="-4.65253">
        <ele>80.623132</ele>
        <time>2021-09-30T14:13:57.441Z</time>
      </trkpt>
      <trkpt lat="48.06581" lon="-4.6528">
        <ele>80.62139</ele>
        <time>2021-09-30T14:14:04.051Z</time>
      </trkpt>
      <trkpt lat="48.06553" lon="-4.65358">
        <ele>80.617407</ele>
        <time>2021-09-30T14:14:19.003Z</time>
      </trkpt>
      <trkpt lat="48.0654" lon="-4.65379">
        <ele>80.616106</ele>
        <time>2021-09-30T14:14:23.931Z</time>
      </trkpt>
      <trkpt lat="48.06474" lon="-4.65455">
        <ele>80.609323</ele>
        <time>2021-09-30T14:14:45.214Z</time>
      </trkpt>
      <trkpt lat="48.06439" lon="-4.6546">
        <ele>80.606316</ele>
        <time>2021-09-30T14:14:54.227Z</time>
      </trkpt>
      <trkpt lat="48.06431" lon="-4.65468">
        <ele>80.605504</ele>
        <time>2021-09-30T14:14:56.632Z</time>
      </trkpt>
      <trkpt lat="48.06421" lon="-4.65531">
        <ele>80.601891</ele>
        <time>2021-09-30T14:15:07.467Z</time>
      </trkpt>
      <trkpt lat="48.06431" lon="-4.65599">
        <ele>80.546083</ele>
        <time>2021-09-30T14:15:19.441Z</time>
      </trkpt>
      <trkpt lat="48.06433" lon="-4.65665">
        <ele>80.447216</ele>
        <time>2021-09-30T14:15:30.682Z</time>
      </trkpt>
      <trkpt lat="48.0643" lon="-4.65715">
        <ele>80.373261</ele>
        <time>2021-09-30T14:15:39.074Z</time>
      </trkpt>
      <trkpt lat="48.06425" lon="-4.65726">
        <ele>80.353888</ele>
        <time>2021-09-30T14:15:41.276Z</time>
      </trkpt>
      <trkpt lat="48.0644" lon="-4.65808">
        <ele>80.227363</ele>
        <time>2021-09-30T14:15:49.986Z</time>
      </trkpt>
      <trkpt lat="48.06419" lon="-4.65891">
        <ele>79.517701</ele>
        <time>2021-09-30T14:15:58.875Z</time>
      </trkpt>
      <trkpt lat="48.06401" lon="-4.65934">
        <ele>79.03245</ele>
        <time>2021-09-30T14:16:03.561Z</time>
      </trkpt>
      <trkpt lat="48.06395" lon="-4.65979">
        <ele>78.586535</ele>
        <time>2021-09-30T14:16:07.778Z</time>
      </trkpt>
      <trkpt lat="48.0648" lon="-4.66024">
        <ele>77.042658</ele>
        <time>2021-09-30T14:16:18.951Z</time>
      </trkpt>
      <trkpt lat="48.06501" lon="-4.66047">
        <ele>76.397272</ele>
        <time>2021-09-30T14:16:22.003Z</time>
      </trkpt>
      <trkpt lat="48.06516" lon="-4.66084">
        <ele>75.665567</ele>
        <time>2021-09-30T14:16:25.511Z</time>
      </trkpt>
      <trkpt lat="48.0654" lon="-4.66232">
        <ele>73.134272</ele>
        <time>2021-09-30T14:16:37.578Z</time>
      </trkpt>
      <trkpt lat="48.06555" lon="-4.66279">
        <ele>72.339497</ele>
        <time>2021-09-30T14:16:41.696Z</time>
      </trkpt>
      <trkpt lat="48.0659" lon="-4.66325">
        <ele>71.257978</ele>
        <time>2021-09-30T14:16:47.407Z</time>
      </trkpt>
      <trkpt lat="48.06648" lon="-4.66349">
        <ele>69.879859</ele>
        <time>2021-09-30T14:16:54.634Z</time>
      </trkpt>
      <trkpt lat="48.06644" lon="-4.6642">
        <ele>68.826985</ele>
        <time>2021-09-30T14:17:01.029Z</time>
      </trkpt>
      <trkpt lat="48.06644" lon="-4.66432">
        <ele>68.685348</ele>
        <time>2021-09-30T14:17:02.000Z</time>
      </trkpt>
      <trkpt lat="48.06625" lon="-4.66508">
        <ele>67.675986</ele>
        <time>2021-09-30T14:17:09.059Z</time>
      </trkpt>
      <trkpt lat="48.06587" lon="-4.66536">
        <ele>66.887594</ele>
        <time>2021-09-30T14:17:18.426Z</time>
      </trkpt>
      <trkpt lat="48.06558" lon="-4.66546">
        <ele>66.341254</ele>
        <time>2021-09-30T14:17:25.070Z</time>
      </trkpt>
      <trkpt lat="48.06505" lon="-4.66556">
        <ele>65.573568</ele>
        <time>2021-09-30T14:17:37.242Z</time>
      </trkpt>
      <trkpt lat="48.06498" lon="-4.66566">
        <ele>65.531694</ele>
        <time>2021-09-30T14:17:39.312Z</time>
      </trkpt>
      <trkpt lat="48.06492" lon="-4.66601">
        <ele>65.419569</ele>
        <time>2021-09-30T14:17:44.824Z</time>
      </trkpt>
      <trkpt lat="48.06463" lon="-4.66608">
        <ele>65.281981</ele>
        <time>2021-09-30T14:17:51.634Z</time>
      </trkpt>
      <trkpt lat="48.06388" lon="-4.66561">
        <ele>64.901661</ele>
        <time>2021-09-30T14:18:11.313Z</time>
      </trkpt>
      <trkpt lat="48.06365" lon="-4.66511">
        <ele>65.488621</ele>
        <time>2021-09-30T14:18:24.265Z</time>
      </trkpt>
      <trkpt lat="48.06362" lon="-4.66506">
        <ele>65.615921</ele>
        <time>2021-09-30T14:18:25.420Z</time>
      </trkpt>
      <trkpt lat="48.06354" lon="-4.66495">
        <ele>65.966807</ele>
        <time>2021-09-30T14:18:29.378Z</time>
      </trkpt>
      <trkpt lat="48.06343" lon="-4.665">
        <ele>66.294892</ele>
        <time>2021-09-30T14:18:33.321Z</time>
      </trkpt>
      <trkpt lat="48.06301" lon="-4.6656">
        <ele>68.093705</ele>
        <time>2021-09-30T14:18:55.910Z</time>
      </trkpt>
      <trkpt lat="48.06274" lon="-4.66544">
        <ele>69.004947</ele>
        <time>2021-09-30T14:19:08.108Z</time>
      </trkpt>
      <trkpt lat="48.06265" lon="-4.66501">
        <ele>69.937843</ele>
        <time>2021-09-30T14:19:21.111Z</time>
      </trkpt>
      <trkpt lat="48.06244" lon="-4.66441">
        <ele>71.293085</ele>
        <time>2021-09-30T14:19:36.138Z</time>
      </trkpt>
      <trkpt lat="48.06238" lon="-4.66371">
        <ele>72.678781</ele>
        <time>2021-09-30T14:19:51.412Z</time>
      </trkpt>
      <trkpt lat="48.06182" lon="-4.6639">
        <ele>74.3607</ele>
        <time>2021-09-30T14:20:12.907Z</time>
      </trkpt>
      <trkpt lat="48.06118" lon="-4.66398">
        <ele>75.726086</ele>
        <time>2021-09-30T14:20:32.842Z</time>
      </trkpt>
      <trkpt lat="48.06036" lon="-4.66382">
        <ele>75.934675</ele>
        <time>2021-09-30T14:20:53.875Z</time>
      </trkpt>
      <trkpt lat="48.06012" lon="-4.66303">
        <ele>76.080709</ele>
        <time>2021-09-30T14:21:08.197Z</time>
      </trkpt>
      <trkpt lat="48.05989" lon="-4.66196">
        <ele>76.165958</ele>
        <time>2021-09-30T14:21:27.231Z</time>
      </trkpt>
      <trkpt lat="48.0595" lon="-4.66127">
        <ele>76.206427</ele>
        <time>2021-09-30T14:21:42.999Z</time>
      </trkpt>
      <trkpt lat="48.05936" lon="-4.66109">
        <ele>76.218645</ele>
        <time>2021-09-30T14:21:47.823Z</time>
      </trkpt>
      <trkpt lat="48.05884" lon="-4.66019">
        <ele>76.073919</ele>
        <time>2021-09-30T14:22:08.425Z</time>
      </trkpt>
      <trkpt lat="48.05857" lon="-4.6597">
        <ele>75.85293</ele>
        <time>2021-09-30T14:22:19.398Z</time>
      </trkpt>
      <trkpt lat="48.05829" lon="-4.6592">
        <ele>75.630489</ele>
        <time>2021-09-30T14:22:30.099Z</time>
      </trkpt>
      <trkpt lat="48.05772" lon="-4.6587">
        <ele>75.163878</ele>
        <time>2021-09-30T14:22:45.471Z</time>
      </trkpt>
      <trkpt lat="48.05773" lon="-4.65847">
        <ele>74.780225</ele>
        <time>2021-09-30T14:22:48.774Z</time>
      </trkpt>
      <trkpt lat="48.05785" lon="-4.65806">
        <ele>74.032484</ele>
        <time>2021-09-30T14:22:55.191Z</time>
      </trkpt>
      <trkpt lat="48.05696" lon="-4.65727">
        <ele>71.415872</ele>
        <time>2021-09-30T14:23:16.870Z</time>
      </trkpt>
      <trkpt lat="48.05677" lon="-4.65713">
        <ele>70.885413</ele>
        <time>2021-09-30T14:23:19.262Z</time>
      </trkpt>
      <trkpt lat="48.05647" lon="-4.65676">
        <ele>69.728012</ele>
        <time>2021-09-30T14:23:23.799Z</time>
      </trkpt>
      <trkpt lat="48.05613" lon="-4.65645">
        <ele>68.520368</ele>
        <time>2021-09-30T14:23:28.426Z</time>
      </trkpt>
      <trkpt lat="48.05596" lon="-4.65631">
        <ele>67.948088</ele>
        <time>2021-09-30T14:23:30.615Z</time>
      </trkpt>
      <trkpt lat="48.05557" lon="-4.65676">
        <ele>66.464464</ele>
        <time>2021-09-30T14:23:36.283Z</time>
      </trkpt>
      <trkpt lat="48.05561" lon="-4.65685">
        <ele>66.236501</ele>
        <time>2021-09-30T14:23:37.172Z</time>
      </trkpt>
      <trkpt lat="48.05555" lon="-4.65702">
        <ele>65.848812</ele>
        <time>2021-09-30T14:23:38.630Z</time>
      </trkpt>
      <trkpt lat="48.05518" lon="-4.65727">
        <ele>64.667867</ele>
        <time>2021-09-30T14:23:43.474Z</time>
      </trkpt>
      <trkpt lat="48.05507" lon="-4.65749">
        <ele>64.150568</ele>
        <time>2021-09-30T14:23:45.719Z</time>
      </trkpt>
      <trkpt lat="48.05492" lon="-4.65786">
        <ele>63.341391</ele>
        <time>2021-09-30T14:23:51.889Z</time>
      </trkpt>
      <trkpt lat="48.05491" lon="-4.65795">
        <ele>63.161746</ele>
        <time>2021-09-30T14:23:53.336Z</time>
      </trkpt>
      <trkpt lat="48.05501" lon="-4.65811">
        <ele>62.745086</ele>
        <time>2021-09-30T14:23:56.448Z</time>
      </trkpt>
      <trkpt lat="48.05492" lon="-4.65853">
        <ele>61.920178</ele>
        <time>2021-09-30T14:24:02.743Z</time>
      </trkpt>
      <trkpt lat="48.05486" lon="-4.65857">
        <ele>61.734986</ele>
        <time>2021-09-30T14:24:03.979Z</time>
      </trkpt>
      <trkpt lat="48.05478" lon="-4.65829">
        <ele>61.166166</ele>
        <time>2021-09-30T14:24:06.335Z</time>
      </trkpt>
      <trkpt lat="48.05473" lon="-4.6582">
        <ele>60.956067</ele>
        <time>2021-09-30T14:24:07.230Z</time>
      </trkpt>
      <trkpt lat="48.05478" lon="-4.65829">
        <ele>60.745968</ele>
        <time>2021-09-30T14:24:08.022Z</time>
      </trkpt>
      <trkpt lat="48.05486" lon="-4.65857">
        <ele>60.214308</ele>
        <time>2021-09-30T14:24:10.298Z</time>
      </trkpt>
      <trkpt lat="48.05484" lon="-4.659">
        <ele>59.70901</ele>
        <time>2021-09-30T14:24:13.639Z</time>
      </trkpt>
      <trkpt lat="48.05492" lon="-4.65928">
        <ele>59.354669</ele>
        <time>2021-09-30T14:24:16.085Z</time>
      </trkpt>
      <trkpt lat="48.0547" lon="-4.65966">
        <ele>58.774611</ele>
        <time>2021-09-30T14:24:23.323Z</time>
      </trkpt>
      <trkpt lat="48.05455" lon="-4.66071">
        <ele>57.531438</ele>
        <time>2021-09-30T14:24:39.712Z</time>
      </trkpt>
      <trkpt lat="48.05456" lon="-4.66108">
        <ele>57.233469</ele>
        <time>2021-09-30T14:24:46.314Z</time>
      </trkpt>
      <trkpt lat="48.0547" lon="-4.66195">
        <ele>58.386415</ele>
        <time>2021-09-30T14:25:04.028Z</time>
      </trkpt>
      <trkpt lat="48.05465" lon="-4.66229">
        <ele>58.839035</ele>
        <time>2021-09-30T14:25:11.784Z</time>
      </trkpt>
      <trkpt lat="48.05447" lon="-4.66261">
        <ele>59.375524</ele>
        <time>2021-09-30T14:25:22.157Z</time>
      </trkpt>
      <trkpt lat="48.05385" lon="-4.66346">
        <ele>60.970871</ele>
        <time>2021-09-30T14:25:53.858Z</time>
      </trkpt>
      <trkpt lat="48.05312" lon="-4.66433">
        <ele>62.647642</ele>
        <time>2021-09-30T14:26:26.849Z</time>
      </trkpt>
      <trkpt lat="48.05286" lon="-4.6648">
        <ele>63.369486</ele>
        <time>2021-09-30T14:26:38.654Z</time>
      </trkpt>
      <trkpt lat="48.05253" lon="-4.66593">
        <ele>63.73373</ele>
        <time>2021-09-30T14:26:59.635Z</time>
      </trkpt>
      <trkpt lat="48.05234" lon="-4.66682">
        <ele>63.591055</ele>
        <time>2021-09-30T14:27:15.009Z</time>
      </trkpt>
      <trkpt lat="48.05211" lon="-4.66784">
        <ele>63.353977</ele>
        <time>2021-09-30T14:27:32.657Z</time>
      </trkpt>
      <trkpt lat="48.05209" lon="-4.66859">
        <ele>62.869528</ele>
        <time>2021-09-30T14:27:44.563Z</time>
      </trkpt>
      <trkpt lat="48.05216" lon="-4.66972">
        <ele>62.137878</ele>
        <time>2021-09-30T14:28:01.598Z</time>
      </trkpt>
      <trkpt lat="48.05217" lon="-4.67011">
        <ele>61.884811</ele>
        <time>2021-09-30T14:28:05.062Z</time>
      </trkpt>
      <trkpt lat="48.05206" lon="-4.67048">
        <ele>61.789218</ele>
        <time>2021-09-30T14:28:09.062Z</time>
      </trkpt>
      <trkpt lat="48.05194" lon="-4.67112">
        <ele>62.118382</ele>
        <time>2021-09-30T14:28:16.682Z</time>
      </trkpt>
      <trkpt lat="48.05194" lon="-4.67112">
        <ele>62.118382</ele>
        <time>2021-09-30T14:28:16.695Z</time>
      </trkpt>
      <trkpt lat="48.05192" lon="-4.67147">
        <ele>62.292769</ele>
        <time>2021-09-30T14:28:21.185Z</time>
      </trkpt>
      <trkpt lat="48.05223" lon="-4.67178">
        <ele>62.572412</ele>
        <time>2021-09-30T14:28:28.319Z</time>
      </trkpt>
      <trkpt lat="48.05232" lon="-4.6718">
        <ele>62.641114</ele>
        <time>2021-09-30T14:28:30.515Z</time>
      </trkpt>
      <trkpt lat="48.0532" lon="-4.67206">
        <ele>63.671557</ele>
        <time>2021-09-30T14:28:49.107Z</time>
      </trkpt>
      <trkpt lat="48.05335" lon="-4.67288">
        <ele>64.716352</ele>
        <time>2021-09-30T14:29:05.009Z</time>
      </trkpt>
      <trkpt lat="48.0536" lon="-4.67345">
        <ele>65.54358</ele>
        <time>2021-09-30T14:29:16.814Z</time>
      </trkpt>
      <trkpt lat="48.05402" lon="-4.67439">
        <ele>66.745274</ele>
        <time>2021-09-30T14:29:32.893Z</time>
      </trkpt>
      <trkpt lat="48.05433" lon="-4.67637">
        <ele>68.477794</ele>
        <time>2021-09-30T14:30:02.468Z</time>
      </trkpt>
      <trkpt lat="48.055" lon="-4.67665">
        <ele>69.238945</ele>
        <time>2021-09-30T14:30:19.302Z</time>
      </trkpt>
      <trkpt lat="48.05508" lon="-4.67668">
        <ele>69.324049</ele>
        <time>2021-09-30T14:30:21.803Z</time>
      </trkpt>
      <trkpt lat="48.05648" lon="-4.67706">
        <ele>70.031737</ele>
        <time>2021-09-30T14:30:51.326Z</time>
      </trkpt>
      <trkpt lat="48.05791" lon="-4.67741">
        <ele>67.577594</ele>
        <time>2021-09-30T14:31:10.236Z</time>
      </trkpt>
      <trkpt lat="48.05796" lon="-4.67734">
        <ele>67.438846</ele>
        <time>2021-09-30T14:31:11.028Z</time>
      </trkpt>
      <trkpt lat="48.05804" lon="-4.67685">
        <ele>66.480263</ele>
        <time>2021-09-30T14:31:14.843Z</time>
      </trkpt>
      <trkpt lat="48.05808" lon="-4.67676">
        <ele>66.264238</ele>
        <time>2021-09-30T14:31:16.233Z</time>
      </trkpt>
      <trkpt lat="48.05863" lon="-4.67632">
        <ele>64.475945</ele>
        <time>2021-09-30T14:31:29.048Z</time>
      </trkpt>
      <trkpt lat="48.05907" lon="-4.67641">
        <ele>63.2113</ele>
        <time>2021-09-30T14:31:38.101Z</time>
      </trkpt>
      <trkpt lat="48.0595" lon="-4.67618">
        <ele>62.316276</ele>
        <time>2021-09-30T14:31:47.921Z</time>
      </trkpt>
      <trkpt lat="48.06033" lon="-4.67627">
        <ele>62.438487</ele>
        <time>2021-09-30T14:32:07.816Z</time>
      </trkpt>
      <trkpt lat="48.06036" lon="-4.67643">
        <ele>62.454612</ele>
        <time>2021-09-30T14:32:11.522Z</time>
      </trkpt>
      <trkpt lat="48.06029" lon="-4.67805">
        <ele>63.650109</ele>
        <time>2021-09-30T14:32:46.863Z</time>
      </trkpt>
      <trkpt lat="48.06028" lon="-4.67816">
        <ele>63.868655</ele>
        <time>2021-09-30T14:32:49.612Z</time>
      </trkpt>
      <trkpt lat="48.06003" lon="-4.67924">
        <ele>66.098445</ele>
        <time>2021-09-30T14:33:19.678Z</time>
      </trkpt>
      <trkpt lat="48.05998" lon="-4.6794">
        <ele>66.45112</ele>
        <time>2021-09-30T14:33:23.511Z</time>
      </trkpt>
      <trkpt lat="48.05954" lon="-4.67998">
        <ele>67.969833</ele>
        <time>2021-09-30T14:33:39.814Z</time>
      </trkpt>
      <trkpt lat="48.05908" lon="-4.68039">
        <ele>68.720749</ele>
        <time>2021-09-30T14:33:53.742Z</time>
      </trkpt>
      <trkpt lat="48.05865" lon="-4.68065">
        <ele>69.38328</ele>
        <time>2021-09-30T14:34:04.345Z</time>
      </trkpt>
      <trkpt lat="48.05924" lon="-4.68266">
        <ele>69.946015</ele>
        <time>2021-09-30T14:34:40.557Z</time>
      </trkpt>
      <trkpt lat="48.05929" lon="-4.68335">
        <ele>69.717488</ele>
        <time>2021-09-30T14:34:51.461Z</time>
      </trkpt>
      <trkpt lat="48.05947" lon="-4.68401">
        <ele>69.481822</ele>
        <time>2021-09-30T14:35:03.071Z</time>
      </trkpt>
      <trkpt lat="48.05953" lon="-4.68446">
        <ele>69.648766</ele>
        <time>2021-09-30T14:35:10.630Z</time>
      </trkpt>
      <trkpt lat="48.05963" lon="-4.68472">
        <ele>69.808264</ele>
        <time>2021-09-30T14:35:15.473Z</time>
      </trkpt>
      <trkpt lat="48.05944" lon="-4.68541">
        <ele>70.205174</ele>
        <time>2021-09-30T14:35:29.230Z</time>
      </trkpt>
      <trkpt lat="48.05928" lon="-4.68571">
        <ele>70.408415</ele>
        <time>2021-09-30T14:35:36.892Z</time>
      </trkpt>
      <trkpt lat="48.05948" lon="-4.68598">
        <ele>70.624019</ele>
        <time>2021-09-30T14:35:45.271Z</time>
      </trkpt>
      <trkpt lat="48.05943" lon="-4.68622">
        <ele>70.754803</ele>
        <time>2021-09-30T14:35:51.099Z</time>
      </trkpt>
      <trkpt lat="48.05947" lon="-4.68651">
        <ele>70.955397</ele>
        <time>2021-09-30T14:35:57.314Z</time>
      </trkpt>
      <trkpt lat="48.05949" lon="-4.68673">
        <ele>71.229795</ele>
        <time>2021-09-30T14:36:02.520Z</time>
      </trkpt>
      <trkpt lat="48.05946" lon="-4.68701">
        <ele>71.598273</ele>
        <time>2021-09-30T14:36:09.065Z</time>
      </trkpt>
      <trkpt lat="48.05945" lon="-4.68701">
        <ele>71.621107</ele>
        <time>2021-09-30T14:36:09.871Z</time>
      </trkpt>
      <trkpt lat="48.05936" lon="-4.68691">
        <ele>71.838229</ele>
        <time>2021-09-30T14:36:14.254Z</time>
      </trkpt>
      <trkpt lat="48.05909" lon="-4.68684">
        <ele>72.357991</ele>
        <time>2021-09-30T14:36:23.405Z</time>
      </trkpt>
      <trkpt lat="48.05873" lon="-4.68667">
        <ele>73.064662</ele>
        <time>2021-09-30T14:36:32.254Z</time>
      </trkpt>
      <trkpt lat="48.05777" lon="-4.68642">
        <ele>74.469675</ele>
        <time>2021-09-30T14:36:55.102Z</time>
      </trkpt>
      <trkpt lat="48.05731" lon="-4.6862">
        <ele>74.716743</ele>
        <time>2021-09-30T14:37:04.521Z</time>
      </trkpt>
      <trkpt lat="48.05638" lon="-4.68622">
        <ele>75.183436</ele>
        <time>2021-09-30T14:37:19.320Z</time>
      </trkpt>
      <trkpt lat="48.05628" lon="-4.68622">
        <ele>75.189692</ele>
        <time>2021-09-30T14:37:20.952Z</time>
      </trkpt>
      <trkpt lat="48.0564" lon="-4.68706">
        <ele>74.862014</ele>
        <time>2021-09-30T14:37:29.207Z</time>
      </trkpt>
      <trkpt lat="48.05656" lon="-4.68822">
        <ele>74.408487</ele>
        <time>2021-09-30T14:37:40.472Z</time>
      </trkpt>
      <trkpt lat="48.05672" lon="-4.69004">
        <ele>73.264912</ele>
        <time>2021-09-30T14:37:57.186Z</time>
      </trkpt>
      <trkpt lat="48.05678" lon="-4.69084">
        <ele>72.678738</ele>
        <time>2021-09-30T14:38:04.188Z</time>
      </trkpt>
      <trkpt lat="48.05695" lon="-4.69326">
        <ele>71.191656</ele>
        <time>2021-09-30T14:38:25.758Z</time>
      </trkpt>
      <trkpt lat="48.05704" lon="-4.69499">
        <ele>70.755103</ele>
        <time>2021-09-30T14:38:42.932Z</time>
      </trkpt>
      <trkpt lat="48.05697" lon="-4.69645">
        <ele>70.874269</ele>
        <time>2021-09-30T14:38:59.048Z</time>
      </trkpt>
      <trkpt lat="48.05697" lon="-4.69678">
        <ele>70.900594</ele>
        <time>2021-09-30T14:39:02.737Z</time>
      </trkpt>
      <trkpt lat="48.05753" lon="-4.69976">
        <ele>71.52245</ele>
        <time>2021-09-30T14:39:37.506Z</time>
      </trkpt>
      <trkpt lat="48.05761" lon="-4.69973">
        <ele>71.529084</ele>
        <time>2021-09-30T14:39:38.920Z</time>
      </trkpt>
      <trkpt lat="48.05784" lon="-4.69971">
        <ele>71.546876</ele>
        <time>2021-09-30T14:39:42.957Z</time>
      </trkpt>
      <trkpt lat="48.05808" lon="-4.69981">
        <ele>71.565829</ele>
        <time>2021-09-30T14:39:47.073Z</time>
      </trkpt>
      <trkpt lat="48.05868" lon="-4.70058">
        <ele>71.626257</ele>
        <time>2021-09-30T14:39:59.943Z</time>
      </trkpt>
      <trkpt lat="48.05881" lon="-4.70075">
        <ele>71.63913</ele>
        <time>2021-09-30T14:40:02.630Z</time>
      </trkpt>
      <trkpt lat="48.05896" lon="-4.70111">
        <ele>71.550498</ele>
        <time>2021-09-30T14:40:07.249Z</time>
      </trkpt>
      <trkpt lat="48.05905" lon="-4.70201">
        <ele>71.32914</ele>
        <time>2021-09-30T14:40:16.447Z</time>
      </trkpt>
      <trkpt lat="48.0591" lon="-4.70312">
        <ele>71.05616</ele>
        <time>2021-09-30T14:40:27.814Z</time>
      </trkpt>
      <trkpt lat="48.05933" lon="-4.70361">
        <ele>70.762998</ele>
        <time>2021-09-30T14:40:34.006Z</time>
      </trkpt>
      <trkpt lat="48.05949" lon="-4.70362">
        <ele>70.592</ele>
        <time>2021-09-30T14:40:36.358Z</time>
      </trkpt>
      <trkpt lat="48.05958" lon="-4.70371">
        <ele>70.47624</ele>
        <time>2021-09-30T14:40:37.854Z</time>
      </trkpt>
      <trkpt lat="48.05963" lon="-4.70399">
        <ele>70.264752</ele>
        <time>2021-09-30T14:40:40.612Z</time>
      </trkpt>
      <trkpt lat="48.05967" lon="-4.70402">
        <ele>70.205383</ele>
        <time>2021-09-30T14:40:41.390Z</time>
      </trkpt>
      <trkpt lat="48.06024" lon="-4.70386">
        <ele>69.57431</ele>
        <time>2021-09-30T14:40:49.556Z</time>
      </trkpt>
      <trkpt lat="48.06067" lon="-4.70383">
        <ele>69.103557</ele>
        <time>2021-09-30T14:40:55.517Z</time>
      </trkpt>
      <trkpt lat="48.06061" lon="-4.70436">
        <ele>68.388513</ele>
        <time>2021-09-30T14:41:03.482Z</time>
      </trkpt>
      <trkpt lat="48.06071" lon="-4.70508">
        <ele>67.291168</ele>
        <time>2021-09-30T14:41:14.177Z</time>
      </trkpt>
      <trkpt lat="48.06066" lon="-4.70571">
        <ele>66.32978</ele>
        <time>2021-09-30T14:41:23.424Z</time>
      </trkpt>
      <trkpt lat="48.06076" lon="-4.70627">
        <ele>65.473852</ele>
        <time>2021-09-30T14:41:31.430Z</time>
      </trkpt>
      <trkpt lat="48.06077" lon="-4.70679">
        <ele>64.653933</ele>
        <time>2021-09-30T14:41:38.901Z</time>
      </trkpt>
      <trkpt lat="48.06088" lon="-4.70743">
        <ele>63.526141</ele>
        <time>2021-09-30T14:41:48.495Z</time>
      </trkpt>
      <trkpt lat="48.06104" lon="-4.70839">
        <ele>61.839197</ele>
        <time>2021-09-30T14:42:02.576Z</time>
      </trkpt>
      <trkpt lat="48.06099" lon="-4.70858">
        <ele>61.499047</ele>
        <time>2021-09-30T14:42:05.518Z</time>
      </trkpt>
      <trkpt lat="48.06078" lon="-4.70889">
        <ele>60.757207</ele>
        <time>2021-09-30T14:42:11.805Z</time>
      </trkpt>
      <trkpt lat="48.06053" lon="-4.7097">
        <ele>60.42033</ele>
        <time>2021-09-30T14:42:24.233Z</time>
      </trkpt>
      <trkpt lat="48.06044" lon="-4.7096">
        <ele>60.42033</ele>
        <time>2021-09-30T14:42:25.799Z</time>
      </trkpt>
      <trkpt lat="48.06007" lon="-4.7107">
        <ele>60.42033</ele>
        <time>2021-09-30T14:42:36.139Z</time>
      </trkpt>
      <trkpt lat="48.05992" lon="-4.71151">
        <ele>60.42033</ele>
        <time>2021-09-30T14:42:43.276Z</time>
      </trkpt>
    </trkseg>
  </trk>
</gpx>